<?xml version="1.0" encoding="UTF-8" standalone="no" ?>
<gpx xmlns="http://www.topografix.com/GPX/1/1" xmlns:xsi="http://www.w3.org/2001/XMLSchema-instance" xsi:schemaLocation="http://www.topografix.com/GPX/1/1 http://www.topografix.com/GPX/1/1/gpx.xsd" version="1.1" creator="VisuGPX - https://www.visugpx.com">
  <metadata>
    <name>Village de La Sèvre 9Km</name>
    <desc><![CDATA[Départ & retour:
[url]https://goo.gl/maps/1QfP2f72dKCyaT5X7[/url]]]></desc>
  </metadata>
  <wpt lat="46.33437" lon="-0.67217">
    <ele>3.4</ele>
  </wpt>
  <wpt lat="46.33516" lon="-0.66704">
    <ele>2.4</ele>
  </wpt>
  <wpt lat="46.33444" lon="-0.65767">
    <ele>3</ele>
  </wpt>
  <wpt lat="46.32668" lon="-0.64276">
    <ele>3</ele>
  </wpt>
  <wpt lat="46.32666" lon="-0.64275">
    <ele>3</ele>
  </wpt>
  <wpt lat="46.31725" lon="-0.65027">
    <ele>3</ele>
  </wpt>
  <wpt lat="46.31542" lon="-0.65623">
    <ele>2.7</ele>
  </wpt>
  <wpt lat="46.31591" lon="-0.65883">
    <ele>2.4</ele>
  </wpt>
  <wpt lat="46.31636" lon="-0.65968">
    <ele>2.9</ele>
  </wpt>
  <trk>
    <name><![CDATA[Village de La Sèvre 9Km_1]]></name>
    <trkseg>
      <trkpt lat="46.33101" lon="-0.67491">
        <ele>5</ele>
        <time>2012-05-11T09:50:37Z</time>
      </trkpt>
      <trkpt lat="46.33101" lon="-0.67515">
        <ele>6</ele>
        <time>2012-05-11T09:50:42Z</time>
      </trkpt>
      <trkpt lat="46.33097" lon="-0.67522">
        <ele>4</ele>
        <time>2012-05-11T09:50:47Z</time>
      </trkpt>
      <trkpt lat="46.33097" lon="-0.67526">
        <ele>4</ele>
        <time>2012-05-11T09:50:52Z</time>
      </trkpt>
      <trkpt lat="46.33101" lon="-0.67525">
        <ele>6</ele>
        <time>2012-05-11T09:50:57Z</time>
      </trkpt>
      <trkpt lat="46.33102" lon="-0.67527">
        <ele>6</ele>
        <time>2012-05-11T09:51:02Z</time>
      </trkpt>
      <trkpt lat="46.33107" lon="-0.67528">
        <ele>6</ele>
        <time>2012-05-11T09:51:07Z</time>
      </trkpt>
      <trkpt lat="46.33113" lon="-0.67526">
        <ele>6</ele>
        <time>2012-05-11T09:51:12Z</time>
      </trkpt>
      <trkpt lat="46.33119" lon="-0.67524">
        <ele>6</ele>
        <time>2012-05-11T09:51:17Z</time>
      </trkpt>
      <trkpt lat="46.33125" lon="-0.67515">
        <ele>6</ele>
        <time>2012-05-11T09:51:22Z</time>
      </trkpt>
      <trkpt lat="46.33128" lon="-0.67512">
        <ele>7</ele>
        <time>2012-05-11T09:51:27Z</time>
      </trkpt>
      <trkpt lat="46.33131" lon="-0.67511">
        <ele>7</ele>
        <time>2012-05-11T09:51:32Z</time>
      </trkpt>
      <trkpt lat="46.33131" lon="-0.67511">
        <ele>7</ele>
        <time>2012-05-11T09:51:37Z</time>
      </trkpt>
      <trkpt lat="46.33139" lon="-0.67503">
        <ele>7</ele>
        <time>2012-05-11T09:51:42Z</time>
      </trkpt>
      <trkpt lat="46.33143" lon="-0.67496">
        <ele>7</ele>
        <time>2012-05-11T09:51:47Z</time>
      </trkpt>
      <trkpt lat="46.33148" lon="-0.6749">
        <ele>7</ele>
        <time>2012-05-11T09:51:52Z</time>
      </trkpt>
      <trkpt lat="46.33153" lon="-0.67487">
        <ele>10</ele>
        <time>2012-05-11T09:51:57Z</time>
      </trkpt>
      <trkpt lat="46.33158" lon="-0.67482">
        <ele>9</ele>
        <time>2012-05-11T09:52:02Z</time>
      </trkpt>
      <trkpt lat="46.33163" lon="-0.67477">
        <ele>9</ele>
        <time>2012-05-11T09:52:07Z</time>
      </trkpt>
      <trkpt lat="46.33168" lon="-0.67474">
        <ele>9</ele>
        <time>2012-05-11T09:52:12Z</time>
      </trkpt>
      <trkpt lat="46.33174" lon="-0.67472">
        <ele>9</ele>
        <time>2012-05-11T09:52:17Z</time>
      </trkpt>
      <trkpt lat="46.33178" lon="-0.67467">
        <ele>9</ele>
        <time>2012-05-11T09:52:22Z</time>
      </trkpt>
      <trkpt lat="46.33182" lon="-0.67464">
        <ele>10</ele>
        <time>2012-05-11T09:52:27Z</time>
      </trkpt>
      <trkpt lat="46.33188" lon="-0.67459">
        <ele>10</ele>
        <time>2012-05-11T09:52:32Z</time>
      </trkpt>
      <trkpt lat="46.33192" lon="-0.67454">
        <ele>9</ele>
        <time>2012-05-11T09:52:37Z</time>
      </trkpt>
      <trkpt lat="46.33195" lon="-0.67452">
        <ele>9</ele>
        <time>2012-05-11T09:52:42Z</time>
      </trkpt>
      <trkpt lat="46.33201" lon="-0.67447">
        <ele>9</ele>
        <time>2012-05-11T09:52:47Z</time>
      </trkpt>
      <trkpt lat="46.33204" lon="-0.67445">
        <ele>9</ele>
        <time>2012-05-11T09:52:52Z</time>
      </trkpt>
      <trkpt lat="46.3321" lon="-0.67438">
        <ele>9</ele>
        <time>2012-05-11T09:52:57Z</time>
      </trkpt>
      <trkpt lat="46.33217" lon="-0.67437">
        <ele>9</ele>
        <time>2012-05-11T09:53:02Z</time>
      </trkpt>
      <trkpt lat="46.33221" lon="-0.67432">
        <ele>9</ele>
        <time>2012-05-11T09:53:07Z</time>
      </trkpt>
      <trkpt lat="46.33225" lon="-0.6743">
        <ele>7</ele>
        <time>2012-05-11T09:53:12Z</time>
      </trkpt>
      <trkpt lat="46.33232" lon="-0.67428">
        <ele>7</ele>
        <time>2012-05-11T09:53:17Z</time>
      </trkpt>
      <trkpt lat="46.33237" lon="-0.67422">
        <ele>4</ele>
        <time>2012-05-11T09:53:22Z</time>
      </trkpt>
      <trkpt lat="46.33242" lon="-0.67417">
        <ele>4</ele>
        <time>2012-05-11T09:53:27Z</time>
      </trkpt>
      <trkpt lat="46.33247" lon="-0.67412">
        <ele>4</ele>
        <time>2012-05-11T09:53:32Z</time>
      </trkpt>
      <trkpt lat="46.33253" lon="-0.67408">
        <ele>4</ele>
        <time>2012-05-11T09:53:37Z</time>
      </trkpt>
      <trkpt lat="46.33255" lon="-0.67403">
        <ele>4</ele>
        <time>2012-05-11T09:53:42Z</time>
      </trkpt>
      <trkpt lat="46.33259" lon="-0.67398">
        <ele>4</ele>
        <time>2012-05-11T09:53:47Z</time>
      </trkpt>
      <trkpt lat="46.33264" lon="-0.67395">
        <ele>3</ele>
        <time>2012-05-11T09:53:52Z</time>
      </trkpt>
      <trkpt lat="46.33271" lon="-0.67387">
        <ele>3</ele>
        <time>2012-05-11T09:53:57Z</time>
      </trkpt>
      <trkpt lat="46.33279" lon="-0.67384">
        <ele>3</ele>
        <time>2012-05-11T09:54:02Z</time>
      </trkpt>
      <trkpt lat="46.33286" lon="-0.6738">
        <ele>3</ele>
        <time>2012-05-11T09:54:07Z</time>
      </trkpt>
      <trkpt lat="46.33291" lon="-0.67374">
        <ele>2</ele>
        <time>2012-05-11T09:54:12Z</time>
      </trkpt>
      <trkpt lat="46.33297" lon="-0.67375">
        <ele>2</ele>
        <time>2012-05-11T09:54:17Z</time>
      </trkpt>
      <trkpt lat="46.33303" lon="-0.67372">
        <ele>2</ele>
        <time>2012-05-11T09:54:22Z</time>
      </trkpt>
      <trkpt lat="46.33303" lon="-0.67367">
        <ele>2</ele>
        <time>2012-05-11T09:54:27Z</time>
      </trkpt>
      <trkpt lat="46.33307" lon="-0.67363">
        <ele>2</ele>
        <time>2012-05-11T09:54:32Z</time>
      </trkpt>
      <trkpt lat="46.33313" lon="-0.67361">
        <ele>2</ele>
        <time>2012-05-11T09:54:37Z</time>
      </trkpt>
      <trkpt lat="46.33319" lon="-0.67355">
        <ele>2</ele>
        <time>2012-05-11T09:54:42Z</time>
      </trkpt>
      <trkpt lat="46.33324" lon="-0.67351">
        <ele>2</ele>
        <time>2012-05-11T09:54:47Z</time>
      </trkpt>
      <trkpt lat="46.3333" lon="-0.67344">
        <ele>2</ele>
        <time>2012-05-11T09:54:52Z</time>
      </trkpt>
      <trkpt lat="46.33336" lon="-0.6734">
        <ele>2</ele>
        <time>2012-05-11T09:54:57Z</time>
      </trkpt>
      <trkpt lat="46.33342" lon="-0.67335">
        <ele>2</ele>
        <time>2012-05-11T09:55:02Z</time>
      </trkpt>
      <trkpt lat="46.33348" lon="-0.67332">
        <ele>4</ele>
        <time>2012-05-11T09:55:07Z</time>
      </trkpt>
      <trkpt lat="46.33352" lon="-0.67327">
        <ele>4</ele>
        <time>2012-05-11T09:55:12Z</time>
      </trkpt>
      <trkpt lat="46.33358" lon="-0.67322">
        <ele>4</ele>
        <time>2012-05-11T09:55:17Z</time>
      </trkpt>
      <trkpt lat="46.33363" lon="-0.67316">
        <ele>4</ele>
        <time>2012-05-11T09:55:22Z</time>
      </trkpt>
      <trkpt lat="46.33367" lon="-0.67312">
        <ele>4</ele>
        <time>2012-05-11T09:55:27Z</time>
      </trkpt>
      <trkpt lat="46.33372" lon="-0.67308">
        <ele>4</ele>
        <time>2012-05-11T09:55:32Z</time>
      </trkpt>
      <trkpt lat="46.33376" lon="-0.67305">
        <ele>4</ele>
        <time>2012-05-11T09:55:37Z</time>
      </trkpt>
      <trkpt lat="46.3338" lon="-0.67299">
        <ele>4</ele>
        <time>2012-05-11T09:55:42Z</time>
      </trkpt>
      <trkpt lat="46.33385" lon="-0.67292">
        <ele>4</ele>
        <time>2012-05-11T09:55:47Z</time>
      </trkpt>
      <trkpt lat="46.33391" lon="-0.67286">
        <ele>4</ele>
        <time>2012-05-11T09:55:52Z</time>
      </trkpt>
      <trkpt lat="46.33393" lon="-0.67281">
        <ele>4</ele>
        <time>2012-05-11T09:55:57Z</time>
      </trkpt>
      <trkpt lat="46.33397" lon="-0.67277">
        <ele>4</ele>
        <time>2012-05-11T09:56:02Z</time>
      </trkpt>
      <trkpt lat="46.33405" lon="-0.67271">
        <ele>4</ele>
        <time>2012-05-11T09:56:07Z</time>
      </trkpt>
      <trkpt lat="46.33408" lon="-0.67263">
        <ele>4</ele>
        <time>2012-05-11T09:56:12Z</time>
      </trkpt>
      <trkpt lat="46.33411" lon="-0.67255">
        <ele>4</ele>
        <time>2012-05-11T09:56:17Z</time>
      </trkpt>
      <trkpt lat="46.33415" lon="-0.67252">
        <ele>4</ele>
        <time>2012-05-11T09:56:22Z</time>
      </trkpt>
      <trkpt lat="46.33419" lon="-0.67242">
        <ele>4</ele>
        <time>2012-05-11T09:56:27Z</time>
      </trkpt>
      <trkpt lat="46.33426" lon="-0.67237">
        <ele>4</ele>
        <time>2012-05-11T09:56:32Z</time>
      </trkpt>
      <trkpt lat="46.3343" lon="-0.67231">
        <ele>4</ele>
        <time>2012-05-11T09:56:37Z</time>
      </trkpt>
      <trkpt lat="46.33431" lon="-0.67225">
        <ele>3</ele>
        <time>2012-05-11T09:56:42Z</time>
      </trkpt>
      <trkpt lat="46.33437" lon="-0.6722">
        <ele>3</ele>
        <time>2012-05-11T09:56:47Z</time>
      </trkpt>
      <trkpt lat="46.33437" lon="-0.67216">
        <ele>3</ele>
        <time>2012-05-11T09:56:52Z</time>
      </trkpt>
      <trkpt lat="46.33442" lon="-0.6721">
        <ele>3</ele>
        <time>2012-05-11T09:56:57Z</time>
      </trkpt>
      <trkpt lat="46.33445" lon="-0.67204">
        <ele>4</ele>
        <time>2012-05-11T09:57:02Z</time>
      </trkpt>
      <trkpt lat="46.3345" lon="-0.67198">
        <ele>4</ele>
        <time>2012-05-11T09:57:07Z</time>
      </trkpt>
      <trkpt lat="46.33453" lon="-0.67195">
        <ele>4</ele>
        <time>2012-05-11T09:57:12Z</time>
      </trkpt>
      <trkpt lat="46.33453" lon="-0.67195">
        <ele>4</ele>
        <time>2012-05-11T09:57:17Z</time>
      </trkpt>
      <trkpt lat="46.33457" lon="-0.67187">
        <ele>4</ele>
        <time>2012-05-11T09:57:22Z</time>
      </trkpt>
      <trkpt lat="46.33461" lon="-0.67181">
        <ele>3</ele>
        <time>2012-05-11T09:57:27Z</time>
      </trkpt>
      <trkpt lat="46.33466" lon="-0.67172">
        <ele>4</ele>
        <time>2012-05-11T09:57:32Z</time>
      </trkpt>
      <trkpt lat="46.33472" lon="-0.67165">
        <ele>4</ele>
        <time>2012-05-11T09:57:37Z</time>
      </trkpt>
      <trkpt lat="46.33481" lon="-0.67156">
        <ele>4</ele>
        <time>2012-05-11T09:57:42Z</time>
      </trkpt>
      <trkpt lat="46.33488" lon="-0.6715">
        <ele>3</ele>
        <time>2012-05-11T09:57:47Z</time>
      </trkpt>
      <trkpt lat="46.33492" lon="-0.6714">
        <ele>3</ele>
        <time>2012-05-11T09:57:52Z</time>
      </trkpt>
      <trkpt lat="46.33496" lon="-0.67132">
        <ele>3</ele>
        <time>2012-05-11T09:57:57Z</time>
      </trkpt>
      <trkpt lat="46.33498" lon="-0.67124">
        <ele>4</ele>
        <time>2012-05-11T09:58:02Z</time>
      </trkpt>
      <trkpt lat="46.33499" lon="-0.67116">
        <ele>4</ele>
        <time>2012-05-11T09:58:07Z</time>
      </trkpt>
      <trkpt lat="46.33501" lon="-0.67107">
        <ele>4</ele>
        <time>2012-05-11T09:58:12Z</time>
      </trkpt>
      <trkpt lat="46.33503" lon="-0.67099">
        <ele>4</ele>
        <time>2012-05-11T09:58:17Z</time>
      </trkpt>
      <trkpt lat="46.33504" lon="-0.67091">
        <ele>4</ele>
        <time>2012-05-11T09:58:22Z</time>
      </trkpt>
      <trkpt lat="46.33507" lon="-0.67082">
        <ele>4</ele>
        <time>2012-05-11T09:58:27Z</time>
      </trkpt>
      <trkpt lat="46.33509" lon="-0.67072">
        <ele>4</ele>
        <time>2012-05-11T09:58:32Z</time>
      </trkpt>
      <trkpt lat="46.3351" lon="-0.67065">
        <ele>4</ele>
        <time>2012-05-11T09:58:37Z</time>
      </trkpt>
      <trkpt lat="46.33511" lon="-0.67057">
        <ele>4</ele>
        <time>2012-05-11T09:58:42Z</time>
      </trkpt>
      <trkpt lat="46.33513" lon="-0.67049">
        <ele>4</ele>
        <time>2012-05-11T09:58:47Z</time>
      </trkpt>
      <trkpt lat="46.33517" lon="-0.67041">
        <ele>5</ele>
        <time>2012-05-11T09:58:52Z</time>
      </trkpt>
      <trkpt lat="46.3352" lon="-0.67033">
        <ele>5</ele>
        <time>2012-05-11T09:58:57Z</time>
      </trkpt>
      <trkpt lat="46.33522" lon="-0.67026">
        <ele>5</ele>
        <time>2012-05-11T09:59:02Z</time>
      </trkpt>
      <trkpt lat="46.33523" lon="-0.67017">
        <ele>5</ele>
        <time>2012-05-11T09:59:07Z</time>
      </trkpt>
      <trkpt lat="46.33523" lon="-0.67007">
        <ele>5</ele>
        <time>2012-05-11T09:59:12Z</time>
      </trkpt>
      <trkpt lat="46.33523" lon="-0.67001">
        <ele>5</ele>
        <time>2012-05-11T09:59:17Z</time>
      </trkpt>
      <trkpt lat="46.33525" lon="-0.66993">
        <ele>5</ele>
        <time>2012-05-11T09:59:22Z</time>
      </trkpt>
      <trkpt lat="46.33527" lon="-0.66981">
        <ele>4</ele>
        <time>2012-05-11T09:59:27Z</time>
      </trkpt>
      <trkpt lat="46.33522" lon="-0.66972">
        <ele>4</ele>
        <time>2012-05-11T09:59:32Z</time>
      </trkpt>
      <trkpt lat="46.33524" lon="-0.66963">
        <ele>4</ele>
        <time>2012-05-11T09:59:37Z</time>
      </trkpt>
      <trkpt lat="46.33525" lon="-0.66955">
        <ele>4</ele>
        <time>2012-05-11T09:59:42Z</time>
      </trkpt>
      <trkpt lat="46.33526" lon="-0.66947">
        <ele>4</ele>
        <time>2012-05-11T09:59:47Z</time>
      </trkpt>
      <trkpt lat="46.33524" lon="-0.66938">
        <ele>4</ele>
        <time>2012-05-11T09:59:52Z</time>
      </trkpt>
      <trkpt lat="46.33521" lon="-0.66928">
        <ele>4</ele>
        <time>2012-05-11T09:59:57Z</time>
      </trkpt>
      <trkpt lat="46.33519" lon="-0.66918">
        <ele>4</ele>
        <time>2012-05-11T10:00:02Z</time>
      </trkpt>
      <trkpt lat="46.33518" lon="-0.66911">
        <ele>4</ele>
        <time>2012-05-11T10:00:07Z</time>
      </trkpt>
      <trkpt lat="46.33519" lon="-0.66904">
        <ele>4</ele>
        <time>2012-05-11T10:00:12Z</time>
      </trkpt>
      <trkpt lat="46.33518" lon="-0.66895">
        <ele>5</ele>
        <time>2012-05-11T10:00:17Z</time>
      </trkpt>
      <trkpt lat="46.33517" lon="-0.66887">
        <ele>5</ele>
        <time>2012-05-11T10:00:22Z</time>
      </trkpt>
      <trkpt lat="46.33517" lon="-0.6688">
        <ele>5</ele>
        <time>2012-05-11T10:00:27Z</time>
      </trkpt>
      <trkpt lat="46.33516" lon="-0.66872">
        <ele>5</ele>
        <time>2012-05-11T10:00:32Z</time>
      </trkpt>
      <trkpt lat="46.33516" lon="-0.66865">
        <ele>5</ele>
        <time>2012-05-11T10:00:37Z</time>
      </trkpt>
      <trkpt lat="46.33517" lon="-0.66855">
        <ele>5</ele>
        <time>2012-05-11T10:00:42Z</time>
      </trkpt>
      <trkpt lat="46.33518" lon="-0.66843">
        <ele>6</ele>
        <time>2012-05-11T10:00:47Z</time>
      </trkpt>
      <trkpt lat="46.33518" lon="-0.66833">
        <ele>6</ele>
        <time>2012-05-11T10:00:52Z</time>
      </trkpt>
      <trkpt lat="46.33518" lon="-0.66825">
        <ele>6</ele>
        <time>2012-05-11T10:00:57Z</time>
      </trkpt>
      <trkpt lat="46.33518" lon="-0.66814">
        <ele>6</ele>
        <time>2012-05-11T10:01:02Z</time>
      </trkpt>
      <trkpt lat="46.33519" lon="-0.66807">
        <ele>6</ele>
        <time>2012-05-11T10:01:07Z</time>
      </trkpt>
      <trkpt lat="46.3352" lon="-0.66799">
        <ele>6</ele>
        <time>2012-05-11T10:01:12Z</time>
      </trkpt>
      <trkpt lat="46.3352" lon="-0.6679">
        <ele>5</ele>
        <time>2012-05-11T10:01:17Z</time>
      </trkpt>
      <trkpt lat="46.33519" lon="-0.66781">
        <ele>5</ele>
        <time>2012-05-11T10:01:22Z</time>
      </trkpt>
      <trkpt lat="46.33518" lon="-0.66773">
        <ele>5</ele>
        <time>2012-05-11T10:01:27Z</time>
      </trkpt>
      <trkpt lat="46.33517" lon="-0.66765">
        <ele>5</ele>
        <time>2012-05-11T10:01:32Z</time>
      </trkpt>
      <trkpt lat="46.33518" lon="-0.66756">
        <ele>3</ele>
        <time>2012-05-11T10:01:37Z</time>
      </trkpt>
      <trkpt lat="46.33518" lon="-0.66748">
        <ele>3</ele>
        <time>2012-05-11T10:01:42Z</time>
      </trkpt>
      <trkpt lat="46.33518" lon="-0.6674">
        <ele>3</ele>
        <time>2012-05-11T10:01:47Z</time>
      </trkpt>
      <trkpt lat="46.33518" lon="-0.66733">
        <ele>1</ele>
        <time>2012-05-11T10:01:52Z</time>
      </trkpt>
      <trkpt lat="46.33519" lon="-0.66725">
        <ele>1</ele>
        <time>2012-05-11T10:01:57Z</time>
      </trkpt>
      <trkpt lat="46.33518" lon="-0.66716">
        <ele>1</ele>
        <time>2012-05-11T10:02:02Z</time>
      </trkpt>
      <trkpt lat="46.33518" lon="-0.66712">
        <ele>1</ele>
        <time>2012-05-11T10:02:07Z</time>
      </trkpt>
      <trkpt lat="46.33518" lon="-0.66705">
        <ele>2</ele>
        <time>2012-05-11T10:02:12Z</time>
      </trkpt>
      <trkpt lat="46.33515" lon="-0.66704">
        <ele>2</ele>
        <time>2012-05-11T10:02:17Z</time>
      </trkpt>
      <trkpt lat="46.33514" lon="-0.66702">
        <ele>2</ele>
        <time>2012-05-11T10:02:22Z</time>
      </trkpt>
      <trkpt lat="46.33515" lon="-0.66694">
        <ele>2</ele>
        <time>2012-05-11T10:02:27Z</time>
      </trkpt>
      <trkpt lat="46.33516" lon="-0.66682">
        <ele>2</ele>
        <time>2012-05-11T10:02:32Z</time>
      </trkpt>
      <trkpt lat="46.33516" lon="-0.66674">
        <ele>2</ele>
        <time>2012-05-11T10:02:37Z</time>
      </trkpt>
      <trkpt lat="46.33517" lon="-0.66665">
        <ele>2</ele>
        <time>2012-05-11T10:02:42Z</time>
      </trkpt>
      <trkpt lat="46.33518" lon="-0.66656">
        <ele>2</ele>
        <time>2012-05-11T10:02:47Z</time>
      </trkpt>
      <trkpt lat="46.33519" lon="-0.66648">
        <ele>3</ele>
        <time>2012-05-11T10:02:52Z</time>
      </trkpt>
      <trkpt lat="46.33519" lon="-0.66639">
        <ele>3</ele>
        <time>2012-05-11T10:02:57Z</time>
      </trkpt>
      <trkpt lat="46.33519" lon="-0.66629">
        <ele>3</ele>
        <time>2012-05-11T10:03:02Z</time>
      </trkpt>
      <trkpt lat="46.33519" lon="-0.6662">
        <ele>3</ele>
        <time>2012-05-11T10:03:07Z</time>
      </trkpt>
      <trkpt lat="46.33519" lon="-0.66609">
        <ele>3</ele>
        <time>2012-05-11T10:03:12Z</time>
      </trkpt>
      <trkpt lat="46.3352" lon="-0.666">
        <ele>3</ele>
        <time>2012-05-11T10:03:17Z</time>
      </trkpt>
      <trkpt lat="46.33521" lon="-0.6659">
        <ele>3</ele>
        <time>2012-05-11T10:03:22Z</time>
      </trkpt>
      <trkpt lat="46.33522" lon="-0.6658">
        <ele>3</ele>
        <time>2012-05-11T10:03:27Z</time>
      </trkpt>
      <trkpt lat="46.33523" lon="-0.66572">
        <ele>3</ele>
        <time>2012-05-11T10:03:32Z</time>
      </trkpt>
      <trkpt lat="46.33524" lon="-0.66563">
        <ele>2</ele>
        <time>2012-05-11T10:03:37Z</time>
      </trkpt>
      <trkpt lat="46.33524" lon="-0.66554">
        <ele>2</ele>
        <time>2012-05-11T10:03:42Z</time>
      </trkpt>
      <trkpt lat="46.33525" lon="-0.66546">
        <ele>2</ele>
        <time>2012-05-11T10:03:47Z</time>
      </trkpt>
      <trkpt lat="46.33526" lon="-0.66538">
        <ele>2</ele>
        <time>2012-05-11T10:03:52Z</time>
      </trkpt>
      <trkpt lat="46.33525" lon="-0.66529">
        <ele>2</ele>
        <time>2012-05-11T10:03:57Z</time>
      </trkpt>
      <trkpt lat="46.33531" lon="-0.66521">
        <ele>2</ele>
        <time>2012-05-11T10:04:02Z</time>
      </trkpt>
      <trkpt lat="46.33531" lon="-0.66513">
        <ele>1</ele>
        <time>2012-05-11T10:04:07Z</time>
      </trkpt>
      <trkpt lat="46.33528" lon="-0.66504">
        <ele>1</ele>
        <time>2012-05-11T10:04:12Z</time>
      </trkpt>
      <trkpt lat="46.33525" lon="-0.66493">
        <ele>1</ele>
        <time>2012-05-11T10:04:17Z</time>
      </trkpt>
      <trkpt lat="46.33524" lon="-0.66486">
        <ele>3</ele>
        <time>2012-05-11T10:04:22Z</time>
      </trkpt>
      <trkpt lat="46.3352" lon="-0.66478">
        <ele>3</ele>
        <time>2012-05-11T10:04:27Z</time>
      </trkpt>
      <trkpt lat="46.33518" lon="-0.66472">
        <ele>3</ele>
        <time>2012-05-11T10:04:32Z</time>
      </trkpt>
      <trkpt lat="46.33519" lon="-0.66461">
        <ele>3</ele>
        <time>2012-05-11T10:04:37Z</time>
      </trkpt>
      <trkpt lat="46.33518" lon="-0.66452">
        <ele>1</ele>
        <time>2012-05-11T10:04:42Z</time>
      </trkpt>
      <trkpt lat="46.33518" lon="-0.66442">
        <ele>1</ele>
        <time>2012-05-11T10:04:47Z</time>
      </trkpt>
      <trkpt lat="46.33518" lon="-0.66434">
        <ele>1</ele>
        <time>2012-05-11T10:04:52Z</time>
      </trkpt>
      <trkpt lat="46.33519" lon="-0.66426">
        <ele>2</ele>
        <time>2012-05-11T10:04:57Z</time>
      </trkpt>
      <trkpt lat="46.33519" lon="-0.66418">
        <ele>2</ele>
        <time>2012-05-11T10:05:02Z</time>
      </trkpt>
      <trkpt lat="46.33518" lon="-0.6641">
        <ele>2</ele>
        <time>2012-05-11T10:05:07Z</time>
      </trkpt>
      <trkpt lat="46.33518" lon="-0.664">
        <ele>2</ele>
        <time>2012-05-11T10:05:12Z</time>
      </trkpt>
      <trkpt lat="46.33519" lon="-0.66391">
        <ele>2</ele>
        <time>2012-05-11T10:05:17Z</time>
      </trkpt>
      <trkpt lat="46.33518" lon="-0.66384">
        <ele>2</ele>
        <time>2012-05-11T10:05:22Z</time>
      </trkpt>
      <trkpt lat="46.33518" lon="-0.66374">
        <ele>2</ele>
        <time>2012-05-11T10:05:27Z</time>
      </trkpt>
      <trkpt lat="46.33519" lon="-0.66366">
        <ele>2</ele>
        <time>2012-05-11T10:05:32Z</time>
      </trkpt>
      <trkpt lat="46.3352" lon="-0.66357">
        <ele>2</ele>
        <time>2012-05-11T10:05:37Z</time>
      </trkpt>
      <trkpt lat="46.33516" lon="-0.66348">
        <ele>2</ele>
        <time>2012-05-11T10:05:42Z</time>
      </trkpt>
      <trkpt lat="46.33517" lon="-0.66341">
        <ele>1</ele>
        <time>2012-05-11T10:05:47Z</time>
      </trkpt>
      <trkpt lat="46.33517" lon="-0.66332">
        <ele>1</ele>
        <time>2012-05-11T10:05:52Z</time>
      </trkpt>
      <trkpt lat="46.33519" lon="-0.66323">
        <ele>1</ele>
        <time>2012-05-11T10:05:57Z</time>
      </trkpt>
      <trkpt lat="46.33519" lon="-0.66314">
        <ele>1</ele>
        <time>2012-05-11T10:06:02Z</time>
      </trkpt>
      <trkpt lat="46.3352" lon="-0.66306">
        <ele>1</ele>
        <time>2012-05-11T10:06:07Z</time>
      </trkpt>
      <trkpt lat="46.3352" lon="-0.66297">
        <ele>1</ele>
        <time>2012-05-11T10:06:12Z</time>
      </trkpt>
      <trkpt lat="46.3352" lon="-0.6629">
        <ele>2</ele>
        <time>2012-05-11T10:06:17Z</time>
      </trkpt>
      <trkpt lat="46.33519" lon="-0.66281">
        <ele>2</ele>
        <time>2012-05-11T10:06:22Z</time>
      </trkpt>
      <trkpt lat="46.33517" lon="-0.66272">
        <ele>2</ele>
        <time>2012-05-11T10:06:27Z</time>
      </trkpt>
      <trkpt lat="46.33514" lon="-0.66266">
        <ele>2</ele>
        <time>2012-05-11T10:06:32Z</time>
      </trkpt>
      <trkpt lat="46.33514" lon="-0.66258">
        <ele>3</ele>
        <time>2012-05-11T10:06:37Z</time>
      </trkpt>
      <trkpt lat="46.33512" lon="-0.66249">
        <ele>4</ele>
        <time>2012-05-11T10:06:42Z</time>
      </trkpt>
      <trkpt lat="46.33513" lon="-0.66242">
        <ele>4</ele>
        <time>2012-05-11T10:06:47Z</time>
      </trkpt>
      <trkpt lat="46.33511" lon="-0.66234">
        <ele>3</ele>
        <time>2012-05-11T10:06:52Z</time>
      </trkpt>
      <trkpt lat="46.3351" lon="-0.66224">
        <ele>3</ele>
        <time>2012-05-11T10:06:57Z</time>
      </trkpt>
      <trkpt lat="46.33509" lon="-0.66216">
        <ele>3</ele>
        <time>2012-05-11T10:07:02Z</time>
      </trkpt>
      <trkpt lat="46.33507" lon="-0.66208">
        <ele>3</ele>
        <time>2012-05-11T10:07:07Z</time>
      </trkpt>
      <trkpt lat="46.33505" lon="-0.66199">
        <ele>3</ele>
        <time>2012-05-11T10:07:12Z</time>
      </trkpt>
      <trkpt lat="46.33504" lon="-0.6619">
        <ele>3</ele>
        <time>2012-05-11T10:07:17Z</time>
      </trkpt>
      <trkpt lat="46.33504" lon="-0.66181">
        <ele>3</ele>
        <time>2012-05-11T10:07:22Z</time>
      </trkpt>
      <trkpt lat="46.33502" lon="-0.66174">
        <ele>3</ele>
        <time>2012-05-11T10:07:27Z</time>
      </trkpt>
      <trkpt lat="46.33501" lon="-0.66167">
        <ele>3</ele>
        <time>2012-05-11T10:07:32Z</time>
      </trkpt>
      <trkpt lat="46.335" lon="-0.66158">
        <ele>3</ele>
        <time>2012-05-11T10:07:37Z</time>
      </trkpt>
      <trkpt lat="46.33501" lon="-0.66148">
        <ele>5</ele>
        <time>2012-05-11T10:07:42Z</time>
      </trkpt>
      <trkpt lat="46.33502" lon="-0.6614">
        <ele>5</ele>
        <time>2012-05-11T10:07:47Z</time>
      </trkpt>
      <trkpt lat="46.335" lon="-0.66131">
        <ele>5</ele>
        <time>2012-05-11T10:07:52Z</time>
      </trkpt>
      <trkpt lat="46.33497" lon="-0.66122">
        <ele>6</ele>
        <time>2012-05-11T10:07:57Z</time>
      </trkpt>
      <trkpt lat="46.33495" lon="-0.66115">
        <ele>6</ele>
        <time>2012-05-11T10:08:02Z</time>
      </trkpt>
      <trkpt lat="46.33491" lon="-0.66106">
        <ele>6</ele>
        <time>2012-05-11T10:08:07Z</time>
      </trkpt>
      <trkpt lat="46.33491" lon="-0.66098">
        <ele>6</ele>
        <time>2012-05-11T10:08:12Z</time>
      </trkpt>
      <trkpt lat="46.33488" lon="-0.66089">
        <ele>5</ele>
        <time>2012-05-11T10:08:17Z</time>
      </trkpt>
      <trkpt lat="46.33487" lon="-0.66081">
        <ele>5</ele>
        <time>2012-05-11T10:08:22Z</time>
      </trkpt>
      <trkpt lat="46.33487" lon="-0.66074">
        <ele>5</ele>
        <time>2012-05-11T10:08:27Z</time>
      </trkpt>
      <trkpt lat="46.33485" lon="-0.66067">
        <ele>5</ele>
        <time>2012-05-11T10:08:32Z</time>
      </trkpt>
      <trkpt lat="46.33485" lon="-0.66059">
        <ele>5</ele>
        <time>2012-05-11T10:08:37Z</time>
      </trkpt>
      <trkpt lat="46.33485" lon="-0.66049">
        <ele>5</ele>
        <time>2012-05-11T10:08:42Z</time>
      </trkpt>
      <trkpt lat="46.33483" lon="-0.66039">
        <ele>4</ele>
        <time>2012-05-11T10:08:47Z</time>
      </trkpt>
      <trkpt lat="46.33481" lon="-0.6603">
        <ele>4</ele>
        <time>2012-05-11T10:08:52Z</time>
      </trkpt>
      <trkpt lat="46.33479" lon="-0.66023">
        <ele>4</ele>
        <time>2012-05-11T10:08:57Z</time>
      </trkpt>
      <trkpt lat="46.33479" lon="-0.66014">
        <ele>4</ele>
        <time>2012-05-11T10:09:02Z</time>
      </trkpt>
      <trkpt lat="46.33478" lon="-0.66005">
        <ele>3</ele>
        <time>2012-05-11T10:09:07Z</time>
      </trkpt>
      <trkpt lat="46.33479" lon="-0.65997">
        <ele>3</ele>
        <time>2012-05-11T10:09:12Z</time>
      </trkpt>
      <trkpt lat="46.33477" lon="-0.65988">
        <ele>3</ele>
        <time>2012-05-11T10:09:17Z</time>
      </trkpt>
      <trkpt lat="46.33477" lon="-0.6598">
        <ele>3</ele>
        <time>2012-05-11T10:09:22Z</time>
      </trkpt>
      <trkpt lat="46.33476" lon="-0.65974">
        <ele>3</ele>
        <time>2012-05-11T10:09:27Z</time>
      </trkpt>
      <trkpt lat="46.33475" lon="-0.65966">
        <ele>3</ele>
        <time>2012-05-11T10:09:32Z</time>
      </trkpt>
      <trkpt lat="46.33475" lon="-0.65959">
        <ele>3</ele>
        <time>2012-05-11T10:09:37Z</time>
      </trkpt>
      <trkpt lat="46.33473" lon="-0.65949">
        <ele>4</ele>
        <time>2012-05-11T10:09:42Z</time>
      </trkpt>
      <trkpt lat="46.33473" lon="-0.6594">
        <ele>4</ele>
        <time>2012-05-11T10:09:47Z</time>
      </trkpt>
      <trkpt lat="46.33473" lon="-0.65934">
        <ele>4</ele>
        <time>2012-05-11T10:09:52Z</time>
      </trkpt>
      <trkpt lat="46.3347" lon="-0.65925">
        <ele>5</ele>
        <time>2012-05-11T10:09:57Z</time>
      </trkpt>
      <trkpt lat="46.33468" lon="-0.65917">
        <ele>5</ele>
        <time>2012-05-11T10:10:02Z</time>
      </trkpt>
      <trkpt lat="46.33467" lon="-0.65908">
        <ele>5</ele>
        <time>2012-05-11T10:10:07Z</time>
      </trkpt>
      <trkpt lat="46.33466" lon="-0.65901">
        <ele>5</ele>
        <time>2012-05-11T10:10:12Z</time>
      </trkpt>
      <trkpt lat="46.33464" lon="-0.65894">
        <ele>5</ele>
        <time>2012-05-11T10:10:17Z</time>
      </trkpt>
      <trkpt lat="46.33461" lon="-0.65884">
        <ele>5</ele>
        <time>2012-05-11T10:10:22Z</time>
      </trkpt>
      <trkpt lat="46.33459" lon="-0.65875">
        <ele>4</ele>
        <time>2012-05-11T10:10:27Z</time>
      </trkpt>
      <trkpt lat="46.33459" lon="-0.65868">
        <ele>4</ele>
        <time>2012-05-11T10:10:32Z</time>
      </trkpt>
      <trkpt lat="46.33458" lon="-0.65859">
        <ele>4</ele>
        <time>2012-05-11T10:10:37Z</time>
      </trkpt>
      <trkpt lat="46.33458" lon="-0.65853">
        <ele>4</ele>
        <time>2012-05-11T10:10:42Z</time>
      </trkpt>
      <trkpt lat="46.33456" lon="-0.65843">
        <ele>4</ele>
        <time>2012-05-11T10:10:47Z</time>
      </trkpt>
      <trkpt lat="46.33454" lon="-0.65835">
        <ele>4</ele>
        <time>2012-05-11T10:10:52Z</time>
      </trkpt>
      <trkpt lat="46.33453" lon="-0.65828">
        <ele>4</ele>
        <time>2012-05-11T10:10:57Z</time>
      </trkpt>
      <trkpt lat="46.33452" lon="-0.65819">
        <ele>3</ele>
        <time>2012-05-11T10:11:02Z</time>
      </trkpt>
      <trkpt lat="46.33451" lon="-0.6581">
        <ele>3</ele>
        <time>2012-05-11T10:11:07Z</time>
      </trkpt>
      <trkpt lat="46.33448" lon="-0.65803">
        <ele>3</ele>
        <time>2012-05-11T10:11:12Z</time>
      </trkpt>
      <trkpt lat="46.33447" lon="-0.65795">
        <ele>3</ele>
        <time>2012-05-11T10:11:17Z</time>
      </trkpt>
      <trkpt lat="46.33446" lon="-0.65787">
        <ele>4</ele>
        <time>2012-05-11T10:11:22Z</time>
      </trkpt>
      <trkpt lat="46.33445" lon="-0.6578">
        <ele>4</ele>
        <time>2012-05-11T10:11:27Z</time>
      </trkpt>
      <trkpt lat="46.33445" lon="-0.6577">
        <ele>4</ele>
        <time>2012-05-11T10:11:32Z</time>
      </trkpt>
      <trkpt lat="46.33444" lon="-0.65768">
        <ele>4</ele>
        <time>2012-05-11T10:11:37Z</time>
      </trkpt>
      <trkpt lat="46.33445" lon="-0.65768">
        <ele>4</ele>
        <time>2012-05-11T10:11:42Z</time>
      </trkpt>
      <trkpt lat="46.33444" lon="-0.65767">
        <ele>4</ele>
        <time>2012-05-11T10:11:47Z</time>
      </trkpt>
      <trkpt lat="46.33445" lon="-0.65767">
        <ele>4</ele>
        <time>2012-05-11T10:11:52Z</time>
      </trkpt>
      <trkpt lat="46.33444" lon="-0.65761">
        <ele>4</ele>
        <time>2012-05-11T10:11:57Z</time>
      </trkpt>
      <trkpt lat="46.33443" lon="-0.65752">
        <ele>4</ele>
        <time>2012-05-11T10:12:02Z</time>
      </trkpt>
      <trkpt lat="46.33441" lon="-0.65742">
        <ele>4</ele>
        <time>2012-05-11T10:12:07Z</time>
      </trkpt>
      <trkpt lat="46.3344" lon="-0.65733">
        <ele>4</ele>
        <time>2012-05-11T10:12:12Z</time>
      </trkpt>
      <trkpt lat="46.33439" lon="-0.65724">
        <ele>4</ele>
        <time>2012-05-11T10:12:17Z</time>
      </trkpt>
      <trkpt lat="46.33438" lon="-0.65714">
        <ele>4</ele>
        <time>2012-05-11T10:12:22Z</time>
      </trkpt>
      <trkpt lat="46.33437" lon="-0.65704">
        <ele>4</ele>
        <time>2012-05-11T10:12:27Z</time>
      </trkpt>
      <trkpt lat="46.33437" lon="-0.65695">
        <ele>4</ele>
        <time>2012-05-11T10:12:32Z</time>
      </trkpt>
      <trkpt lat="46.33434" lon="-0.65685">
        <ele>4</ele>
        <time>2012-05-11T10:12:37Z</time>
      </trkpt>
      <trkpt lat="46.33431" lon="-0.65676">
        <ele>5</ele>
        <time>2012-05-11T10:12:42Z</time>
      </trkpt>
      <trkpt lat="46.33428" lon="-0.65667">
        <ele>7</ele>
        <time>2012-05-11T10:12:47Z</time>
      </trkpt>
      <trkpt lat="46.33428" lon="-0.65656">
        <ele>7</ele>
        <time>2012-05-11T10:12:52Z</time>
      </trkpt>
      <trkpt lat="46.33428" lon="-0.65647">
        <ele>7</ele>
        <time>2012-05-11T10:12:57Z</time>
      </trkpt>
      <trkpt lat="46.33426" lon="-0.65637">
        <ele>7</ele>
        <time>2012-05-11T10:13:02Z</time>
      </trkpt>
      <trkpt lat="46.33425" lon="-0.65628">
        <ele>7</ele>
        <time>2012-05-11T10:13:07Z</time>
      </trkpt>
      <trkpt lat="46.33423" lon="-0.65619">
        <ele>6</ele>
        <time>2012-05-11T10:13:12Z</time>
      </trkpt>
      <trkpt lat="46.33422" lon="-0.65608">
        <ele>6</ele>
        <time>2012-05-11T10:13:17Z</time>
      </trkpt>
      <trkpt lat="46.33421" lon="-0.65597">
        <ele>5</ele>
        <time>2012-05-11T10:13:22Z</time>
      </trkpt>
      <trkpt lat="46.3342" lon="-0.65588">
        <ele>5</ele>
        <time>2012-05-11T10:13:27Z</time>
      </trkpt>
      <trkpt lat="46.33419" lon="-0.65578">
        <ele>5</ele>
        <time>2012-05-11T10:13:32Z</time>
      </trkpt>
      <trkpt lat="46.33418" lon="-0.6557">
        <ele>5</ele>
        <time>2012-05-11T10:13:37Z</time>
      </trkpt>
      <trkpt lat="46.33417" lon="-0.65563">
        <ele>5</ele>
        <time>2012-05-11T10:13:42Z</time>
      </trkpt>
      <trkpt lat="46.33416" lon="-0.65556">
        <ele>5</ele>
        <time>2012-05-11T10:13:47Z</time>
      </trkpt>
      <trkpt lat="46.33414" lon="-0.65547">
        <ele>5</ele>
        <time>2012-05-11T10:13:52Z</time>
      </trkpt>
      <trkpt lat="46.33414" lon="-0.65538">
        <ele>6</ele>
        <time>2012-05-11T10:13:57Z</time>
      </trkpt>
      <trkpt lat="46.33413" lon="-0.6553">
        <ele>6</ele>
        <time>2012-05-11T10:14:02Z</time>
      </trkpt>
      <trkpt lat="46.3341" lon="-0.65522">
        <ele>6</ele>
        <time>2012-05-11T10:14:07Z</time>
      </trkpt>
      <trkpt lat="46.33408" lon="-0.65514">
        <ele>6</ele>
        <time>2012-05-11T10:14:12Z</time>
      </trkpt>
      <trkpt lat="46.33406" lon="-0.65506">
        <ele>7</ele>
        <time>2012-05-11T10:14:17Z</time>
      </trkpt>
      <trkpt lat="46.33407" lon="-0.65499">
        <ele>7</ele>
        <time>2012-05-11T10:14:22Z</time>
      </trkpt>
      <trkpt lat="46.33407" lon="-0.65491">
        <ele>7</ele>
        <time>2012-05-11T10:14:27Z</time>
      </trkpt>
      <trkpt lat="46.33406" lon="-0.65483">
        <ele>7</ele>
        <time>2012-05-11T10:14:32Z</time>
      </trkpt>
      <trkpt lat="46.33404" lon="-0.65475">
        <ele>7</ele>
        <time>2012-05-11T10:14:37Z</time>
      </trkpt>
      <trkpt lat="46.33404" lon="-0.65466">
        <ele>7</ele>
        <time>2012-05-11T10:14:42Z</time>
      </trkpt>
      <trkpt lat="46.33404" lon="-0.65458">
        <ele>6</ele>
        <time>2012-05-11T10:14:47Z</time>
      </trkpt>
      <trkpt lat="46.33404" lon="-0.6545">
        <ele>6</ele>
        <time>2012-05-11T10:14:52Z</time>
      </trkpt>
      <trkpt lat="46.33401" lon="-0.65443">
        <ele>6</ele>
        <time>2012-05-11T10:14:57Z</time>
      </trkpt>
      <trkpt lat="46.334" lon="-0.65435">
        <ele>6</ele>
        <time>2012-05-11T10:15:02Z</time>
      </trkpt>
      <trkpt lat="46.33399" lon="-0.65427">
        <ele>4</ele>
        <time>2012-05-11T10:15:07Z</time>
      </trkpt>
      <trkpt lat="46.33397" lon="-0.65419">
        <ele>4</ele>
        <time>2012-05-11T10:15:12Z</time>
      </trkpt>
      <trkpt lat="46.33396" lon="-0.65409">
        <ele>4</ele>
        <time>2012-05-11T10:15:17Z</time>
      </trkpt>
      <trkpt lat="46.33395" lon="-0.65402">
        <ele>3</ele>
        <time>2012-05-11T10:15:22Z</time>
      </trkpt>
      <trkpt lat="46.33393" lon="-0.65393">
        <ele>3</ele>
        <time>2012-05-11T10:15:27Z</time>
      </trkpt>
      <trkpt lat="46.33393" lon="-0.65385">
        <ele>3</ele>
        <time>2012-05-11T10:15:32Z</time>
      </trkpt>
      <trkpt lat="46.33393" lon="-0.65377">
        <ele>3</ele>
        <time>2012-05-11T10:15:37Z</time>
      </trkpt>
      <trkpt lat="46.33398" lon="-0.6537">
        <ele>3</ele>
        <time>2012-05-11T10:15:42Z</time>
      </trkpt>
      <trkpt lat="46.33394" lon="-0.65361">
        <ele>3</ele>
        <time>2012-05-11T10:15:47Z</time>
      </trkpt>
      <trkpt lat="46.33391" lon="-0.65352">
        <ele>3</ele>
        <time>2012-05-11T10:15:52Z</time>
      </trkpt>
      <trkpt lat="46.33388" lon="-0.65343">
        <ele>4</ele>
        <time>2012-05-11T10:15:57Z</time>
      </trkpt>
      <trkpt lat="46.33387" lon="-0.65335">
        <ele>4</ele>
        <time>2012-05-11T10:16:02Z</time>
      </trkpt>
      <trkpt lat="46.33386" lon="-0.65326">
        <ele>4</ele>
        <time>2012-05-11T10:16:07Z</time>
      </trkpt>
      <trkpt lat="46.33385" lon="-0.65319">
        <ele>4</ele>
        <time>2012-05-11T10:16:12Z</time>
      </trkpt>
      <trkpt lat="46.33382" lon="-0.65311">
        <ele>4</ele>
        <time>2012-05-11T10:16:17Z</time>
      </trkpt>
      <trkpt lat="46.3338" lon="-0.65303">
        <ele>4</ele>
        <time>2012-05-11T10:16:22Z</time>
      </trkpt>
      <trkpt lat="46.33377" lon="-0.65294">
        <ele>4</ele>
        <time>2012-05-11T10:16:27Z</time>
      </trkpt>
      <trkpt lat="46.33376" lon="-0.65286">
        <ele>3</ele>
        <time>2012-05-11T10:16:32Z</time>
      </trkpt>
      <trkpt lat="46.33377" lon="-0.65278">
        <ele>3</ele>
        <time>2012-05-11T10:16:37Z</time>
      </trkpt>
      <trkpt lat="46.33376" lon="-0.6527">
        <ele>3</ele>
        <time>2012-05-11T10:16:42Z</time>
      </trkpt>
      <trkpt lat="46.33373" lon="-0.65261">
        <ele>1</ele>
        <time>2012-05-11T10:16:47Z</time>
      </trkpt>
      <trkpt lat="46.33371" lon="-0.65253">
        <ele>1</ele>
        <time>2012-05-11T10:16:52Z</time>
      </trkpt>
      <trkpt lat="46.3337" lon="-0.65244">
        <ele>1</ele>
        <time>2012-05-11T10:16:57Z</time>
      </trkpt>
      <trkpt lat="46.33371" lon="-0.65236">
        <ele>2</ele>
        <time>2012-05-11T10:17:02Z</time>
      </trkpt>
      <trkpt lat="46.33369" lon="-0.65228">
        <ele>2</ele>
        <time>2012-05-11T10:17:07Z</time>
      </trkpt>
      <trkpt lat="46.33367" lon="-0.6522">
        <ele>2</ele>
        <time>2012-05-11T10:17:12Z</time>
      </trkpt>
      <trkpt lat="46.33367" lon="-0.65211">
        <ele>2</ele>
        <time>2012-05-11T10:17:17Z</time>
      </trkpt>
      <trkpt lat="46.33366" lon="-0.65201">
        <ele>2</ele>
        <time>2012-05-11T10:17:22Z</time>
      </trkpt>
      <trkpt lat="46.33364" lon="-0.65193">
        <ele>2</ele>
        <time>2012-05-11T10:17:27Z</time>
      </trkpt>
      <trkpt lat="46.33362" lon="-0.65184">
        <ele>2</ele>
        <time>2012-05-11T10:17:32Z</time>
      </trkpt>
      <trkpt lat="46.33361" lon="-0.65177">
        <ele>3</ele>
        <time>2012-05-11T10:17:37Z</time>
      </trkpt>
      <trkpt lat="46.33361" lon="-0.6517">
        <ele>3</ele>
        <time>2012-05-11T10:17:42Z</time>
      </trkpt>
      <trkpt lat="46.33359" lon="-0.65162">
        <ele>3</ele>
        <time>2012-05-11T10:17:47Z</time>
      </trkpt>
      <trkpt lat="46.33361" lon="-0.65154">
        <ele>3</ele>
        <time>2012-05-11T10:17:52Z</time>
      </trkpt>
      <trkpt lat="46.33358" lon="-0.65145">
        <ele>4</ele>
        <time>2012-05-11T10:17:57Z</time>
      </trkpt>
      <trkpt lat="46.33357" lon="-0.65137">
        <ele>4</ele>
        <time>2012-05-11T10:18:02Z</time>
      </trkpt>
      <trkpt lat="46.33355" lon="-0.65129">
        <ele>4</ele>
        <time>2012-05-11T10:18:07Z</time>
      </trkpt>
      <trkpt lat="46.33353" lon="-0.65121">
        <ele>5</ele>
        <time>2012-05-11T10:18:12Z</time>
      </trkpt>
      <trkpt lat="46.33352" lon="-0.65112">
        <ele>5</ele>
        <time>2012-05-11T10:18:17Z</time>
      </trkpt>
      <trkpt lat="46.33349" lon="-0.65104">
        <ele>5</ele>
        <time>2012-05-11T10:18:22Z</time>
      </trkpt>
      <trkpt lat="46.33348" lon="-0.65097">
        <ele>4</ele>
        <time>2012-05-11T10:18:27Z</time>
      </trkpt>
      <trkpt lat="46.33347" lon="-0.65089">
        <ele>3</ele>
        <time>2012-05-11T10:18:32Z</time>
      </trkpt>
      <trkpt lat="46.33346" lon="-0.6508">
        <ele>3</ele>
        <time>2012-05-11T10:18:37Z</time>
      </trkpt>
      <trkpt lat="46.33345" lon="-0.65071">
        <ele>3</ele>
        <time>2012-05-11T10:18:42Z</time>
      </trkpt>
      <trkpt lat="46.33343" lon="-0.65063">
        <ele>2</ele>
        <time>2012-05-11T10:18:47Z</time>
      </trkpt>
      <trkpt lat="46.33344" lon="-0.65055">
        <ele>2</ele>
        <time>2012-05-11T10:18:52Z</time>
      </trkpt>
      <trkpt lat="46.33344" lon="-0.65046">
        <ele>2</ele>
        <time>2012-05-11T10:18:57Z</time>
      </trkpt>
      <trkpt lat="46.33342" lon="-0.65038">
        <ele>2</ele>
        <time>2012-05-11T10:19:02Z</time>
      </trkpt>
      <trkpt lat="46.33341" lon="-0.65029">
        <ele>2</ele>
        <time>2012-05-11T10:19:07Z</time>
      </trkpt>
      <trkpt lat="46.33341" lon="-0.65021">
        <ele>2</ele>
        <time>2012-05-11T10:19:12Z</time>
      </trkpt>
      <trkpt lat="46.3334" lon="-0.65013">
        <ele>2</ele>
        <time>2012-05-11T10:19:17Z</time>
      </trkpt>
      <trkpt lat="46.33339" lon="-0.65004">
        <ele>2</ele>
        <time>2012-05-11T10:19:22Z</time>
      </trkpt>
      <trkpt lat="46.33337" lon="-0.64996">
        <ele>2</ele>
        <time>2012-05-11T10:19:27Z</time>
      </trkpt>
      <trkpt lat="46.33336" lon="-0.64987">
        <ele>2</ele>
        <time>2012-05-11T10:19:32Z</time>
      </trkpt>
      <trkpt lat="46.33334" lon="-0.64978">
        <ele>3</ele>
        <time>2012-05-11T10:19:37Z</time>
      </trkpt>
      <trkpt lat="46.33328" lon="-0.6497">
        <ele>3</ele>
        <time>2012-05-11T10:19:42Z</time>
      </trkpt>
      <trkpt lat="46.33328" lon="-0.64963">
        <ele>3</ele>
        <time>2012-05-11T10:19:47Z</time>
      </trkpt>
      <trkpt lat="46.33329" lon="-0.64953">
        <ele>4</ele>
        <time>2012-05-11T10:19:52Z</time>
      </trkpt>
      <trkpt lat="46.33328" lon="-0.64944">
        <ele>4</ele>
        <time>2012-05-11T10:19:57Z</time>
      </trkpt>
      <trkpt lat="46.33328" lon="-0.64936">
        <ele>4</ele>
        <time>2012-05-11T10:20:02Z</time>
      </trkpt>
      <trkpt lat="46.33326" lon="-0.64928">
        <ele>5</ele>
        <time>2012-05-11T10:20:07Z</time>
      </trkpt>
      <trkpt lat="46.33323" lon="-0.64921">
        <ele>5</ele>
        <time>2012-05-11T10:20:12Z</time>
      </trkpt>
      <trkpt lat="46.33323" lon="-0.64911">
        <ele>5</ele>
        <time>2012-05-11T10:20:17Z</time>
      </trkpt>
      <trkpt lat="46.33321" lon="-0.64904">
        <ele>5</ele>
        <time>2012-05-11T10:20:22Z</time>
      </trkpt>
      <trkpt lat="46.33318" lon="-0.64897">
        <ele>6</ele>
        <time>2012-05-11T10:20:27Z</time>
      </trkpt>
      <trkpt lat="46.33317" lon="-0.64888">
        <ele>6</ele>
        <time>2012-05-11T10:20:32Z</time>
      </trkpt>
      <trkpt lat="46.33314" lon="-0.6488">
        <ele>6</ele>
        <time>2012-05-11T10:20:37Z</time>
      </trkpt>
      <trkpt lat="46.33312" lon="-0.64874">
        <ele>5</ele>
        <time>2012-05-11T10:20:42Z</time>
      </trkpt>
      <trkpt lat="46.33311" lon="-0.64865">
        <ele>5</ele>
        <time>2012-05-11T10:20:47Z</time>
      </trkpt>
      <trkpt lat="46.33308" lon="-0.64855">
        <ele>5</ele>
        <time>2012-05-11T10:20:52Z</time>
      </trkpt>
      <trkpt lat="46.33306" lon="-0.64846">
        <ele>4</ele>
        <time>2012-05-11T10:20:57Z</time>
      </trkpt>
      <trkpt lat="46.33303" lon="-0.64837">
        <ele>4</ele>
        <time>2012-05-11T10:21:02Z</time>
      </trkpt>
      <trkpt lat="46.33302" lon="-0.64828">
        <ele>4</ele>
        <time>2012-05-11T10:21:07Z</time>
      </trkpt>
      <trkpt lat="46.333" lon="-0.6482">
        <ele>4</ele>
        <time>2012-05-11T10:21:12Z</time>
      </trkpt>
      <trkpt lat="46.33298" lon="-0.64814">
        <ele>3</ele>
        <time>2012-05-11T10:21:17Z</time>
      </trkpt>
      <trkpt lat="46.33296" lon="-0.64805">
        <ele>3</ele>
        <time>2012-05-11T10:21:22Z</time>
      </trkpt>
      <trkpt lat="46.33295" lon="-0.64798">
        <ele>3</ele>
        <time>2012-05-11T10:21:27Z</time>
      </trkpt>
      <trkpt lat="46.33292" lon="-0.6479">
        <ele>3</ele>
        <time>2012-05-11T10:21:32Z</time>
      </trkpt>
      <trkpt lat="46.3329" lon="-0.64782">
        <ele>3</ele>
        <time>2012-05-11T10:21:37Z</time>
      </trkpt>
      <trkpt lat="46.33288" lon="-0.64774">
        <ele>3</ele>
        <time>2012-05-11T10:21:42Z</time>
      </trkpt>
      <trkpt lat="46.33286" lon="-0.64766">
        <ele>3</ele>
        <time>2012-05-11T10:21:47Z</time>
      </trkpt>
      <trkpt lat="46.33283" lon="-0.64758">
        <ele>3</ele>
        <time>2012-05-11T10:21:52Z</time>
      </trkpt>
      <trkpt lat="46.33282" lon="-0.6475">
        <ele>3</ele>
        <time>2012-05-11T10:21:57Z</time>
      </trkpt>
      <trkpt lat="46.3328" lon="-0.64743">
        <ele>3</ele>
        <time>2012-05-11T10:22:02Z</time>
      </trkpt>
      <trkpt lat="46.33276" lon="-0.64735">
        <ele>3</ele>
        <time>2012-05-11T10:22:07Z</time>
      </trkpt>
      <trkpt lat="46.33273" lon="-0.64727">
        <ele>3</ele>
        <time>2012-05-11T10:22:12Z</time>
      </trkpt>
      <trkpt lat="46.33271" lon="-0.64718">
        <ele>3</ele>
        <time>2012-05-11T10:22:17Z</time>
      </trkpt>
      <trkpt lat="46.33267" lon="-0.64709">
        <ele>3</ele>
        <time>2012-05-11T10:22:22Z</time>
      </trkpt>
      <trkpt lat="46.33263" lon="-0.64702">
        <ele>2</ele>
        <time>2012-05-11T10:22:27Z</time>
      </trkpt>
      <trkpt lat="46.33261" lon="-0.64694">
        <ele>2</ele>
        <time>2012-05-11T10:22:32Z</time>
      </trkpt>
      <trkpt lat="46.33259" lon="-0.64686">
        <ele>2</ele>
        <time>2012-05-11T10:22:37Z</time>
      </trkpt>
      <trkpt lat="46.33257" lon="-0.64679">
        <ele>2</ele>
        <time>2012-05-11T10:22:42Z</time>
      </trkpt>
      <trkpt lat="46.33255" lon="-0.64673">
        <ele>2</ele>
        <time>2012-05-11T10:22:47Z</time>
      </trkpt>
      <trkpt lat="46.33252" lon="-0.64664">
        <ele>2</ele>
        <time>2012-05-11T10:22:52Z</time>
      </trkpt>
      <trkpt lat="46.33248" lon="-0.64656">
        <ele>2</ele>
        <time>2012-05-11T10:22:57Z</time>
      </trkpt>
      <trkpt lat="46.33245" lon="-0.64648">
        <ele>3</ele>
        <time>2012-05-11T10:23:02Z</time>
      </trkpt>
      <trkpt lat="46.33241" lon="-0.64643">
        <ele>3</ele>
        <time>2012-05-11T10:23:07Z</time>
      </trkpt>
      <trkpt lat="46.33237" lon="-0.64635">
        <ele>3</ele>
        <time>2012-05-11T10:23:12Z</time>
      </trkpt>
      <trkpt lat="46.33233" lon="-0.64629">
        <ele>3</ele>
        <time>2012-05-11T10:23:17Z</time>
      </trkpt>
      <trkpt lat="46.3323" lon="-0.64622">
        <ele>3</ele>
        <time>2012-05-11T10:23:22Z</time>
      </trkpt>
      <trkpt lat="46.33227" lon="-0.64615">
        <ele>3</ele>
        <time>2012-05-11T10:23:27Z</time>
      </trkpt>
      <trkpt lat="46.33224" lon="-0.64609">
        <ele>3</ele>
        <time>2012-05-11T10:23:32Z</time>
      </trkpt>
      <trkpt lat="46.3322" lon="-0.64602">
        <ele>3</ele>
        <time>2012-05-11T10:23:37Z</time>
      </trkpt>
      <trkpt lat="46.33218" lon="-0.64593">
        <ele>3</ele>
        <time>2012-05-11T10:23:42Z</time>
      </trkpt>
      <trkpt lat="46.33216" lon="-0.64587">
        <ele>3</ele>
        <time>2012-05-11T10:23:47Z</time>
      </trkpt>
      <trkpt lat="46.33214" lon="-0.64579">
        <ele>3</ele>
        <time>2012-05-11T10:23:52Z</time>
      </trkpt>
      <trkpt lat="46.33209" lon="-0.64571">
        <ele>3</ele>
        <time>2012-05-11T10:23:57Z</time>
      </trkpt>
      <trkpt lat="46.33206" lon="-0.64565">
        <ele>1</ele>
        <time>2012-05-11T10:24:02Z</time>
      </trkpt>
      <trkpt lat="46.33202" lon="-0.64558">
        <ele>1</ele>
        <time>2012-05-11T10:24:07Z</time>
      </trkpt>
      <trkpt lat="46.33198" lon="-0.64554">
        <ele>1</ele>
        <time>2012-05-11T10:24:12Z</time>
      </trkpt>
      <trkpt lat="46.33193" lon="-0.64549">
        <ele>1</ele>
        <time>2012-05-11T10:24:17Z</time>
      </trkpt>
      <trkpt lat="46.33187" lon="-0.64545">
        <ele>1</ele>
        <time>2012-05-11T10:24:22Z</time>
      </trkpt>
      <trkpt lat="46.33181" lon="-0.64541">
        <ele>1</ele>
        <time>2012-05-11T10:24:27Z</time>
      </trkpt>
      <trkpt lat="46.33175" lon="-0.64539">
        <ele>1</ele>
        <time>2012-05-11T10:24:32Z</time>
      </trkpt>
      <trkpt lat="46.3317" lon="-0.64536">
        <ele>1</ele>
        <time>2012-05-11T10:24:37Z</time>
      </trkpt>
      <trkpt lat="46.33165" lon="-0.64533">
        <ele>1</ele>
        <time>2012-05-11T10:24:42Z</time>
      </trkpt>
      <trkpt lat="46.3316" lon="-0.64529">
        <ele>1</ele>
        <time>2012-05-11T10:24:47Z</time>
      </trkpt>
      <trkpt lat="46.33155" lon="-0.64525">
        <ele>1</ele>
        <time>2012-05-11T10:24:52Z</time>
      </trkpt>
      <trkpt lat="46.33149" lon="-0.64521">
        <ele>1</ele>
        <time>2012-05-11T10:24:57Z</time>
      </trkpt>
      <trkpt lat="46.33143" lon="-0.64518">
        <ele>1</ele>
        <time>2012-05-11T10:25:02Z</time>
      </trkpt>
      <trkpt lat="46.33137" lon="-0.64516">
        <ele>1</ele>
        <time>2012-05-11T10:25:07Z</time>
      </trkpt>
      <trkpt lat="46.33131" lon="-0.64514">
        <ele>1</ele>
        <time>2012-05-11T10:25:12Z</time>
      </trkpt>
      <trkpt lat="46.33127" lon="-0.64511">
        <ele>1</ele>
        <time>2012-05-11T10:25:17Z</time>
      </trkpt>
      <trkpt lat="46.33121" lon="-0.64509">
        <ele>2</ele>
        <time>2012-05-11T10:25:22Z</time>
      </trkpt>
      <trkpt lat="46.33116" lon="-0.64507">
        <ele>2</ele>
        <time>2012-05-11T10:25:27Z</time>
      </trkpt>
      <trkpt lat="46.33109" lon="-0.64504">
        <ele>2</ele>
        <time>2012-05-11T10:25:32Z</time>
      </trkpt>
      <trkpt lat="46.33107" lon="-0.64502">
        <ele>2</ele>
        <time>2012-05-11T10:25:37Z</time>
      </trkpt>
      <trkpt lat="46.33106" lon="-0.64502">
        <ele>2</ele>
        <time>2012-05-11T10:25:42Z</time>
      </trkpt>
      <trkpt lat="46.33101" lon="-0.645">
        <ele>2</ele>
        <time>2012-05-11T10:25:47Z</time>
      </trkpt>
      <trkpt lat="46.33095" lon="-0.64497">
        <ele>2</ele>
        <time>2012-05-11T10:25:52Z</time>
      </trkpt>
      <trkpt lat="46.33089" lon="-0.64494">
        <ele>2</ele>
        <time>2012-05-11T10:25:57Z</time>
      </trkpt>
      <trkpt lat="46.33084" lon="-0.6449">
        <ele>2</ele>
        <time>2012-05-11T10:26:02Z</time>
      </trkpt>
      <trkpt lat="46.33078" lon="-0.64488">
        <ele>2</ele>
        <time>2012-05-11T10:26:07Z</time>
      </trkpt>
      <trkpt lat="46.33071" lon="-0.64484">
        <ele>2</ele>
        <time>2012-05-11T10:26:12Z</time>
      </trkpt>
      <trkpt lat="46.33066" lon="-0.64481">
        <ele>2</ele>
        <time>2012-05-11T10:26:17Z</time>
      </trkpt>
      <trkpt lat="46.33061" lon="-0.64478">
        <ele>2</ele>
        <time>2012-05-11T10:26:22Z</time>
      </trkpt>
      <trkpt lat="46.33056" lon="-0.64477">
        <ele>2</ele>
        <time>2012-05-11T10:26:27Z</time>
      </trkpt>
      <trkpt lat="46.3305" lon="-0.64475">
        <ele>2</ele>
        <time>2012-05-11T10:26:32Z</time>
      </trkpt>
      <trkpt lat="46.33045" lon="-0.64473">
        <ele>2</ele>
        <time>2012-05-11T10:26:37Z</time>
      </trkpt>
      <trkpt lat="46.33039" lon="-0.6447">
        <ele>3</ele>
        <time>2012-05-11T10:26:42Z</time>
      </trkpt>
      <trkpt lat="46.33033" lon="-0.64466">
        <ele>3</ele>
        <time>2012-05-11T10:26:47Z</time>
      </trkpt>
      <trkpt lat="46.33027" lon="-0.64464">
        <ele>3</ele>
        <time>2012-05-11T10:26:52Z</time>
      </trkpt>
      <trkpt lat="46.33021" lon="-0.6446">
        <ele>3</ele>
        <time>2012-05-11T10:26:57Z</time>
      </trkpt>
      <trkpt lat="46.33015" lon="-0.64457">
        <ele>2</ele>
        <time>2012-05-11T10:27:02Z</time>
      </trkpt>
      <trkpt lat="46.33009" lon="-0.64453">
        <ele>2</ele>
        <time>2012-05-11T10:27:07Z</time>
      </trkpt>
      <trkpt lat="46.33003" lon="-0.64451">
        <ele>2</ele>
        <time>2012-05-11T10:27:12Z</time>
      </trkpt>
      <trkpt lat="46.32998" lon="-0.64448">
        <ele>2</ele>
        <time>2012-05-11T10:27:17Z</time>
      </trkpt>
      <trkpt lat="46.32993" lon="-0.64445">
        <ele>2</ele>
        <time>2012-05-11T10:27:22Z</time>
      </trkpt>
      <trkpt lat="46.32988" lon="-0.64441">
        <ele>2</ele>
        <time>2012-05-11T10:27:27Z</time>
      </trkpt>
      <trkpt lat="46.32982" lon="-0.64439">
        <ele>1</ele>
        <time>2012-05-11T10:27:32Z</time>
      </trkpt>
      <trkpt lat="46.32976" lon="-0.64436">
        <ele>1</ele>
        <time>2012-05-11T10:27:37Z</time>
      </trkpt>
      <trkpt lat="46.32971" lon="-0.64433">
        <ele>1</ele>
        <time>2012-05-11T10:27:42Z</time>
      </trkpt>
      <trkpt lat="46.32965" lon="-0.6443">
        <ele>1</ele>
        <time>2012-05-11T10:27:47Z</time>
      </trkpt>
      <trkpt lat="46.32959" lon="-0.64428">
        <ele>1</ele>
        <time>2012-05-11T10:27:52Z</time>
      </trkpt>
      <trkpt lat="46.32955" lon="-0.64425">
        <ele>2</ele>
        <time>2012-05-11T10:27:57Z</time>
      </trkpt>
      <trkpt lat="46.3295" lon="-0.64422">
        <ele>2</ele>
        <time>2012-05-11T10:28:02Z</time>
      </trkpt>
      <trkpt lat="46.32943" lon="-0.6442">
        <ele>2</ele>
        <time>2012-05-11T10:28:07Z</time>
      </trkpt>
      <trkpt lat="46.32937" lon="-0.64418">
        <ele>2</ele>
        <time>2012-05-11T10:28:12Z</time>
      </trkpt>
      <trkpt lat="46.32932" lon="-0.64414">
        <ele>2</ele>
        <time>2012-05-11T10:28:17Z</time>
      </trkpt>
      <trkpt lat="46.32926" lon="-0.64412">
        <ele>2</ele>
        <time>2012-05-11T10:28:22Z</time>
      </trkpt>
      <trkpt lat="46.32921" lon="-0.64407">
        <ele>2</ele>
        <time>2012-05-11T10:28:27Z</time>
      </trkpt>
      <trkpt lat="46.32914" lon="-0.64404">
        <ele>2</ele>
        <time>2012-05-11T10:28:32Z</time>
      </trkpt>
      <trkpt lat="46.32908" lon="-0.644">
        <ele>2</ele>
        <time>2012-05-11T10:28:37Z</time>
      </trkpt>
      <trkpt lat="46.32902" lon="-0.64399">
        <ele>1</ele>
        <time>2012-05-11T10:28:42Z</time>
      </trkpt>
      <trkpt lat="46.32896" lon="-0.64394">
        <ele>1</ele>
        <time>2012-05-11T10:28:47Z</time>
      </trkpt>
      <trkpt lat="46.32891" lon="-0.64392">
        <ele>1</ele>
        <time>2012-05-11T10:28:52Z</time>
      </trkpt>
      <trkpt lat="46.32886" lon="-0.64389">
        <ele>1</ele>
        <time>2012-05-11T10:28:57Z</time>
      </trkpt>
      <trkpt lat="46.3288" lon="-0.64385">
        <ele>1</ele>
        <time>2012-05-11T10:29:02Z</time>
      </trkpt>
      <trkpt lat="46.32876" lon="-0.64383">
        <ele>1</ele>
        <time>2012-05-11T10:29:07Z</time>
      </trkpt>
      <trkpt lat="46.3287" lon="-0.64379">
        <ele>3</ele>
        <time>2012-05-11T10:29:12Z</time>
      </trkpt>
      <trkpt lat="46.32863" lon="-0.64381">
        <ele>3</ele>
        <time>2012-05-11T10:29:17Z</time>
      </trkpt>
      <trkpt lat="46.32858" lon="-0.64379">
        <ele>2.9</ele>
        <time>2012-05-11T10:29:22Z</time>
      </trkpt>
      <trkpt lat="46.32854" lon="-0.64377">
        <ele>2.9</ele>
        <time>2012-05-11T10:29:27Z</time>
      </trkpt>
      <trkpt lat="46.32848" lon="-0.64373">
        <ele>2.8</ele>
        <time>2012-05-11T10:29:32Z</time>
      </trkpt>
      <trkpt lat="46.32843" lon="-0.64369">
        <ele>2.8</ele>
        <time>2012-05-11T10:29:37Z</time>
      </trkpt>
      <trkpt lat="46.32836" lon="-0.64366">
        <ele>2.8</ele>
        <time>2012-05-11T10:29:42Z</time>
      </trkpt>
      <trkpt lat="46.32831" lon="-0.64363">
        <ele>2.9</ele>
        <time>2012-05-11T10:29:47Z</time>
      </trkpt>
      <trkpt lat="46.32825" lon="-0.64361">
        <ele>3</ele>
        <time>2012-05-11T10:29:52Z</time>
      </trkpt>
      <trkpt lat="46.3282" lon="-0.64359">
        <ele>3</ele>
        <time>2012-05-11T10:29:57Z</time>
      </trkpt>
      <trkpt lat="46.32814" lon="-0.64355">
        <ele>1</ele>
        <time>2012-05-11T10:30:02Z</time>
      </trkpt>
      <trkpt lat="46.32807" lon="-0.6435">
        <ele>1</ele>
        <time>2012-05-11T10:30:07Z</time>
      </trkpt>
      <trkpt lat="46.32803" lon="-0.64348">
        <ele>1</ele>
        <time>2012-05-11T10:30:12Z</time>
      </trkpt>
      <trkpt lat="46.32798" lon="-0.64345">
        <ele>2</ele>
        <time>2012-05-11T10:30:17Z</time>
      </trkpt>
      <trkpt lat="46.32792" lon="-0.64342">
        <ele>2</ele>
        <time>2012-05-11T10:30:22Z</time>
      </trkpt>
      <trkpt lat="46.32787" lon="-0.6434">
        <ele>2</ele>
        <time>2012-05-11T10:30:27Z</time>
      </trkpt>
      <trkpt lat="46.32782" lon="-0.64338">
        <ele>2</ele>
        <time>2012-05-11T10:30:32Z</time>
      </trkpt>
      <trkpt lat="46.32777" lon="-0.64335">
        <ele>2</ele>
        <time>2012-05-11T10:30:37Z</time>
      </trkpt>
      <trkpt lat="46.32771" lon="-0.6433">
        <ele>2</ele>
        <time>2012-05-11T10:30:42Z</time>
      </trkpt>
      <trkpt lat="46.32766" lon="-0.64328">
        <ele>2</ele>
        <time>2012-05-11T10:30:47Z</time>
      </trkpt>
      <trkpt lat="46.32761" lon="-0.64325">
        <ele>3</ele>
        <time>2012-05-11T10:30:52Z</time>
      </trkpt>
      <trkpt lat="46.32755" lon="-0.64322">
        <ele>3</ele>
        <time>2012-05-11T10:30:57Z</time>
      </trkpt>
      <trkpt lat="46.32749" lon="-0.64318">
        <ele>2</ele>
        <time>2012-05-11T10:31:02Z</time>
      </trkpt>
      <trkpt lat="46.32744" lon="-0.64316">
        <ele>2</ele>
        <time>2012-05-11T10:31:07Z</time>
      </trkpt>
      <trkpt lat="46.32738" lon="-0.64313">
        <ele>2</ele>
        <time>2012-05-11T10:31:12Z</time>
      </trkpt>
      <trkpt lat="46.32732" lon="-0.6431">
        <ele>2</ele>
        <time>2012-05-11T10:31:17Z</time>
      </trkpt>
      <trkpt lat="46.32726" lon="-0.64305">
        <ele>2</ele>
        <time>2012-05-11T10:31:22Z</time>
      </trkpt>
      <trkpt lat="46.3272" lon="-0.64303">
        <ele>2</ele>
        <time>2012-05-11T10:31:27Z</time>
      </trkpt>
      <trkpt lat="46.32715" lon="-0.64298">
        <ele>2</ele>
        <time>2012-05-11T10:31:32Z</time>
      </trkpt>
      <trkpt lat="46.32709" lon="-0.64296">
        <ele>2</ele>
        <time>2012-05-11T10:31:37Z</time>
      </trkpt>
      <trkpt lat="46.32703" lon="-0.64295">
        <ele>2</ele>
        <time>2012-05-11T10:31:42Z</time>
      </trkpt>
      <trkpt lat="46.32697" lon="-0.64292">
        <ele>2</ele>
        <time>2012-05-11T10:31:47Z</time>
      </trkpt>
      <trkpt lat="46.32692" lon="-0.64288">
        <ele>2</ele>
        <time>2012-05-11T10:31:52Z</time>
      </trkpt>
      <trkpt lat="46.32686" lon="-0.64286">
        <ele>2</ele>
        <time>2012-05-11T10:31:57Z</time>
      </trkpt>
      <trkpt lat="46.32681" lon="-0.64283">
        <ele>2</ele>
        <time>2012-05-11T10:32:02Z</time>
      </trkpt>
      <trkpt lat="46.32675" lon="-0.64279">
        <ele>3</ele>
        <time>2012-05-11T10:32:07Z</time>
      </trkpt>
      <trkpt lat="46.32671" lon="-0.64278">
        <ele>3</ele>
        <time>2012-05-11T10:32:12Z</time>
      </trkpt>
      <trkpt lat="46.32668" lon="-0.64274">
        <ele>3</ele>
        <time>2012-05-11T10:32:17Z</time>
      </trkpt>
      <trkpt lat="46.32667" lon="-0.64275">
        <ele>3</ele>
        <time>2012-05-11T10:32:22Z</time>
      </trkpt>
      <trkpt lat="46.32667" lon="-0.64278">
        <ele>3</ele>
        <time>2012-05-11T10:32:27Z</time>
      </trkpt>
      <trkpt lat="46.32666" lon="-0.64275">
        <ele>3</ele>
        <time>2012-05-11T10:32:32Z</time>
      </trkpt>
      <trkpt lat="46.32666" lon="-0.64274">
        <ele>3</ele>
        <time>2012-05-11T10:32:37Z</time>
      </trkpt>
      <trkpt lat="46.32666" lon="-0.64275">
        <ele>3</ele>
        <time>2012-05-11T10:32:42Z</time>
      </trkpt>
      <trkpt lat="46.32666" lon="-0.64275">
        <ele>3</ele>
        <time>2012-05-11T10:32:57Z</time>
      </trkpt>
      <trkpt lat="46.32667" lon="-0.64276">
        <ele>3</ele>
        <time>2012-05-11T10:33:02Z</time>
      </trkpt>
      <trkpt lat="46.32668" lon="-0.64275">
        <ele>3</ele>
        <time>2012-05-11T10:33:07Z</time>
      </trkpt>
      <trkpt lat="46.32668" lon="-0.64276">
        <ele>3</ele>
        <time>2012-05-11T10:33:12Z</time>
      </trkpt>
      <trkpt lat="46.32665" lon="-0.64275">
        <ele>3</ele>
        <time>2012-05-11T10:33:17Z</time>
      </trkpt>
      <trkpt lat="46.32664" lon="-0.64276">
        <ele>3</ele>
        <time>2012-05-11T10:33:22Z</time>
      </trkpt>
      <trkpt lat="46.32663" lon="-0.64276">
        <ele>3</ele>
        <time>2012-05-11T10:33:32Z</time>
      </trkpt>
      <trkpt lat="46.32664" lon="-0.64274">
        <ele>3</ele>
        <time>2012-05-11T10:33:47Z</time>
      </trkpt>
      <trkpt lat="46.32664" lon="-0.64275">
        <ele>3</ele>
        <time>2012-05-11T10:33:52Z</time>
      </trkpt>
      <trkpt lat="46.32665" lon="-0.64276">
        <ele>3</ele>
        <time>2012-05-11T10:34:57Z</time>
      </trkpt>
      <trkpt lat="46.32665" lon="-0.64275">
        <ele>3</ele>
        <time>2012-05-11T10:35:37Z</time>
      </trkpt>
      <trkpt lat="46.32664" lon="-0.64275">
        <ele>3</ele>
        <time>2012-05-11T10:36:42Z</time>
      </trkpt>
      <trkpt lat="46.32664" lon="-0.64276">
        <ele>3</ele>
        <time>2012-05-11T10:38:22Z</time>
      </trkpt>
      <trkpt lat="46.32664" lon="-0.64275">
        <ele>3</ele>
        <time>2012-05-11T10:38:27Z</time>
      </trkpt>
      <trkpt lat="46.32663" lon="-0.64276">
        <ele>3</ele>
        <time>2012-05-11T10:38:32Z</time>
      </trkpt>
      <trkpt lat="46.32659" lon="-0.64275">
        <ele>3</ele>
        <time>2012-05-11T10:38:37Z</time>
      </trkpt>
      <trkpt lat="46.32656" lon="-0.64274">
        <ele>3</ele>
        <time>2012-05-11T10:38:42Z</time>
      </trkpt>
      <trkpt lat="46.32655" lon="-0.64274">
        <ele>3</ele>
        <time>2012-05-11T10:38:47Z</time>
      </trkpt>
      <trkpt lat="46.32655" lon="-0.64274">
        <ele>3</ele>
        <time>2012-05-11T10:38:52Z</time>
      </trkpt>
      <trkpt lat="46.32655" lon="-0.64272">
        <ele>3</ele>
        <time>2012-05-11T10:38:57Z</time>
      </trkpt>
      <trkpt lat="46.32652" lon="-0.64269">
        <ele>3</ele>
        <time>2012-05-11T10:39:02Z</time>
      </trkpt>
      <trkpt lat="46.32651" lon="-0.64268">
        <ele>3</ele>
        <time>2012-05-11T10:39:07Z</time>
      </trkpt>
      <trkpt lat="46.3265" lon="-0.64268">
        <ele>3</ele>
        <time>2012-05-11T10:39:12Z</time>
      </trkpt>
      <trkpt lat="46.32651" lon="-0.64268">
        <ele>3</ele>
        <time>2012-05-11T10:39:27Z</time>
      </trkpt>
      <trkpt lat="46.32649" lon="-0.64265">
        <ele>3</ele>
        <time>2012-05-11T10:39:32Z</time>
      </trkpt>
      <trkpt lat="46.32645" lon="-0.6426">
        <ele>3</ele>
        <time>2012-05-11T10:39:37Z</time>
      </trkpt>
      <trkpt lat="46.32643" lon="-0.64259">
        <ele>3</ele>
        <time>2012-05-11T10:39:42Z</time>
      </trkpt>
      <trkpt lat="46.32638" lon="-0.64256">
        <ele>3</ele>
        <time>2012-05-11T10:39:47Z</time>
      </trkpt>
      <trkpt lat="46.32634" lon="-0.64255">
        <ele>3</ele>
        <time>2012-05-11T10:39:52Z</time>
      </trkpt>
      <trkpt lat="46.32627" lon="-0.64251">
        <ele>3</ele>
        <time>2012-05-11T10:39:57Z</time>
      </trkpt>
      <trkpt lat="46.32622" lon="-0.64247">
        <ele>3</ele>
        <time>2012-05-11T10:40:02Z</time>
      </trkpt>
      <trkpt lat="46.32617" lon="-0.64244">
        <ele>3</ele>
        <time>2012-05-11T10:40:07Z</time>
      </trkpt>
      <trkpt lat="46.32613" lon="-0.64241">
        <ele>3</ele>
        <time>2012-05-11T10:40:12Z</time>
      </trkpt>
      <trkpt lat="46.32608" lon="-0.64235">
        <ele>3</ele>
        <time>2012-05-11T10:40:17Z</time>
      </trkpt>
      <trkpt lat="46.32605" lon="-0.64235">
        <ele>3</ele>
        <time>2012-05-11T10:40:22Z</time>
      </trkpt>
      <trkpt lat="46.326" lon="-0.64232">
        <ele>3</ele>
        <time>2012-05-11T10:40:27Z</time>
      </trkpt>
      <trkpt lat="46.32593" lon="-0.64228">
        <ele>3</ele>
        <time>2012-05-11T10:40:32Z</time>
      </trkpt>
      <trkpt lat="46.32587" lon="-0.64224">
        <ele>3</ele>
        <time>2012-05-11T10:40:37Z</time>
      </trkpt>
      <trkpt lat="46.32584" lon="-0.64223">
        <ele>3</ele>
        <time>2012-05-11T10:40:42Z</time>
      </trkpt>
      <trkpt lat="46.3258" lon="-0.6422">
        <ele>3</ele>
        <time>2012-05-11T10:40:47Z</time>
      </trkpt>
      <trkpt lat="46.32575" lon="-0.64219">
        <ele>3</ele>
        <time>2012-05-11T10:40:52Z</time>
      </trkpt>
      <trkpt lat="46.32569" lon="-0.64215">
        <ele>3</ele>
        <time>2012-05-11T10:40:57Z</time>
      </trkpt>
      <trkpt lat="46.32564" lon="-0.64214">
        <ele>3</ele>
        <time>2012-05-11T10:41:02Z</time>
      </trkpt>
      <trkpt lat="46.32559" lon="-0.64211">
        <ele>3</ele>
        <time>2012-05-11T10:41:07Z</time>
      </trkpt>
      <trkpt lat="46.32553" lon="-0.64208">
        <ele>3</ele>
        <time>2012-05-11T10:41:12Z</time>
      </trkpt>
      <trkpt lat="46.32547" lon="-0.64205">
        <ele>3</ele>
        <time>2012-05-11T10:41:17Z</time>
      </trkpt>
      <trkpt lat="46.32543" lon="-0.64203">
        <ele>3</ele>
        <time>2012-05-11T10:41:22Z</time>
      </trkpt>
      <trkpt lat="46.32538" lon="-0.64202">
        <ele>2</ele>
        <time>2012-05-11T10:41:27Z</time>
      </trkpt>
      <trkpt lat="46.32534" lon="-0.64201">
        <ele>2</ele>
        <time>2012-05-11T10:41:32Z</time>
      </trkpt>
      <trkpt lat="46.3253" lon="-0.642">
        <ele>2</ele>
        <time>2012-05-11T10:41:37Z</time>
      </trkpt>
      <trkpt lat="46.32526" lon="-0.64199">
        <ele>2</ele>
        <time>2012-05-11T10:41:42Z</time>
      </trkpt>
      <trkpt lat="46.3252" lon="-0.64197">
        <ele>2</ele>
        <time>2012-05-11T10:41:47Z</time>
      </trkpt>
      <trkpt lat="46.32515" lon="-0.64194">
        <ele>2</ele>
        <time>2012-05-11T10:41:52Z</time>
      </trkpt>
      <trkpt lat="46.3251" lon="-0.64192">
        <ele>2</ele>
        <time>2012-05-11T10:41:57Z</time>
      </trkpt>
      <trkpt lat="46.32508" lon="-0.64191">
        <ele>2</ele>
        <time>2012-05-11T10:42:02Z</time>
      </trkpt>
      <trkpt lat="46.32506" lon="-0.64191">
        <ele>2</ele>
        <time>2012-05-11T10:42:07Z</time>
      </trkpt>
      <trkpt lat="46.32505" lon="-0.6419">
        <ele>2</ele>
        <time>2012-05-11T10:42:12Z</time>
      </trkpt>
      <trkpt lat="46.32505" lon="-0.6419">
        <ele>2</ele>
        <time>2012-05-11T10:42:17Z</time>
      </trkpt>
      <trkpt lat="46.32503" lon="-0.6419">
        <ele>2</ele>
        <time>2012-05-11T10:42:22Z</time>
      </trkpt>
      <trkpt lat="46.32498" lon="-0.64187">
        <ele>2</ele>
        <time>2012-05-11T10:42:27Z</time>
      </trkpt>
      <trkpt lat="46.32493" lon="-0.64183">
        <ele>2</ele>
        <time>2012-05-11T10:42:32Z</time>
      </trkpt>
      <trkpt lat="46.32487" lon="-0.64179">
        <ele>2</ele>
        <time>2012-05-11T10:42:37Z</time>
      </trkpt>
      <trkpt lat="46.32481" lon="-0.64176">
        <ele>2</ele>
        <time>2012-05-11T10:42:42Z</time>
      </trkpt>
      <trkpt lat="46.32476" lon="-0.64172">
        <ele>2</ele>
        <time>2012-05-11T10:42:47Z</time>
      </trkpt>
      <trkpt lat="46.32471" lon="-0.6417">
        <ele>2</ele>
        <time>2012-05-11T10:42:52Z</time>
      </trkpt>
      <trkpt lat="46.32465" lon="-0.64166">
        <ele>2</ele>
        <time>2012-05-11T10:42:57Z</time>
      </trkpt>
      <trkpt lat="46.32459" lon="-0.64163">
        <ele>2</ele>
        <time>2012-05-11T10:43:02Z</time>
      </trkpt>
      <trkpt lat="46.32453" lon="-0.64161">
        <ele>2</ele>
        <time>2012-05-11T10:43:07Z</time>
      </trkpt>
      <trkpt lat="46.3245" lon="-0.6416">
        <ele>2</ele>
        <time>2012-05-11T10:43:12Z</time>
      </trkpt>
      <trkpt lat="46.32444" lon="-0.64154">
        <ele>2</ele>
        <time>2012-05-11T10:43:17Z</time>
      </trkpt>
      <trkpt lat="46.32439" lon="-0.64153">
        <ele>1</ele>
        <time>2012-05-11T10:43:22Z</time>
      </trkpt>
      <trkpt lat="46.32435" lon="-0.64151">
        <ele>1</ele>
        <time>2012-05-11T10:43:27Z</time>
      </trkpt>
      <trkpt lat="46.3243" lon="-0.6415">
        <ele>1</ele>
        <time>2012-05-11T10:43:32Z</time>
      </trkpt>
      <trkpt lat="46.32424" lon="-0.64145">
        <ele>1</ele>
        <time>2012-05-11T10:43:37Z</time>
      </trkpt>
      <trkpt lat="46.32418" lon="-0.64142">
        <ele>1</ele>
        <time>2012-05-11T10:43:42Z</time>
      </trkpt>
      <trkpt lat="46.32413" lon="-0.64138">
        <ele>1</ele>
        <time>2012-05-11T10:43:47Z</time>
      </trkpt>
      <trkpt lat="46.32407" lon="-0.64134">
        <ele>1</ele>
        <time>2012-05-11T10:43:52Z</time>
      </trkpt>
      <trkpt lat="46.32401" lon="-0.64132">
        <ele>2</ele>
        <time>2012-05-11T10:43:57Z</time>
      </trkpt>
      <trkpt lat="46.32396" lon="-0.6413">
        <ele>2</ele>
        <time>2012-05-11T10:44:02Z</time>
      </trkpt>
      <trkpt lat="46.32391" lon="-0.64127">
        <ele>2</ele>
        <time>2012-05-11T10:44:07Z</time>
      </trkpt>
      <trkpt lat="46.32385" lon="-0.64125">
        <ele>2</ele>
        <time>2012-05-11T10:44:12Z</time>
      </trkpt>
      <trkpt lat="46.32381" lon="-0.64125">
        <ele>2</ele>
        <time>2012-05-11T10:44:17Z</time>
      </trkpt>
      <trkpt lat="46.32377" lon="-0.64124">
        <ele>2</ele>
        <time>2012-05-11T10:44:22Z</time>
      </trkpt>
      <trkpt lat="46.32371" lon="-0.64121">
        <ele>2</ele>
        <time>2012-05-11T10:44:27Z</time>
      </trkpt>
      <trkpt lat="46.32365" lon="-0.64116">
        <ele>2</ele>
        <time>2012-05-11T10:44:32Z</time>
      </trkpt>
      <trkpt lat="46.3236" lon="-0.64113">
        <ele>2</ele>
        <time>2012-05-11T10:44:37Z</time>
      </trkpt>
      <trkpt lat="46.32355" lon="-0.6411">
        <ele>2</ele>
        <time>2012-05-11T10:44:42Z</time>
      </trkpt>
      <trkpt lat="46.3235" lon="-0.64107">
        <ele>2</ele>
        <time>2012-05-11T10:44:47Z</time>
      </trkpt>
      <trkpt lat="46.32344" lon="-0.64101">
        <ele>2</ele>
        <time>2012-05-11T10:44:52Z</time>
      </trkpt>
      <trkpt lat="46.32339" lon="-0.64101">
        <ele>2</ele>
        <time>2012-05-11T10:44:57Z</time>
      </trkpt>
      <trkpt lat="46.32333" lon="-0.64099">
        <ele>2</ele>
        <time>2012-05-11T10:45:02Z</time>
      </trkpt>
      <trkpt lat="46.32327" lon="-0.64095">
        <ele>1</ele>
        <time>2012-05-11T10:45:07Z</time>
      </trkpt>
      <trkpt lat="46.32322" lon="-0.64095">
        <ele>1</ele>
        <time>2012-05-11T10:45:12Z</time>
      </trkpt>
      <trkpt lat="46.32317" lon="-0.64092">
        <ele>1</ele>
        <time>2012-05-11T10:45:17Z</time>
      </trkpt>
      <trkpt lat="46.32312" lon="-0.64089">
        <ele>1</ele>
        <time>2012-05-11T10:45:22Z</time>
      </trkpt>
      <trkpt lat="46.32305" lon="-0.64085">
        <ele>1</ele>
        <time>2012-05-11T10:45:27Z</time>
      </trkpt>
      <trkpt lat="46.32299" lon="-0.6408">
        <ele>1</ele>
        <time>2012-05-11T10:45:32Z</time>
      </trkpt>
      <trkpt lat="46.32294" lon="-0.6408">
        <ele>1</ele>
        <time>2012-05-11T10:45:37Z</time>
      </trkpt>
      <trkpt lat="46.32288" lon="-0.64074">
        <ele>2</ele>
        <time>2012-05-11T10:45:42Z</time>
      </trkpt>
      <trkpt lat="46.32283" lon="-0.6407">
        <ele>2</ele>
        <time>2012-05-11T10:45:47Z</time>
      </trkpt>
      <trkpt lat="46.32278" lon="-0.64067">
        <ele>2</ele>
        <time>2012-05-11T10:45:52Z</time>
      </trkpt>
      <trkpt lat="46.32273" lon="-0.64065">
        <ele>2</ele>
        <time>2012-05-11T10:45:57Z</time>
      </trkpt>
      <trkpt lat="46.32267" lon="-0.64062">
        <ele>2</ele>
        <time>2012-05-11T10:46:02Z</time>
      </trkpt>
      <trkpt lat="46.32262" lon="-0.64063">
        <ele>2</ele>
        <time>2012-05-11T10:46:07Z</time>
      </trkpt>
      <trkpt lat="46.32256" lon="-0.6406">
        <ele>2</ele>
        <time>2012-05-11T10:46:12Z</time>
      </trkpt>
      <trkpt lat="46.32251" lon="-0.64063">
        <ele>2</ele>
        <time>2012-05-11T10:46:17Z</time>
      </trkpt>
      <trkpt lat="46.3225" lon="-0.64073">
        <ele>2</ele>
        <time>2012-05-11T10:46:22Z</time>
      </trkpt>
      <trkpt lat="46.3225" lon="-0.64086">
        <ele>2</ele>
        <time>2012-05-11T10:46:27Z</time>
      </trkpt>
      <trkpt lat="46.32251" lon="-0.64096">
        <ele>2</ele>
        <time>2012-05-11T10:46:32Z</time>
      </trkpt>
      <trkpt lat="46.32252" lon="-0.64104">
        <ele>2</ele>
        <time>2012-05-11T10:46:37Z</time>
      </trkpt>
      <trkpt lat="46.32253" lon="-0.64111">
        <ele>2</ele>
        <time>2012-05-11T10:46:42Z</time>
      </trkpt>
      <trkpt lat="46.32255" lon="-0.64113">
        <ele>2</ele>
        <time>2012-05-11T10:46:47Z</time>
      </trkpt>
      <trkpt lat="46.32257" lon="-0.64122">
        <ele>2</ele>
        <time>2012-05-11T10:46:52Z</time>
      </trkpt>
      <trkpt lat="46.32257" lon="-0.64131">
        <ele>2</ele>
        <time>2012-05-11T10:46:57Z</time>
      </trkpt>
      <trkpt lat="46.32258" lon="-0.6414">
        <ele>2</ele>
        <time>2012-05-11T10:47:02Z</time>
      </trkpt>
      <trkpt lat="46.32259" lon="-0.64149">
        <ele>2</ele>
        <time>2012-05-11T10:47:07Z</time>
      </trkpt>
      <trkpt lat="46.3226" lon="-0.64157">
        <ele>2</ele>
        <time>2012-05-11T10:47:12Z</time>
      </trkpt>
      <trkpt lat="46.32262" lon="-0.64165">
        <ele>2</ele>
        <time>2012-05-11T10:47:17Z</time>
      </trkpt>
      <trkpt lat="46.32263" lon="-0.64171">
        <ele>2</ele>
        <time>2012-05-11T10:47:22Z</time>
      </trkpt>
      <trkpt lat="46.32266" lon="-0.64183">
        <ele>2</ele>
        <time>2012-05-11T10:47:27Z</time>
      </trkpt>
      <trkpt lat="46.32268" lon="-0.64192">
        <ele>2</ele>
        <time>2012-05-11T10:47:32Z</time>
      </trkpt>
      <trkpt lat="46.3227" lon="-0.642">
        <ele>2</ele>
        <time>2012-05-11T10:47:37Z</time>
      </trkpt>
      <trkpt lat="46.32272" lon="-0.6421">
        <ele>3</ele>
        <time>2012-05-11T10:47:42Z</time>
      </trkpt>
      <trkpt lat="46.32275" lon="-0.64219">
        <ele>3</ele>
        <time>2012-05-11T10:47:47Z</time>
      </trkpt>
      <trkpt lat="46.3228" lon="-0.64223">
        <ele>3</ele>
        <time>2012-05-11T10:47:52Z</time>
      </trkpt>
      <trkpt lat="46.32285" lon="-0.64228">
        <ele>3</ele>
        <time>2012-05-11T10:47:57Z</time>
      </trkpt>
      <trkpt lat="46.32284" lon="-0.64237">
        <ele>3</ele>
        <time>2012-05-11T10:48:02Z</time>
      </trkpt>
      <trkpt lat="46.32285" lon="-0.64249">
        <ele>3</ele>
        <time>2012-05-11T10:48:07Z</time>
      </trkpt>
      <trkpt lat="46.32287" lon="-0.64258">
        <ele>3</ele>
        <time>2012-05-11T10:48:12Z</time>
      </trkpt>
      <trkpt lat="46.32287" lon="-0.6427">
        <ele>2</ele>
        <time>2012-05-11T10:48:17Z</time>
      </trkpt>
      <trkpt lat="46.32289" lon="-0.64276">
        <ele>2</ele>
        <time>2012-05-11T10:48:22Z</time>
      </trkpt>
      <trkpt lat="46.3229" lon="-0.64283">
        <ele>2</ele>
        <time>2012-05-11T10:48:27Z</time>
      </trkpt>
      <trkpt lat="46.32292" lon="-0.6429">
        <ele>3</ele>
        <time>2012-05-11T10:48:32Z</time>
      </trkpt>
      <trkpt lat="46.32294" lon="-0.643">
        <ele>2</ele>
        <time>2012-05-11T10:48:37Z</time>
      </trkpt>
      <trkpt lat="46.32295" lon="-0.64308">
        <ele>2</ele>
        <time>2012-05-11T10:48:42Z</time>
      </trkpt>
      <trkpt lat="46.32297" lon="-0.64314">
        <ele>2</ele>
        <time>2012-05-11T10:48:47Z</time>
      </trkpt>
      <trkpt lat="46.32298" lon="-0.64323">
        <ele>2</ele>
        <time>2012-05-11T10:48:52Z</time>
      </trkpt>
      <trkpt lat="46.32302" lon="-0.64326">
        <ele>2</ele>
        <time>2012-05-11T10:48:57Z</time>
      </trkpt>
      <trkpt lat="46.32303" lon="-0.64331">
        <ele>2</ele>
        <time>2012-05-11T10:49:02Z</time>
      </trkpt>
      <trkpt lat="46.32304" lon="-0.64339">
        <ele>2</ele>
        <time>2012-05-11T10:49:07Z</time>
      </trkpt>
      <trkpt lat="46.32307" lon="-0.64346">
        <ele>2</ele>
        <time>2012-05-11T10:49:12Z</time>
      </trkpt>
      <trkpt lat="46.32307" lon="-0.64355">
        <ele>2</ele>
        <time>2012-05-11T10:49:17Z</time>
      </trkpt>
      <trkpt lat="46.32309" lon="-0.64362">
        <ele>2</ele>
        <time>2012-05-11T10:49:22Z</time>
      </trkpt>
      <trkpt lat="46.32311" lon="-0.64371">
        <ele>2</ele>
        <time>2012-05-11T10:49:27Z</time>
      </trkpt>
      <trkpt lat="46.32312" lon="-0.64381">
        <ele>2</ele>
        <time>2012-05-11T10:49:32Z</time>
      </trkpt>
      <trkpt lat="46.32314" lon="-0.64387">
        <ele>2</ele>
        <time>2012-05-11T10:49:37Z</time>
      </trkpt>
      <trkpt lat="46.32316" lon="-0.64395">
        <ele>2</ele>
        <time>2012-05-11T10:49:42Z</time>
      </trkpt>
      <trkpt lat="46.32317" lon="-0.64401">
        <ele>2</ele>
        <time>2012-05-11T10:49:47Z</time>
      </trkpt>
      <trkpt lat="46.32317" lon="-0.64411">
        <ele>2</ele>
        <time>2012-05-11T10:49:52Z</time>
      </trkpt>
      <trkpt lat="46.32318" lon="-0.64421">
        <ele>2</ele>
        <time>2012-05-11T10:49:57Z</time>
      </trkpt>
      <trkpt lat="46.3232" lon="-0.6443">
        <ele>3</ele>
        <time>2012-05-11T10:50:02Z</time>
      </trkpt>
      <trkpt lat="46.32321" lon="-0.64438">
        <ele>3</ele>
        <time>2012-05-11T10:50:07Z</time>
      </trkpt>
      <trkpt lat="46.32322" lon="-0.64446">
        <ele>3</ele>
        <time>2012-05-11T10:50:12Z</time>
      </trkpt>
      <trkpt lat="46.32325" lon="-0.64453">
        <ele>2.9</ele>
        <time>2012-05-11T10:50:17Z</time>
      </trkpt>
      <trkpt lat="46.32327" lon="-0.64465">
        <ele>1</ele>
        <time>2012-05-11T10:50:22Z</time>
      </trkpt>
      <trkpt lat="46.32329" lon="-0.64475">
        <ele>1</ele>
        <time>2012-05-11T10:50:27Z</time>
      </trkpt>
      <trkpt lat="46.32333" lon="-0.64483">
        <ele>1</ele>
        <time>2012-05-11T10:50:32Z</time>
      </trkpt>
      <trkpt lat="46.32334" lon="-0.64488">
        <ele>2</ele>
        <time>2012-05-11T10:50:37Z</time>
      </trkpt>
      <trkpt lat="46.32336" lon="-0.64495">
        <ele>2</ele>
        <time>2012-05-11T10:50:42Z</time>
      </trkpt>
      <trkpt lat="46.3234" lon="-0.64502">
        <ele>2</ele>
        <time>2012-05-11T10:50:47Z</time>
      </trkpt>
      <trkpt lat="46.32342" lon="-0.64511">
        <ele>2</ele>
        <time>2012-05-11T10:50:52Z</time>
      </trkpt>
      <trkpt lat="46.32344" lon="-0.64521">
        <ele>3</ele>
        <time>2012-05-11T10:50:57Z</time>
      </trkpt>
      <trkpt lat="46.32346" lon="-0.64528">
        <ele>3</ele>
        <time>2012-05-11T10:51:02Z</time>
      </trkpt>
      <trkpt lat="46.32347" lon="-0.64539">
        <ele>3</ele>
        <time>2012-05-11T10:51:07Z</time>
      </trkpt>
      <trkpt lat="46.32351" lon="-0.64545">
        <ele>2</ele>
        <time>2012-05-11T10:51:12Z</time>
      </trkpt>
      <trkpt lat="46.32353" lon="-0.64551">
        <ele>2</ele>
        <time>2012-05-11T10:51:17Z</time>
      </trkpt>
      <trkpt lat="46.32356" lon="-0.64559">
        <ele>2</ele>
        <time>2012-05-11T10:51:22Z</time>
      </trkpt>
      <trkpt lat="46.32358" lon="-0.64567">
        <ele>2</ele>
        <time>2012-05-11T10:51:27Z</time>
      </trkpt>
      <trkpt lat="46.32359" lon="-0.64575">
        <ele>2</ele>
        <time>2012-05-11T10:51:32Z</time>
      </trkpt>
      <trkpt lat="46.3236" lon="-0.64583">
        <ele>2</ele>
        <time>2012-05-11T10:51:37Z</time>
      </trkpt>
      <trkpt lat="46.3236" lon="-0.64591">
        <ele>2</ele>
        <time>2012-05-11T10:51:42Z</time>
      </trkpt>
      <trkpt lat="46.32362" lon="-0.64597">
        <ele>2</ele>
        <time>2012-05-11T10:51:47Z</time>
      </trkpt>
      <trkpt lat="46.32363" lon="-0.64605">
        <ele>2</ele>
        <time>2012-05-11T10:51:52Z</time>
      </trkpt>
      <trkpt lat="46.32366" lon="-0.64613">
        <ele>2</ele>
        <time>2012-05-11T10:51:57Z</time>
      </trkpt>
      <trkpt lat="46.32367" lon="-0.64623">
        <ele>2</ele>
        <time>2012-05-11T10:52:02Z</time>
      </trkpt>
      <trkpt lat="46.32371" lon="-0.64631">
        <ele>1</ele>
        <time>2012-05-11T10:52:07Z</time>
      </trkpt>
      <trkpt lat="46.32372" lon="-0.64638">
        <ele>1</ele>
        <time>2012-05-11T10:52:12Z</time>
      </trkpt>
      <trkpt lat="46.32373" lon="-0.64645">
        <ele>1</ele>
        <time>2012-05-11T10:52:17Z</time>
      </trkpt>
      <trkpt lat="46.32375" lon="-0.64653">
        <ele>1</ele>
        <time>2012-05-11T10:52:22Z</time>
      </trkpt>
      <trkpt lat="46.32375" lon="-0.64661">
        <ele>2</ele>
        <time>2012-05-11T10:52:27Z</time>
      </trkpt>
      <trkpt lat="46.32377" lon="-0.6467">
        <ele>2</ele>
        <time>2012-05-11T10:52:32Z</time>
      </trkpt>
      <trkpt lat="46.32379" lon="-0.64678">
        <ele>2</ele>
        <time>2012-05-11T10:52:37Z</time>
      </trkpt>
      <trkpt lat="46.32381" lon="-0.64685">
        <ele>2</ele>
        <time>2012-05-11T10:52:42Z</time>
      </trkpt>
      <trkpt lat="46.32383" lon="-0.64693">
        <ele>2</ele>
        <time>2012-05-11T10:52:47Z</time>
      </trkpt>
      <trkpt lat="46.32384" lon="-0.64699">
        <ele>2</ele>
        <time>2012-05-11T10:52:52Z</time>
      </trkpt>
      <trkpt lat="46.32385" lon="-0.64709">
        <ele>3</ele>
        <time>2012-05-11T10:52:57Z</time>
      </trkpt>
      <trkpt lat="46.32384" lon="-0.64715">
        <ele>3</ele>
        <time>2012-05-11T10:53:02Z</time>
      </trkpt>
      <trkpt lat="46.32379" lon="-0.6472">
        <ele>3</ele>
        <time>2012-05-11T10:53:07Z</time>
      </trkpt>
      <trkpt lat="46.32373" lon="-0.64723">
        <ele>3</ele>
        <time>2012-05-11T10:53:12Z</time>
      </trkpt>
      <trkpt lat="46.32366" lon="-0.64723">
        <ele>3</ele>
        <time>2012-05-11T10:53:17Z</time>
      </trkpt>
      <trkpt lat="46.32357" lon="-0.64722">
        <ele>3</ele>
        <time>2012-05-11T10:53:22Z</time>
      </trkpt>
      <trkpt lat="46.32349" lon="-0.6472">
        <ele>3</ele>
        <time>2012-05-11T10:53:27Z</time>
      </trkpt>
      <trkpt lat="46.32343" lon="-0.64719">
        <ele>3</ele>
        <time>2012-05-11T10:53:32Z</time>
      </trkpt>
      <trkpt lat="46.32338" lon="-0.64718">
        <ele>3</ele>
        <time>2012-05-11T10:53:37Z</time>
      </trkpt>
      <trkpt lat="46.32332" lon="-0.64717">
        <ele>3</ele>
        <time>2012-05-11T10:53:42Z</time>
      </trkpt>
      <trkpt lat="46.32327" lon="-0.64715">
        <ele>3</ele>
        <time>2012-05-11T10:53:47Z</time>
      </trkpt>
      <trkpt lat="46.32321" lon="-0.64715">
        <ele>3</ele>
        <time>2012-05-11T10:53:52Z</time>
      </trkpt>
      <trkpt lat="46.32317" lon="-0.64719">
        <ele>3</ele>
        <time>2012-05-11T10:53:57Z</time>
      </trkpt>
      <trkpt lat="46.32312" lon="-0.64719">
        <ele>3</ele>
        <time>2012-05-11T10:54:02Z</time>
      </trkpt>
      <trkpt lat="46.32305" lon="-0.64716">
        <ele>3</ele>
        <time>2012-05-11T10:54:07Z</time>
      </trkpt>
      <trkpt lat="46.32298" lon="-0.64715">
        <ele>3</ele>
        <time>2012-05-11T10:54:12Z</time>
      </trkpt>
      <trkpt lat="46.32293" lon="-0.64719">
        <ele>3</ele>
        <time>2012-05-11T10:54:17Z</time>
      </trkpt>
      <trkpt lat="46.32287" lon="-0.6472">
        <ele>3</ele>
        <time>2012-05-11T10:54:22Z</time>
      </trkpt>
      <trkpt lat="46.32282" lon="-0.6472">
        <ele>3</ele>
        <time>2012-05-11T10:54:27Z</time>
      </trkpt>
      <trkpt lat="46.32277" lon="-0.64718">
        <ele>3</ele>
        <time>2012-05-11T10:54:32Z</time>
      </trkpt>
      <trkpt lat="46.3227" lon="-0.64716">
        <ele>3</ele>
        <time>2012-05-11T10:54:37Z</time>
      </trkpt>
      <trkpt lat="46.32265" lon="-0.64717">
        <ele>3</ele>
        <time>2012-05-11T10:54:42Z</time>
      </trkpt>
      <trkpt lat="46.32259" lon="-0.64718">
        <ele>3</ele>
        <time>2012-05-11T10:54:47Z</time>
      </trkpt>
      <trkpt lat="46.32253" lon="-0.64717">
        <ele>3</ele>
        <time>2012-05-11T10:54:52Z</time>
      </trkpt>
      <trkpt lat="46.32247" lon="-0.64717">
        <ele>3</ele>
        <time>2012-05-11T10:54:57Z</time>
      </trkpt>
      <trkpt lat="46.32241" lon="-0.64715">
        <ele>3</ele>
        <time>2012-05-11T10:55:02Z</time>
      </trkpt>
      <trkpt lat="46.32237" lon="-0.64716">
        <ele>3</ele>
        <time>2012-05-11T10:55:07Z</time>
      </trkpt>
      <trkpt lat="46.32231" lon="-0.64715">
        <ele>5</ele>
        <time>2012-05-11T10:55:12Z</time>
      </trkpt>
      <trkpt lat="46.32226" lon="-0.64716">
        <ele>5</ele>
        <time>2012-05-11T10:55:17Z</time>
      </trkpt>
      <trkpt lat="46.32222" lon="-0.64716">
        <ele>5</ele>
        <time>2012-05-11T10:55:22Z</time>
      </trkpt>
      <trkpt lat="46.32219" lon="-0.64715">
        <ele>5</ele>
        <time>2012-05-11T10:55:27Z</time>
      </trkpt>
      <trkpt lat="46.32219" lon="-0.64715">
        <ele>5</ele>
        <time>2012-05-11T10:55:32Z</time>
      </trkpt>
      <trkpt lat="46.32219" lon="-0.64714">
        <ele>5</ele>
        <time>2012-05-11T10:55:37Z</time>
      </trkpt>
      <trkpt lat="46.32218" lon="-0.64715">
        <ele>5</ele>
        <time>2012-05-11T10:55:42Z</time>
      </trkpt>
      <trkpt lat="46.32212" lon="-0.64716">
        <ele>5</ele>
        <time>2012-05-11T10:55:47Z</time>
      </trkpt>
      <trkpt lat="46.32208" lon="-0.64716">
        <ele>6</ele>
        <time>2012-05-11T10:55:52Z</time>
      </trkpt>
      <trkpt lat="46.32202" lon="-0.64716">
        <ele>6</ele>
        <time>2012-05-11T10:55:57Z</time>
      </trkpt>
      <trkpt lat="46.32196" lon="-0.64716">
        <ele>6</ele>
        <time>2012-05-11T10:56:02Z</time>
      </trkpt>
      <trkpt lat="46.32189" lon="-0.64716">
        <ele>6</ele>
        <time>2012-05-11T10:56:07Z</time>
      </trkpt>
      <trkpt lat="46.32182" lon="-0.64716">
        <ele>6</ele>
        <time>2012-05-11T10:56:12Z</time>
      </trkpt>
      <trkpt lat="46.32176" lon="-0.64713">
        <ele>7</ele>
        <time>2012-05-11T10:56:17Z</time>
      </trkpt>
      <trkpt lat="46.3217" lon="-0.64713">
        <ele>7</ele>
        <time>2012-05-11T10:56:22Z</time>
      </trkpt>
      <trkpt lat="46.32166" lon="-0.64712">
        <ele>7</ele>
        <time>2012-05-11T10:56:27Z</time>
      </trkpt>
      <trkpt lat="46.3216" lon="-0.64711">
        <ele>7</ele>
        <time>2012-05-11T10:56:32Z</time>
      </trkpt>
      <trkpt lat="46.32153" lon="-0.64713">
        <ele>7</ele>
        <time>2012-05-11T10:56:37Z</time>
      </trkpt>
      <trkpt lat="46.32147" lon="-0.64713">
        <ele>7</ele>
        <time>2012-05-11T10:56:42Z</time>
      </trkpt>
      <trkpt lat="46.32142" lon="-0.64714">
        <ele>7</ele>
        <time>2012-05-11T10:56:47Z</time>
      </trkpt>
      <trkpt lat="46.32135" lon="-0.64714">
        <ele>7</ele>
        <time>2012-05-11T10:56:52Z</time>
      </trkpt>
      <trkpt lat="46.32128" lon="-0.64715">
        <ele>7</ele>
        <time>2012-05-11T10:56:57Z</time>
      </trkpt>
      <trkpt lat="46.32123" lon="-0.64715">
        <ele>6</ele>
        <time>2012-05-11T10:57:02Z</time>
      </trkpt>
      <trkpt lat="46.32118" lon="-0.64713">
        <ele>6</ele>
        <time>2012-05-11T10:57:07Z</time>
      </trkpt>
      <trkpt lat="46.32114" lon="-0.64717">
        <ele>6</ele>
        <time>2012-05-11T10:57:12Z</time>
      </trkpt>
      <trkpt lat="46.32109" lon="-0.64715">
        <ele>6</ele>
        <time>2012-05-11T10:57:17Z</time>
      </trkpt>
      <trkpt lat="46.32106" lon="-0.64713">
        <ele>6</ele>
        <time>2012-05-11T10:57:22Z</time>
      </trkpt>
      <trkpt lat="46.32106" lon="-0.64714">
        <ele>6</ele>
        <time>2012-05-11T10:57:27Z</time>
      </trkpt>
      <trkpt lat="46.32105" lon="-0.64713">
        <ele>6</ele>
        <time>2012-05-11T10:57:32Z</time>
      </trkpt>
      <trkpt lat="46.32097" lon="-0.64713">
        <ele>3</ele>
        <time>2012-05-11T10:57:37Z</time>
      </trkpt>
      <trkpt lat="46.32092" lon="-0.64714">
        <ele>3</ele>
        <time>2012-05-11T10:57:42Z</time>
      </trkpt>
      <trkpt lat="46.32086" lon="-0.64712">
        <ele>3</ele>
        <time>2012-05-11T10:57:47Z</time>
      </trkpt>
      <trkpt lat="46.32081" lon="-0.64712">
        <ele>3</ele>
        <time>2012-05-11T10:57:52Z</time>
      </trkpt>
      <trkpt lat="46.32074" lon="-0.64711">
        <ele>3</ele>
        <time>2012-05-11T10:57:57Z</time>
      </trkpt>
      <trkpt lat="46.32067" lon="-0.64714">
        <ele>1</ele>
        <time>2012-05-11T10:58:02Z</time>
      </trkpt>
      <trkpt lat="46.32061" lon="-0.64712">
        <ele>1</ele>
        <time>2012-05-11T10:58:07Z</time>
      </trkpt>
      <trkpt lat="46.32055" lon="-0.64711">
        <ele>1</ele>
        <time>2012-05-11T10:58:12Z</time>
      </trkpt>
      <trkpt lat="46.3205" lon="-0.64711">
        <ele>1</ele>
        <time>2012-05-11T10:58:17Z</time>
      </trkpt>
      <trkpt lat="46.32045" lon="-0.64711">
        <ele>1</ele>
        <time>2012-05-11T10:58:22Z</time>
      </trkpt>
      <trkpt lat="46.32038" lon="-0.64711">
        <ele>1</ele>
        <time>2012-05-11T10:58:27Z</time>
      </trkpt>
      <trkpt lat="46.32031" lon="-0.64709">
        <ele>1</ele>
        <time>2012-05-11T10:58:32Z</time>
      </trkpt>
      <trkpt lat="46.32027" lon="-0.64709">
        <ele>1</ele>
        <time>2012-05-11T10:58:37Z</time>
      </trkpt>
      <trkpt lat="46.32021" lon="-0.64707">
        <ele>3</ele>
        <time>2012-05-11T10:58:42Z</time>
      </trkpt>
      <trkpt lat="46.32016" lon="-0.64707">
        <ele>3</ele>
        <time>2012-05-11T10:58:47Z</time>
      </trkpt>
      <trkpt lat="46.32011" lon="-0.64707">
        <ele>2</ele>
        <time>2012-05-11T10:58:52Z</time>
      </trkpt>
      <trkpt lat="46.32005" lon="-0.64708">
        <ele>2</ele>
        <time>2012-05-11T10:58:57Z</time>
      </trkpt>
      <trkpt lat="46.32" lon="-0.64707">
        <ele>2</ele>
        <time>2012-05-11T10:59:02Z</time>
      </trkpt>
      <trkpt lat="46.31994" lon="-0.64708">
        <ele>2</ele>
        <time>2012-05-11T10:59:07Z</time>
      </trkpt>
      <trkpt lat="46.31988" lon="-0.64707">
        <ele>2</ele>
        <time>2012-05-11T10:59:12Z</time>
      </trkpt>
      <trkpt lat="46.31982" lon="-0.64706">
        <ele>2</ele>
        <time>2012-05-11T10:59:17Z</time>
      </trkpt>
      <trkpt lat="46.31976" lon="-0.64707">
        <ele>2</ele>
        <time>2012-05-11T10:59:22Z</time>
      </trkpt>
      <trkpt lat="46.31971" lon="-0.64706">
        <ele>2</ele>
        <time>2012-05-11T10:59:27Z</time>
      </trkpt>
      <trkpt lat="46.31964" lon="-0.64703">
        <ele>2</ele>
        <time>2012-05-11T10:59:32Z</time>
      </trkpt>
      <trkpt lat="46.31959" lon="-0.64704">
        <ele>2</ele>
        <time>2012-05-11T10:59:37Z</time>
      </trkpt>
      <trkpt lat="46.31955" lon="-0.64707">
        <ele>3</ele>
        <time>2012-05-11T10:59:42Z</time>
      </trkpt>
      <trkpt lat="46.31948" lon="-0.64706">
        <ele>3</ele>
        <time>2012-05-11T10:59:47Z</time>
      </trkpt>
      <trkpt lat="46.31943" lon="-0.64706">
        <ele>3</ele>
        <time>2012-05-11T10:59:52Z</time>
      </trkpt>
      <trkpt lat="46.31937" lon="-0.64707">
        <ele>3</ele>
        <time>2012-05-11T10:59:57Z</time>
      </trkpt>
      <trkpt lat="46.3193" lon="-0.64706">
        <ele>5</ele>
        <time>2012-05-11T11:00:02Z</time>
      </trkpt>
      <trkpt lat="46.31924" lon="-0.64705">
        <ele>5</ele>
        <time>2012-05-11T11:00:07Z</time>
      </trkpt>
      <trkpt lat="46.3192" lon="-0.64705">
        <ele>5</ele>
        <time>2012-05-11T11:00:12Z</time>
      </trkpt>
      <trkpt lat="46.31914" lon="-0.64703">
        <ele>5</ele>
        <time>2012-05-11T11:00:17Z</time>
      </trkpt>
      <trkpt lat="46.31908" lon="-0.64705">
        <ele>5</ele>
        <time>2012-05-11T11:00:22Z</time>
      </trkpt>
      <trkpt lat="46.31901" lon="-0.64704">
        <ele>6</ele>
        <time>2012-05-11T11:00:27Z</time>
      </trkpt>
      <trkpt lat="46.31896" lon="-0.64705">
        <ele>6</ele>
        <time>2012-05-11T11:00:32Z</time>
      </trkpt>
      <trkpt lat="46.31889" lon="-0.64705">
        <ele>6</ele>
        <time>2012-05-11T11:00:37Z</time>
      </trkpt>
      <trkpt lat="46.31884" lon="-0.64704">
        <ele>6</ele>
        <time>2012-05-11T11:00:42Z</time>
      </trkpt>
      <trkpt lat="46.31879" lon="-0.64705">
        <ele>6</ele>
        <time>2012-05-11T11:00:47Z</time>
      </trkpt>
      <trkpt lat="46.31873" lon="-0.64706">
        <ele>5</ele>
        <time>2012-05-11T11:00:52Z</time>
      </trkpt>
      <trkpt lat="46.31867" lon="-0.64706">
        <ele>5</ele>
        <time>2012-05-11T11:00:57Z</time>
      </trkpt>
      <trkpt lat="46.31862" lon="-0.64709">
        <ele>7</ele>
        <time>2012-05-11T11:01:02Z</time>
      </trkpt>
      <trkpt lat="46.3186" lon="-0.64717">
        <ele>7</ele>
        <time>2012-05-11T11:01:07Z</time>
      </trkpt>
      <trkpt lat="46.31857" lon="-0.64726">
        <ele>7</ele>
        <time>2012-05-11T11:01:12Z</time>
      </trkpt>
      <trkpt lat="46.31855" lon="-0.64735">
        <ele>7</ele>
        <time>2012-05-11T11:01:17Z</time>
      </trkpt>
      <trkpt lat="46.31853" lon="-0.64742">
        <ele>8</ele>
        <time>2012-05-11T11:01:22Z</time>
      </trkpt>
      <trkpt lat="46.31851" lon="-0.6475">
        <ele>8</ele>
        <time>2012-05-11T11:01:27Z</time>
      </trkpt>
      <trkpt lat="46.31848" lon="-0.64758">
        <ele>8</ele>
        <time>2012-05-11T11:01:32Z</time>
      </trkpt>
      <trkpt lat="46.31846" lon="-0.64766">
        <ele>10</ele>
        <time>2012-05-11T11:01:37Z</time>
      </trkpt>
      <trkpt lat="46.31846" lon="-0.64772">
        <ele>10</ele>
        <time>2012-05-11T11:01:42Z</time>
      </trkpt>
      <trkpt lat="46.31846" lon="-0.6478">
        <ele>10</ele>
        <time>2012-05-11T11:01:47Z</time>
      </trkpt>
      <trkpt lat="46.31847" lon="-0.64789">
        <ele>10</ele>
        <time>2012-05-11T11:01:52Z</time>
      </trkpt>
      <trkpt lat="46.31848" lon="-0.64797">
        <ele>10</ele>
        <time>2012-05-11T11:01:57Z</time>
      </trkpt>
      <trkpt lat="46.3185" lon="-0.64806">
        <ele>10</ele>
        <time>2012-05-11T11:02:02Z</time>
      </trkpt>
      <trkpt lat="46.31851" lon="-0.64815">
        <ele>10</ele>
        <time>2012-05-11T11:02:07Z</time>
      </trkpt>
      <trkpt lat="46.31851" lon="-0.64823">
        <ele>9</ele>
        <time>2012-05-11T11:02:12Z</time>
      </trkpt>
      <trkpt lat="46.3185" lon="-0.64832">
        <ele>9</ele>
        <time>2012-05-11T11:02:17Z</time>
      </trkpt>
      <trkpt lat="46.3185" lon="-0.64841">
        <ele>9</ele>
        <time>2012-05-11T11:02:22Z</time>
      </trkpt>
      <trkpt lat="46.3185" lon="-0.64852">
        <ele>7</ele>
        <time>2012-05-11T11:02:27Z</time>
      </trkpt>
      <trkpt lat="46.31848" lon="-0.6486">
        <ele>7</ele>
        <time>2012-05-11T11:02:32Z</time>
      </trkpt>
      <trkpt lat="46.31849" lon="-0.64867">
        <ele>7</ele>
        <time>2012-05-11T11:02:37Z</time>
      </trkpt>
      <trkpt lat="46.31848" lon="-0.64877">
        <ele>6</ele>
        <time>2012-05-11T11:02:42Z</time>
      </trkpt>
      <trkpt lat="46.31847" lon="-0.64887">
        <ele>5</ele>
        <time>2012-05-11T11:02:47Z</time>
      </trkpt>
      <trkpt lat="46.31847" lon="-0.64896">
        <ele>5</ele>
        <time>2012-05-11T11:02:52Z</time>
      </trkpt>
      <trkpt lat="46.31848" lon="-0.64904">
        <ele>5</ele>
        <time>2012-05-11T11:02:57Z</time>
      </trkpt>
      <trkpt lat="46.31847" lon="-0.64913">
        <ele>5</ele>
        <time>2012-05-11T11:03:02Z</time>
      </trkpt>
      <trkpt lat="46.31846" lon="-0.64923">
        <ele>5</ele>
        <time>2012-05-11T11:03:07Z</time>
      </trkpt>
      <trkpt lat="46.31846" lon="-0.64929">
        <ele>5</ele>
        <time>2012-05-11T11:03:12Z</time>
      </trkpt>
      <trkpt lat="46.31846" lon="-0.64937">
        <ele>6</ele>
        <time>2012-05-11T11:03:17Z</time>
      </trkpt>
      <trkpt lat="46.31845" lon="-0.64948">
        <ele>6</ele>
        <time>2012-05-11T11:03:22Z</time>
      </trkpt>
      <trkpt lat="46.31845" lon="-0.64955">
        <ele>6</ele>
        <time>2012-05-11T11:03:27Z</time>
      </trkpt>
      <trkpt lat="46.31844" lon="-0.64963">
        <ele>7</ele>
        <time>2012-05-11T11:03:32Z</time>
      </trkpt>
      <trkpt lat="46.31841" lon="-0.64972">
        <ele>7</ele>
        <time>2012-05-11T11:03:37Z</time>
      </trkpt>
      <trkpt lat="46.31837" lon="-0.64977">
        <ele>7</ele>
        <time>2012-05-11T11:03:42Z</time>
      </trkpt>
      <trkpt lat="46.31831" lon="-0.64977">
        <ele>7</ele>
        <time>2012-05-11T11:03:47Z</time>
      </trkpt>
      <trkpt lat="46.31824" lon="-0.64975">
        <ele>7</ele>
        <time>2012-05-11T11:03:52Z</time>
      </trkpt>
      <trkpt lat="46.31818" lon="-0.64974">
        <ele>7</ele>
        <time>2012-05-11T11:03:57Z</time>
      </trkpt>
      <trkpt lat="46.3181" lon="-0.64975">
        <ele>7</ele>
        <time>2012-05-11T11:04:02Z</time>
      </trkpt>
      <trkpt lat="46.31804" lon="-0.64976">
        <ele>7</ele>
        <time>2012-05-11T11:04:07Z</time>
      </trkpt>
      <trkpt lat="46.31798" lon="-0.64975">
        <ele>7</ele>
        <time>2012-05-11T11:04:12Z</time>
      </trkpt>
      <trkpt lat="46.31791" lon="-0.64977">
        <ele>7</ele>
        <time>2012-05-11T11:04:17Z</time>
      </trkpt>
      <trkpt lat="46.31784" lon="-0.64979">
        <ele>7</ele>
        <time>2012-05-11T11:04:22Z</time>
      </trkpt>
      <trkpt lat="46.31779" lon="-0.64981">
        <ele>7</ele>
        <time>2012-05-11T11:04:27Z</time>
      </trkpt>
      <trkpt lat="46.31771" lon="-0.64982">
        <ele>7</ele>
        <time>2012-05-11T11:04:32Z</time>
      </trkpt>
      <trkpt lat="46.31765" lon="-0.64982">
        <ele>7</ele>
        <time>2012-05-11T11:04:37Z</time>
      </trkpt>
      <trkpt lat="46.31758" lon="-0.64986">
        <ele>4</ele>
        <time>2012-05-11T11:04:42Z</time>
      </trkpt>
      <trkpt lat="46.31755" lon="-0.64989">
        <ele>3</ele>
        <time>2012-05-11T11:04:47Z</time>
      </trkpt>
      <trkpt lat="46.31752" lon="-0.64989">
        <ele>3</ele>
        <time>2012-05-11T11:04:52Z</time>
      </trkpt>
      <trkpt lat="46.31746" lon="-0.6499">
        <ele>3</ele>
        <time>2012-05-11T11:04:57Z</time>
      </trkpt>
      <trkpt lat="46.31739" lon="-0.64989">
        <ele>3</ele>
        <time>2012-05-11T11:05:02Z</time>
      </trkpt>
      <trkpt lat="46.31732" lon="-0.64991">
        <ele>2</ele>
        <time>2012-05-11T11:05:07Z</time>
      </trkpt>
      <trkpt lat="46.31727" lon="-0.64993">
        <ele>2</ele>
        <time>2012-05-11T11:05:12Z</time>
      </trkpt>
      <trkpt lat="46.31722" lon="-0.64997">
        <ele>2</ele>
        <time>2012-05-11T11:05:17Z</time>
      </trkpt>
      <trkpt lat="46.31718" lon="-0.65002">
        <ele>2</ele>
        <time>2012-05-11T11:05:22Z</time>
      </trkpt>
      <trkpt lat="46.31719" lon="-0.65011">
        <ele>2</ele>
        <time>2012-05-11T11:05:27Z</time>
      </trkpt>
      <trkpt lat="46.31719" lon="-0.6501">
        <ele>2</ele>
        <time>2012-05-11T11:05:32Z</time>
      </trkpt>
      <trkpt lat="46.31721" lon="-0.65016">
        <ele>1</ele>
        <time>2012-05-11T11:05:37Z</time>
      </trkpt>
      <trkpt lat="46.31723" lon="-0.65023">
        <ele>1</ele>
        <time>2012-05-11T11:05:42Z</time>
      </trkpt>
      <trkpt lat="46.31725" lon="-0.65027">
        <ele>1</ele>
        <time>2012-05-11T11:05:47Z</time>
      </trkpt>
      <trkpt lat="46.31727" lon="-0.65036">
        <ele>1</ele>
        <time>2012-05-11T11:05:52Z</time>
      </trkpt>
      <trkpt lat="46.31728" lon="-0.65038">
        <ele>1</ele>
        <time>2012-05-11T11:05:57Z</time>
      </trkpt>
      <trkpt lat="46.31731" lon="-0.65046">
        <ele>1</ele>
        <time>2012-05-11T11:06:02Z</time>
      </trkpt>
      <trkpt lat="46.31733" lon="-0.65055">
        <ele>1</ele>
        <time>2012-05-11T11:06:07Z</time>
      </trkpt>
      <trkpt lat="46.31737" lon="-0.65063">
        <ele>1</ele>
        <time>2012-05-11T11:06:12Z</time>
      </trkpt>
      <trkpt lat="46.31739" lon="-0.6507">
        <ele>1</ele>
        <time>2012-05-11T11:06:17Z</time>
      </trkpt>
      <trkpt lat="46.31741" lon="-0.65077">
        <ele>1</ele>
        <time>2012-05-11T11:06:22Z</time>
      </trkpt>
      <trkpt lat="46.31743" lon="-0.65085">
        <ele>1</ele>
        <time>2012-05-11T11:06:27Z</time>
      </trkpt>
      <trkpt lat="46.31746" lon="-0.65094">
        <ele>1</ele>
        <time>2012-05-11T11:06:32Z</time>
      </trkpt>
      <trkpt lat="46.3175" lon="-0.65099">
        <ele>1</ele>
        <time>2012-05-11T11:06:37Z</time>
      </trkpt>
      <trkpt lat="46.31752" lon="-0.65106">
        <ele>1</ele>
        <time>2012-05-11T11:06:42Z</time>
      </trkpt>
      <trkpt lat="46.31754" lon="-0.65114">
        <ele>1</ele>
        <time>2012-05-11T11:06:47Z</time>
      </trkpt>
      <trkpt lat="46.31755" lon="-0.65123">
        <ele>1</ele>
        <time>2012-05-11T11:06:52Z</time>
      </trkpt>
      <trkpt lat="46.31757" lon="-0.6513">
        <ele>2.5</ele>
        <time>2012-05-11T11:06:57Z</time>
      </trkpt>
      <trkpt lat="46.31757" lon="-0.65141">
        <ele>2.3</ele>
        <time>2012-05-11T11:07:02Z</time>
      </trkpt>
      <trkpt lat="46.31759" lon="-0.65151">
        <ele>2.4</ele>
        <time>2012-05-11T11:07:07Z</time>
      </trkpt>
      <trkpt lat="46.31761" lon="-0.65157">
        <ele>1</ele>
        <time>2012-05-11T11:07:12Z</time>
      </trkpt>
      <trkpt lat="46.31763" lon="-0.65165">
        <ele>1</ele>
        <time>2012-05-11T11:07:17Z</time>
      </trkpt>
      <trkpt lat="46.31765" lon="-0.65172">
        <ele>3</ele>
        <time>2012-05-11T11:07:22Z</time>
      </trkpt>
      <trkpt lat="46.31766" lon="-0.65181">
        <ele>3</ele>
        <time>2012-05-11T11:07:27Z</time>
      </trkpt>
      <trkpt lat="46.31767" lon="-0.6519">
        <ele>3</ele>
        <time>2012-05-11T11:07:32Z</time>
      </trkpt>
      <trkpt lat="46.31768" lon="-0.65198">
        <ele>3</ele>
        <time>2012-05-11T11:07:37Z</time>
      </trkpt>
      <trkpt lat="46.31768" lon="-0.65207">
        <ele>3</ele>
        <time>2012-05-11T11:07:42Z</time>
      </trkpt>
      <trkpt lat="46.31768" lon="-0.65217">
        <ele>4</ele>
        <time>2012-05-11T11:07:47Z</time>
      </trkpt>
      <trkpt lat="46.31769" lon="-0.65223">
        <ele>4</ele>
        <time>2012-05-11T11:07:52Z</time>
      </trkpt>
      <trkpt lat="46.31768" lon="-0.65231">
        <ele>4</ele>
        <time>2012-05-11T11:07:57Z</time>
      </trkpt>
      <trkpt lat="46.31769" lon="-0.65238">
        <ele>5</ele>
        <time>2012-05-11T11:08:02Z</time>
      </trkpt>
      <trkpt lat="46.31769" lon="-0.65246">
        <ele>5</ele>
        <time>2012-05-11T11:08:07Z</time>
      </trkpt>
      <trkpt lat="46.31769" lon="-0.65253">
        <ele>5</ele>
        <time>2012-05-11T11:08:12Z</time>
      </trkpt>
      <trkpt lat="46.3177" lon="-0.65262">
        <ele>5</ele>
        <time>2012-05-11T11:08:17Z</time>
      </trkpt>
      <trkpt lat="46.31769" lon="-0.65269">
        <ele>5</ele>
        <time>2012-05-11T11:08:22Z</time>
      </trkpt>
      <trkpt lat="46.3177" lon="-0.65277">
        <ele>5</ele>
        <time>2012-05-11T11:08:27Z</time>
      </trkpt>
      <trkpt lat="46.3177" lon="-0.65286">
        <ele>5</ele>
        <time>2012-05-11T11:08:32Z</time>
      </trkpt>
      <trkpt lat="46.31769" lon="-0.65294">
        <ele>5</ele>
        <time>2012-05-11T11:08:37Z</time>
      </trkpt>
      <trkpt lat="46.31769" lon="-0.65302">
        <ele>5</ele>
        <time>2012-05-11T11:08:42Z</time>
      </trkpt>
      <trkpt lat="46.31767" lon="-0.65308">
        <ele>5</ele>
        <time>2012-05-11T11:08:47Z</time>
      </trkpt>
      <trkpt lat="46.31766" lon="-0.65316">
        <ele>5</ele>
        <time>2012-05-11T11:08:52Z</time>
      </trkpt>
      <trkpt lat="46.31764" lon="-0.65323">
        <ele>5</ele>
        <time>2012-05-11T11:08:57Z</time>
      </trkpt>
      <trkpt lat="46.31762" lon="-0.65331">
        <ele>5</ele>
        <time>2012-05-11T11:09:02Z</time>
      </trkpt>
      <trkpt lat="46.3176" lon="-0.65337">
        <ele>5</ele>
        <time>2012-05-11T11:09:07Z</time>
      </trkpt>
      <trkpt lat="46.31758" lon="-0.65345">
        <ele>5</ele>
        <time>2012-05-11T11:09:12Z</time>
      </trkpt>
      <trkpt lat="46.31755" lon="-0.65353">
        <ele>4</ele>
        <time>2012-05-11T11:09:17Z</time>
      </trkpt>
      <trkpt lat="46.31752" lon="-0.6536">
        <ele>4</ele>
        <time>2012-05-11T11:09:22Z</time>
      </trkpt>
      <trkpt lat="46.31748" lon="-0.65366">
        <ele>4</ele>
        <time>2012-05-11T11:09:27Z</time>
      </trkpt>
      <trkpt lat="46.31746" lon="-0.65375">
        <ele>4</ele>
        <time>2012-05-11T11:09:32Z</time>
      </trkpt>
      <trkpt lat="46.31744" lon="-0.65382">
        <ele>3</ele>
        <time>2012-05-11T11:09:37Z</time>
      </trkpt>
      <trkpt lat="46.3174" lon="-0.65389">
        <ele>3</ele>
        <time>2012-05-11T11:09:42Z</time>
      </trkpt>
      <trkpt lat="46.31737" lon="-0.65397">
        <ele>3</ele>
        <time>2012-05-11T11:09:47Z</time>
      </trkpt>
      <trkpt lat="46.31733" lon="-0.65402">
        <ele>2</ele>
        <time>2012-05-11T11:09:52Z</time>
      </trkpt>
      <trkpt lat="46.3173" lon="-0.6541">
        <ele>2</ele>
        <time>2012-05-11T11:09:57Z</time>
      </trkpt>
      <trkpt lat="46.31727" lon="-0.65416">
        <ele>2</ele>
        <time>2012-05-11T11:10:02Z</time>
      </trkpt>
      <trkpt lat="46.31723" lon="-0.65422">
        <ele>2</ele>
        <time>2012-05-11T11:10:07Z</time>
      </trkpt>
      <trkpt lat="46.31718" lon="-0.65428">
        <ele>2</ele>
        <time>2012-05-11T11:10:12Z</time>
      </trkpt>
      <trkpt lat="46.31715" lon="-0.65435">
        <ele>2</ele>
        <time>2012-05-11T11:10:17Z</time>
      </trkpt>
      <trkpt lat="46.31711" lon="-0.65441">
        <ele>2</ele>
        <time>2012-05-11T11:10:22Z</time>
      </trkpt>
      <trkpt lat="46.31707" lon="-0.65447">
        <ele>2</ele>
        <time>2012-05-11T11:10:27Z</time>
      </trkpt>
      <trkpt lat="46.31703" lon="-0.65453">
        <ele>2</ele>
        <time>2012-05-11T11:10:32Z</time>
      </trkpt>
      <trkpt lat="46.317" lon="-0.65461">
        <ele>3</ele>
        <time>2012-05-11T11:10:37Z</time>
      </trkpt>
      <trkpt lat="46.31697" lon="-0.65468">
        <ele>3</ele>
        <time>2012-05-11T11:10:42Z</time>
      </trkpt>
      <trkpt lat="46.31693" lon="-0.65474">
        <ele>3</ele>
        <time>2012-05-11T11:10:47Z</time>
      </trkpt>
      <trkpt lat="46.3169" lon="-0.65482">
        <ele>3</ele>
        <time>2012-05-11T11:10:52Z</time>
      </trkpt>
      <trkpt lat="46.31686" lon="-0.65488">
        <ele>4</ele>
        <time>2012-05-11T11:10:57Z</time>
      </trkpt>
      <trkpt lat="46.31682" lon="-0.65492">
        <ele>4</ele>
        <time>2012-05-11T11:11:02Z</time>
      </trkpt>
      <trkpt lat="46.31677" lon="-0.65498">
        <ele>4</ele>
        <time>2012-05-11T11:11:07Z</time>
      </trkpt>
      <trkpt lat="46.31674" lon="-0.65504">
        <ele>4</ele>
        <time>2012-05-11T11:11:12Z</time>
      </trkpt>
      <trkpt lat="46.31672" lon="-0.65509">
        <ele>4</ele>
        <time>2012-05-11T11:11:17Z</time>
      </trkpt>
      <trkpt lat="46.31667" lon="-0.65515">
        <ele>4</ele>
        <time>2012-05-11T11:11:22Z</time>
      </trkpt>
      <trkpt lat="46.31663" lon="-0.65519">
        <ele>4</ele>
        <time>2012-05-11T11:11:27Z</time>
      </trkpt>
      <trkpt lat="46.31658" lon="-0.65525">
        <ele>4</ele>
        <time>2012-05-11T11:11:32Z</time>
      </trkpt>
      <trkpt lat="46.31656" lon="-0.65532">
        <ele>4</ele>
        <time>2012-05-11T11:11:37Z</time>
      </trkpt>
      <trkpt lat="46.31654" lon="-0.65538">
        <ele>4</ele>
        <time>2012-05-11T11:11:42Z</time>
      </trkpt>
      <trkpt lat="46.31648" lon="-0.65543">
        <ele>4</ele>
        <time>2012-05-11T11:11:47Z</time>
      </trkpt>
      <trkpt lat="46.31642" lon="-0.65547">
        <ele>4</ele>
        <time>2012-05-11T11:11:52Z</time>
      </trkpt>
      <trkpt lat="46.31636" lon="-0.65551">
        <ele>4</ele>
        <time>2012-05-11T11:11:57Z</time>
      </trkpt>
      <trkpt lat="46.31636" lon="-0.65555">
        <ele>4</ele>
        <time>2012-05-11T11:12:02Z</time>
      </trkpt>
      <trkpt lat="46.31632" lon="-0.65557">
        <ele>4</ele>
        <time>2012-05-11T11:12:07Z</time>
      </trkpt>
      <trkpt lat="46.31624" lon="-0.6556">
        <ele>3</ele>
        <time>2012-05-11T11:12:12Z</time>
      </trkpt>
      <trkpt lat="46.3162" lon="-0.65563">
        <ele>3</ele>
        <time>2012-05-11T11:12:17Z</time>
      </trkpt>
      <trkpt lat="46.31615" lon="-0.65568">
        <ele>3</ele>
        <time>2012-05-11T11:12:22Z</time>
      </trkpt>
      <trkpt lat="46.3161" lon="-0.6557">
        <ele>4</ele>
        <time>2012-05-11T11:12:27Z</time>
      </trkpt>
      <trkpt lat="46.31605" lon="-0.65573">
        <ele>4</ele>
        <time>2012-05-11T11:12:32Z</time>
      </trkpt>
      <trkpt lat="46.31605" lon="-0.65575">
        <ele>4</ele>
        <time>2012-05-11T11:12:37Z</time>
      </trkpt>
      <trkpt lat="46.31606" lon="-0.65575">
        <ele>4</ele>
        <time>2012-05-11T11:12:42Z</time>
      </trkpt>
      <trkpt lat="46.31605" lon="-0.65577">
        <ele>4</ele>
        <time>2012-05-11T11:12:47Z</time>
      </trkpt>
      <trkpt lat="46.31601" lon="-0.6558">
        <ele>4</ele>
        <time>2012-05-11T11:12:52Z</time>
      </trkpt>
      <trkpt lat="46.31597" lon="-0.65587">
        <ele>4</ele>
        <time>2012-05-11T11:12:57Z</time>
      </trkpt>
      <trkpt lat="46.31591" lon="-0.6559">
        <ele>4</ele>
        <time>2012-05-11T11:13:02Z</time>
      </trkpt>
      <trkpt lat="46.31587" lon="-0.65593">
        <ele>4</ele>
        <time>2012-05-11T11:13:07Z</time>
      </trkpt>
      <trkpt lat="46.31582" lon="-0.65594">
        <ele>4</ele>
        <time>2012-05-11T11:13:12Z</time>
      </trkpt>
      <trkpt lat="46.31576" lon="-0.65597">
        <ele>4</ele>
        <time>2012-05-11T11:13:17Z</time>
      </trkpt>
      <trkpt lat="46.31572" lon="-0.656">
        <ele>4</ele>
        <time>2012-05-11T11:13:22Z</time>
      </trkpt>
      <trkpt lat="46.31571" lon="-0.65602">
        <ele>4</ele>
        <time>2012-05-11T11:13:27Z</time>
      </trkpt>
      <trkpt lat="46.31565" lon="-0.65605">
        <ele>4</ele>
        <time>2012-05-11T11:13:32Z</time>
      </trkpt>
      <trkpt lat="46.3156" lon="-0.65608">
        <ele>4</ele>
        <time>2012-05-11T11:13:37Z</time>
      </trkpt>
      <trkpt lat="46.31555" lon="-0.65612">
        <ele>4</ele>
        <time>2012-05-11T11:13:42Z</time>
      </trkpt>
      <trkpt lat="46.31551" lon="-0.65615">
        <ele>4</ele>
        <time>2012-05-11T11:13:47Z</time>
      </trkpt>
      <trkpt lat="46.31546" lon="-0.6562">
        <ele>4</ele>
        <time>2012-05-11T11:13:52Z</time>
      </trkpt>
      <trkpt lat="46.31541" lon="-0.65625">
        <ele>3</ele>
        <time>2012-05-11T11:13:57Z</time>
      </trkpt>
      <trkpt lat="46.31538" lon="-0.65631">
        <ele>3</ele>
        <time>2012-05-11T11:14:02Z</time>
      </trkpt>
      <trkpt lat="46.31534" lon="-0.65636">
        <ele>3</ele>
        <time>2012-05-11T11:14:07Z</time>
      </trkpt>
      <trkpt lat="46.3153" lon="-0.65641">
        <ele>3</ele>
        <time>2012-05-11T11:14:12Z</time>
      </trkpt>
      <trkpt lat="46.31526" lon="-0.65647">
        <ele>3</ele>
        <time>2012-05-11T11:14:17Z</time>
      </trkpt>
      <trkpt lat="46.31523" lon="-0.65651">
        <ele>3</ele>
        <time>2012-05-11T11:14:22Z</time>
      </trkpt>
      <trkpt lat="46.3152" lon="-0.65657">
        <ele>4</ele>
        <time>2012-05-11T11:14:27Z</time>
      </trkpt>
      <trkpt lat="46.3152" lon="-0.65658">
        <ele>4</ele>
        <time>2012-05-11T11:14:32Z</time>
      </trkpt>
      <trkpt lat="46.31518" lon="-0.65663">
        <ele>4</ele>
        <time>2012-05-11T11:14:37Z</time>
      </trkpt>
      <trkpt lat="46.31517" lon="-0.65671">
        <ele>4</ele>
        <time>2012-05-11T11:14:42Z</time>
      </trkpt>
      <trkpt lat="46.31515" lon="-0.65678">
        <ele>4</ele>
        <time>2012-05-11T11:14:47Z</time>
      </trkpt>
      <trkpt lat="46.31514" lon="-0.65685">
        <ele>3</ele>
        <time>2012-05-11T11:14:52Z</time>
      </trkpt>
      <trkpt lat="46.31515" lon="-0.65693">
        <ele>4</ele>
        <time>2012-05-11T11:14:57Z</time>
      </trkpt>
      <trkpt lat="46.31516" lon="-0.65701">
        <ele>4</ele>
        <time>2012-05-11T11:15:02Z</time>
      </trkpt>
      <trkpt lat="46.31516" lon="-0.65708">
        <ele>4</ele>
        <time>2012-05-11T11:15:07Z</time>
      </trkpt>
      <trkpt lat="46.31518" lon="-0.65716">
        <ele>5</ele>
        <time>2012-05-11T11:15:12Z</time>
      </trkpt>
      <trkpt lat="46.31518" lon="-0.65723">
        <ele>5</ele>
        <time>2012-05-11T11:15:17Z</time>
      </trkpt>
      <trkpt lat="46.31519" lon="-0.65732">
        <ele>5</ele>
        <time>2012-05-11T11:15:22Z</time>
      </trkpt>
      <trkpt lat="46.31521" lon="-0.65742">
        <ele>4</ele>
        <time>2012-05-11T11:15:27Z</time>
      </trkpt>
      <trkpt lat="46.31523" lon="-0.65752">
        <ele>4</ele>
        <time>2012-05-11T11:15:32Z</time>
      </trkpt>
      <trkpt lat="46.31525" lon="-0.65759">
        <ele>4</ele>
        <time>2012-05-11T11:15:37Z</time>
      </trkpt>
      <trkpt lat="46.31528" lon="-0.65766">
        <ele>3</ele>
        <time>2012-05-11T11:15:42Z</time>
      </trkpt>
      <trkpt lat="46.31531" lon="-0.65774">
        <ele>3</ele>
        <time>2012-05-11T11:15:47Z</time>
      </trkpt>
      <trkpt lat="46.31535" lon="-0.65779">
        <ele>3</ele>
        <time>2012-05-11T11:15:52Z</time>
      </trkpt>
      <trkpt lat="46.31538" lon="-0.65787">
        <ele>3</ele>
        <time>2012-05-11T11:15:57Z</time>
      </trkpt>
      <trkpt lat="46.3154" lon="-0.65795">
        <ele>3</ele>
        <time>2012-05-11T11:16:02Z</time>
      </trkpt>
      <trkpt lat="46.31544" lon="-0.658">
        <ele>2</ele>
        <time>2012-05-11T11:16:07Z</time>
      </trkpt>
      <trkpt lat="46.31547" lon="-0.65805">
        <ele>2</ele>
        <time>2012-05-11T11:16:12Z</time>
      </trkpt>
      <trkpt lat="46.31551" lon="-0.6581">
        <ele>2</ele>
        <time>2012-05-11T11:16:17Z</time>
      </trkpt>
      <trkpt lat="46.31554" lon="-0.65816">
        <ele>2</ele>
        <time>2012-05-11T11:16:22Z</time>
      </trkpt>
      <trkpt lat="46.31557" lon="-0.6582">
        <ele>2</ele>
        <time>2012-05-11T11:16:27Z</time>
      </trkpt>
      <trkpt lat="46.31561" lon="-0.65827">
        <ele>2</ele>
        <time>2012-05-11T11:16:32Z</time>
      </trkpt>
      <trkpt lat="46.31565" lon="-0.65832">
        <ele>2</ele>
        <time>2012-05-11T11:16:37Z</time>
      </trkpt>
      <trkpt lat="46.31568" lon="-0.6584">
        <ele>2</ele>
        <time>2012-05-11T11:16:42Z</time>
      </trkpt>
      <trkpt lat="46.31571" lon="-0.65848">
        <ele>2</ele>
        <time>2012-05-11T11:16:47Z</time>
      </trkpt>
      <trkpt lat="46.31574" lon="-0.65855">
        <ele>2</ele>
        <time>2012-05-11T11:16:52Z</time>
      </trkpt>
      <trkpt lat="46.31578" lon="-0.65862">
        <ele>2</ele>
        <time>2012-05-11T11:16:57Z</time>
      </trkpt>
      <trkpt lat="46.31581" lon="-0.65869">
        <ele>2</ele>
        <time>2012-05-11T11:17:02Z</time>
      </trkpt>
      <trkpt lat="46.31584" lon="-0.65875">
        <ele>2</ele>
        <time>2012-05-11T11:17:07Z</time>
      </trkpt>
      <trkpt lat="46.31586" lon="-0.6588">
        <ele>3</ele>
        <time>2012-05-11T11:17:12Z</time>
      </trkpt>
      <trkpt lat="46.31589" lon="-0.65883">
        <ele>3</ele>
        <time>2012-05-11T11:17:17Z</time>
      </trkpt>
      <trkpt lat="46.3159" lon="-0.65885">
        <ele>3</ele>
        <time>2012-05-11T11:17:22Z</time>
      </trkpt>
      <trkpt lat="46.31591" lon="-0.65885">
        <ele>3</ele>
        <time>2012-05-11T11:17:27Z</time>
      </trkpt>
      <trkpt lat="46.31591" lon="-0.65883">
        <ele>3</ele>
        <time>2012-05-11T11:17:32Z</time>
      </trkpt>
      <trkpt lat="46.31591" lon="-0.65882">
        <ele>3</ele>
        <time>2012-05-11T11:17:37Z</time>
      </trkpt>
      <trkpt lat="46.31592" lon="-0.65882">
        <ele>3</ele>
        <time>2012-05-11T11:17:42Z</time>
      </trkpt>
      <trkpt lat="46.31596" lon="-0.65886">
        <ele>3</ele>
        <time>2012-05-11T11:17:47Z</time>
      </trkpt>
      <trkpt lat="46.316" lon="-0.65892">
        <ele>3</ele>
        <time>2012-05-11T11:17:52Z</time>
      </trkpt>
      <trkpt lat="46.31604" lon="-0.659">
        <ele>3</ele>
        <time>2012-05-11T11:17:57Z</time>
      </trkpt>
      <trkpt lat="46.31604" lon="-0.65907">
        <ele>5</ele>
        <time>2012-05-11T11:18:02Z</time>
      </trkpt>
      <trkpt lat="46.31605" lon="-0.65908">
        <ele>5</ele>
        <time>2012-05-11T11:18:07Z</time>
      </trkpt>
      <trkpt lat="46.31605" lon="-0.65907">
        <ele>5</ele>
        <time>2012-05-11T11:18:12Z</time>
      </trkpt>
      <trkpt lat="46.31607" lon="-0.65913">
        <ele>5</ele>
        <time>2012-05-11T11:18:17Z</time>
      </trkpt>
      <trkpt lat="46.31611" lon="-0.65919">
        <ele>5</ele>
        <time>2012-05-11T11:18:22Z</time>
      </trkpt>
      <trkpt lat="46.31614" lon="-0.65927">
        <ele>5</ele>
        <time>2012-05-11T11:18:27Z</time>
      </trkpt>
      <trkpt lat="46.31618" lon="-0.65934">
        <ele>4</ele>
        <time>2012-05-11T11:18:32Z</time>
      </trkpt>
      <trkpt lat="46.31621" lon="-0.6594">
        <ele>4</ele>
        <time>2012-05-11T11:18:37Z</time>
      </trkpt>
      <trkpt lat="46.31624" lon="-0.65948">
        <ele>4</ele>
        <time>2012-05-11T11:18:42Z</time>
      </trkpt>
      <trkpt lat="46.31628" lon="-0.65952">
        <ele>5</ele>
        <time>2012-05-11T11:18:47Z</time>
      </trkpt>
      <trkpt lat="46.31629" lon="-0.65953">
        <ele>5</ele>
        <time>2012-05-11T11:18:52Z</time>
      </trkpt>
      <trkpt lat="46.31633" lon="-0.65958">
        <ele>5</ele>
        <time>2012-05-11T11:18:57Z</time>
      </trkpt>
      <trkpt lat="46.31632" lon="-0.65962">
        <ele>4</ele>
        <time>2012-05-11T11:19:02Z</time>
      </trkpt>
      <trkpt lat="46.3163" lon="-0.65959">
        <ele>4</ele>
        <time>2012-05-11T11:19:07Z</time>
      </trkpt>
      <trkpt lat="46.3163" lon="-0.65959">
        <ele>4</ele>
        <time>2012-05-11T11:19:12Z</time>
      </trkpt>
      <trkpt lat="46.31632" lon="-0.6596">
        <ele>4</ele>
        <time>2012-05-11T11:19:17Z</time>
      </trkpt>
      <trkpt lat="46.31633" lon="-0.65967">
        <ele>4</ele>
        <time>2012-05-11T11:19:22Z</time>
      </trkpt>
      <trkpt lat="46.31636" lon="-0.65968">
        <ele>4</ele>
        <time>2012-05-11T11:19:27Z</time>
      </trkpt>
      <trkpt lat="46.31636" lon="-0.65968">
        <ele>4</ele>
        <time>2012-05-11T11:19:32Z</time>
      </trkpt>
      <trkpt lat="46.31636" lon="-0.65968">
        <ele>4</ele>
        <time>2012-05-11T11:19:37Z</time>
      </trkpt>
      <trkpt lat="46.31639" lon="-0.65973">
        <ele>4</ele>
        <time>2012-05-11T11:19:42Z</time>
      </trkpt>
      <trkpt lat="46.31641" lon="-0.65977">
        <ele>4</ele>
        <time>2012-05-11T11:19:47Z</time>
      </trkpt>
      <trkpt lat="46.31641" lon="-0.65979">
        <ele>4</ele>
        <time>2012-05-11T11:19:52Z</time>
      </trkpt>
      <trkpt lat="46.31643" lon="-0.65987">
        <ele>3</ele>
        <time>2012-05-11T11:19:57Z</time>
      </trkpt>
      <trkpt lat="46.31647" lon="-0.65996">
        <ele>3</ele>
        <time>2012-05-11T11:20:02Z</time>
      </trkpt>
      <trkpt lat="46.3165" lon="-0.66004">
        <ele>3</ele>
        <time>2012-05-11T11:20:07Z</time>
      </trkpt>
      <trkpt lat="46.31652" lon="-0.66012">
        <ele>3</ele>
        <time>2012-05-11T11:20:12Z</time>
      </trkpt>
      <trkpt lat="46.31655" lon="-0.66019">
        <ele>3</ele>
        <time>2012-05-11T11:20:17Z</time>
      </trkpt>
      <trkpt lat="46.31658" lon="-0.66025">
        <ele>3</ele>
        <time>2012-05-11T11:20:22Z</time>
      </trkpt>
      <trkpt lat="46.31662" lon="-0.6603">
        <ele>3</ele>
        <time>2012-05-11T11:20:27Z</time>
      </trkpt>
      <trkpt lat="46.31665" lon="-0.66035">
        <ele>3</ele>
        <time>2012-05-11T11:20:32Z</time>
      </trkpt>
      <trkpt lat="46.31669" lon="-0.66041">
        <ele>3</ele>
        <time>2012-05-11T11:20:37Z</time>
      </trkpt>
      <trkpt lat="46.31672" lon="-0.66048">
        <ele>3</ele>
        <time>2012-05-11T11:20:42Z</time>
      </trkpt>
      <trkpt lat="46.31675" lon="-0.66054">
        <ele>3</ele>
        <time>2012-05-11T11:20:47Z</time>
      </trkpt>
      <trkpt lat="46.31678" lon="-0.66061">
        <ele>3</ele>
        <time>2012-05-11T11:20:52Z</time>
      </trkpt>
      <trkpt lat="46.31681" lon="-0.66069">
        <ele>3</ele>
        <time>2012-05-11T11:20:57Z</time>
      </trkpt>
      <trkpt lat="46.31684" lon="-0.66077">
        <ele>2</ele>
        <time>2012-05-11T11:21:02Z</time>
      </trkpt>
      <trkpt lat="46.31687" lon="-0.66084">
        <ele>2</ele>
        <time>2012-05-11T11:21:07Z</time>
      </trkpt>
      <trkpt lat="46.3169" lon="-0.66092">
        <ele>2</ele>
        <time>2012-05-11T11:21:12Z</time>
      </trkpt>
      <trkpt lat="46.31693" lon="-0.66099">
        <ele>2</ele>
        <time>2012-05-11T11:21:17Z</time>
      </trkpt>
      <trkpt lat="46.31695" lon="-0.66106">
        <ele>2</ele>
        <time>2012-05-11T11:21:22Z</time>
      </trkpt>
      <trkpt lat="46.31699" lon="-0.66111">
        <ele>2</ele>
        <time>2012-05-11T11:21:27Z</time>
      </trkpt>
      <trkpt lat="46.31701" lon="-0.66119">
        <ele>2</ele>
        <time>2012-05-11T11:21:32Z</time>
      </trkpt>
      <trkpt lat="46.31704" lon="-0.66128">
        <ele>2</ele>
        <time>2012-05-11T11:21:37Z</time>
      </trkpt>
      <trkpt lat="46.31706" lon="-0.66136">
        <ele>2</ele>
        <time>2012-05-11T11:21:42Z</time>
      </trkpt>
      <trkpt lat="46.31709" lon="-0.66142">
        <ele>4</ele>
        <time>2012-05-11T11:21:47Z</time>
      </trkpt>
      <trkpt lat="46.31711" lon="-0.66145">
        <ele>4</ele>
        <time>2012-05-11T11:21:52Z</time>
      </trkpt>
      <trkpt lat="46.31713" lon="-0.66153">
        <ele>2</ele>
        <time>2012-05-11T11:21:57Z</time>
      </trkpt>
      <trkpt lat="46.31716" lon="-0.66162">
        <ele>2</ele>
        <time>2012-05-11T11:22:02Z</time>
      </trkpt>
      <trkpt lat="46.31717" lon="-0.6617">
        <ele>2</ele>
        <time>2012-05-11T11:22:07Z</time>
      </trkpt>
      <trkpt lat="46.31718" lon="-0.6618">
        <ele>2</ele>
        <time>2012-05-11T11:22:12Z</time>
      </trkpt>
      <trkpt lat="46.31719" lon="-0.66189">
        <ele>1</ele>
        <time>2012-05-11T11:22:17Z</time>
      </trkpt>
      <trkpt lat="46.3172" lon="-0.66197">
        <ele>1</ele>
        <time>2012-05-11T11:22:22Z</time>
      </trkpt>
      <trkpt lat="46.31721" lon="-0.66204">
        <ele>1</ele>
        <time>2012-05-11T11:22:27Z</time>
      </trkpt>
      <trkpt lat="46.31722" lon="-0.66212">
        <ele>3</ele>
        <time>2012-05-11T11:22:32Z</time>
      </trkpt>
      <trkpt lat="46.31723" lon="-0.66219">
        <ele>3</ele>
        <time>2012-05-11T11:22:37Z</time>
      </trkpt>
      <trkpt lat="46.31724" lon="-0.66227">
        <ele>3</ele>
        <time>2012-05-11T11:22:42Z</time>
      </trkpt>
      <trkpt lat="46.31724" lon="-0.66234">
        <ele>3</ele>
        <time>2012-05-11T11:22:47Z</time>
      </trkpt>
      <trkpt lat="46.31724" lon="-0.66245">
        <ele>1</ele>
        <time>2012-05-11T11:22:52Z</time>
      </trkpt>
      <trkpt lat="46.31724" lon="-0.66254">
        <ele>1</ele>
        <time>2012-05-11T11:22:57Z</time>
      </trkpt>
      <trkpt lat="46.31724" lon="-0.6626">
        <ele>1</ele>
        <time>2012-05-11T11:23:02Z</time>
      </trkpt>
      <trkpt lat="46.31724" lon="-0.6627">
        <ele>2</ele>
        <time>2012-05-11T11:23:07Z</time>
      </trkpt>
      <trkpt lat="46.31725" lon="-0.66278">
        <ele>2</ele>
        <time>2012-05-11T11:23:12Z</time>
      </trkpt>
      <trkpt lat="46.31727" lon="-0.66284">
        <ele>2</ele>
        <time>2012-05-11T11:23:17Z</time>
      </trkpt>
      <trkpt lat="46.31728" lon="-0.66291">
        <ele>2</ele>
        <time>2012-05-11T11:23:22Z</time>
      </trkpt>
      <trkpt lat="46.3173" lon="-0.66298">
        <ele>2</ele>
        <time>2012-05-11T11:23:27Z</time>
      </trkpt>
      <trkpt lat="46.3173" lon="-0.66305">
        <ele>2</ele>
        <time>2012-05-11T11:23:32Z</time>
      </trkpt>
      <trkpt lat="46.31731" lon="-0.66313">
        <ele>2</ele>
        <time>2012-05-11T11:23:37Z</time>
      </trkpt>
      <trkpt lat="46.31731" lon="-0.66321">
        <ele>4</ele>
        <time>2012-05-11T11:23:42Z</time>
      </trkpt>
      <trkpt lat="46.3173" lon="-0.66332">
        <ele>4</ele>
        <time>2012-05-11T11:23:47Z</time>
      </trkpt>
      <trkpt lat="46.31729" lon="-0.6634">
        <ele>4</ele>
        <time>2012-05-11T11:23:52Z</time>
      </trkpt>
      <trkpt lat="46.31729" lon="-0.66347">
        <ele>4</ele>
        <time>2012-05-11T11:23:57Z</time>
      </trkpt>
      <trkpt lat="46.31727" lon="-0.66357">
        <ele>4</ele>
        <time>2012-05-11T11:24:02Z</time>
      </trkpt>
      <trkpt lat="46.31727" lon="-0.66364">
        <ele>4</ele>
        <time>2012-05-11T11:24:07Z</time>
      </trkpt>
      <trkpt lat="46.31725" lon="-0.66371">
        <ele>4</ele>
        <time>2012-05-11T11:24:12Z</time>
      </trkpt>
      <trkpt lat="46.31724" lon="-0.66378">
        <ele>5</ele>
        <time>2012-05-11T11:24:17Z</time>
      </trkpt>
      <trkpt lat="46.31724" lon="-0.66384">
        <ele>5</ele>
        <time>2012-05-11T11:24:22Z</time>
      </trkpt>
      <trkpt lat="46.31723" lon="-0.66392">
        <ele>5</ele>
        <time>2012-05-11T11:24:27Z</time>
      </trkpt>
      <trkpt lat="46.31723" lon="-0.66399">
        <ele>5</ele>
        <time>2012-05-11T11:24:32Z</time>
      </trkpt>
      <trkpt lat="46.31721" lon="-0.66407">
        <ele>5</ele>
        <time>2012-05-11T11:24:37Z</time>
      </trkpt>
      <trkpt lat="46.31719" lon="-0.66415">
        <ele>5</ele>
        <time>2012-05-11T11:24:42Z</time>
      </trkpt>
      <trkpt lat="46.31718" lon="-0.66423">
        <ele>5</ele>
        <time>2012-05-11T11:24:47Z</time>
      </trkpt>
      <trkpt lat="46.31717" lon="-0.66431">
        <ele>4</ele>
        <time>2012-05-11T11:24:52Z</time>
      </trkpt>
      <trkpt lat="46.31716" lon="-0.66438">
        <ele>4</ele>
        <time>2012-05-11T11:24:57Z</time>
      </trkpt>
      <trkpt lat="46.31714" lon="-0.66446">
        <ele>4</ele>
        <time>2012-05-11T11:25:02Z</time>
      </trkpt>
      <trkpt lat="46.31712" lon="-0.66455">
        <ele>4</ele>
        <time>2012-05-11T11:25:07Z</time>
      </trkpt>
      <trkpt lat="46.3171" lon="-0.66465">
        <ele>3</ele>
        <time>2012-05-11T11:25:12Z</time>
      </trkpt>
      <trkpt lat="46.31709" lon="-0.66472">
        <ele>3</ele>
        <time>2012-05-11T11:25:17Z</time>
      </trkpt>
      <trkpt lat="46.31708" lon="-0.66482">
        <ele>3</ele>
        <time>2012-05-11T11:25:22Z</time>
      </trkpt>
      <trkpt lat="46.31707" lon="-0.66491">
        <ele>3</ele>
        <time>2012-05-11T11:25:27Z</time>
      </trkpt>
      <trkpt lat="46.31707" lon="-0.66499">
        <ele>3</ele>
        <time>2012-05-11T11:25:32Z</time>
      </trkpt>
      <trkpt lat="46.31707" lon="-0.66506">
        <ele>3</ele>
        <time>2012-05-11T11:25:37Z</time>
      </trkpt>
      <trkpt lat="46.31706" lon="-0.66514">
        <ele>3</ele>
        <time>2012-05-11T11:25:42Z</time>
      </trkpt>
      <trkpt lat="46.31705" lon="-0.66524">
        <ele>3</ele>
        <time>2012-05-11T11:25:47Z</time>
      </trkpt>
      <trkpt lat="46.31704" lon="-0.66532">
        <ele>3</ele>
        <time>2012-05-11T11:25:52Z</time>
      </trkpt>
      <trkpt lat="46.31702" lon="-0.66542">
        <ele>3</ele>
        <time>2012-05-11T11:25:57Z</time>
      </trkpt>
      <trkpt lat="46.31702" lon="-0.66549">
        <ele>3</ele>
        <time>2012-05-11T11:26:02Z</time>
      </trkpt>
      <trkpt lat="46.31702" lon="-0.66557">
        <ele>3</ele>
        <time>2012-05-11T11:26:07Z</time>
      </trkpt>
      <trkpt lat="46.31701" lon="-0.66565">
        <ele>3</ele>
        <time>2012-05-11T11:26:12Z</time>
      </trkpt>
      <trkpt lat="46.31701" lon="-0.66571">
        <ele>3</ele>
        <time>2012-05-11T11:26:17Z</time>
      </trkpt>
      <trkpt lat="46.317" lon="-0.6658">
        <ele>3</ele>
        <time>2012-05-11T11:26:22Z</time>
      </trkpt>
      <trkpt lat="46.31699" lon="-0.66589">
        <ele>3</ele>
        <time>2012-05-11T11:26:27Z</time>
      </trkpt>
      <trkpt lat="46.31699" lon="-0.66595">
        <ele>3</ele>
        <time>2012-05-11T11:26:32Z</time>
      </trkpt>
      <trkpt lat="46.31698" lon="-0.66604">
        <ele>4</ele>
        <time>2012-05-11T11:26:37Z</time>
      </trkpt>
      <trkpt lat="46.31697" lon="-0.66612">
        <ele>4</ele>
        <time>2012-05-11T11:26:42Z</time>
      </trkpt>
      <trkpt lat="46.31696" lon="-0.6662">
        <ele>4</ele>
        <time>2012-05-11T11:26:47Z</time>
      </trkpt>
      <trkpt lat="46.31696" lon="-0.66627">
        <ele>4</ele>
        <time>2012-05-11T11:26:52Z</time>
      </trkpt>
      <trkpt lat="46.31695" lon="-0.66635">
        <ele>4</ele>
        <time>2012-05-11T11:26:57Z</time>
      </trkpt>
      <trkpt lat="46.31694" lon="-0.66644">
        <ele>4</ele>
        <time>2012-05-11T11:27:02Z</time>
      </trkpt>
      <trkpt lat="46.31694" lon="-0.66653">
        <ele>4</ele>
        <time>2012-05-11T11:27:07Z</time>
      </trkpt>
      <trkpt lat="46.31694" lon="-0.66663">
        <ele>4</ele>
        <time>2012-05-11T11:27:12Z</time>
      </trkpt>
      <trkpt lat="46.31693" lon="-0.66671">
        <ele>4</ele>
        <time>2012-05-11T11:27:17Z</time>
      </trkpt>
      <trkpt lat="46.31693" lon="-0.66678">
        <ele>4</ele>
        <time>2012-05-11T11:27:22Z</time>
      </trkpt>
      <trkpt lat="46.31692" lon="-0.66686">
        <ele>4</ele>
        <time>2012-05-11T11:27:27Z</time>
      </trkpt>
      <trkpt lat="46.31691" lon="-0.66693">
        <ele>4</ele>
        <time>2012-05-11T11:27:32Z</time>
      </trkpt>
      <trkpt lat="46.31692" lon="-0.66702">
        <ele>4</ele>
        <time>2012-05-11T11:27:37Z</time>
      </trkpt>
      <trkpt lat="46.31694" lon="-0.66708">
        <ele>4</ele>
        <time>2012-05-11T11:27:42Z</time>
      </trkpt>
      <trkpt lat="46.31698" lon="-0.66714">
        <ele>5</ele>
        <time>2012-05-11T11:27:47Z</time>
      </trkpt>
      <trkpt lat="46.31702" lon="-0.66711">
        <ele>5</ele>
        <time>2012-05-11T11:27:52Z</time>
      </trkpt>
      <trkpt lat="46.31707" lon="-0.66712">
        <ele>5</ele>
        <time>2012-05-11T11:27:57Z</time>
      </trkpt>
      <trkpt lat="46.31712" lon="-0.66713">
        <ele>5</ele>
        <time>2012-05-11T11:28:02Z</time>
      </trkpt>
      <trkpt lat="46.31718" lon="-0.66715">
        <ele>5</ele>
        <time>2012-05-11T11:28:07Z</time>
      </trkpt>
      <trkpt lat="46.31724" lon="-0.66717">
        <ele>5</ele>
        <time>2012-05-11T11:28:12Z</time>
      </trkpt>
      <trkpt lat="46.31729" lon="-0.66717">
        <ele>5</ele>
        <time>2012-05-11T11:28:17Z</time>
      </trkpt>
      <trkpt lat="46.31735" lon="-0.66717">
        <ele>5</ele>
        <time>2012-05-11T11:28:22Z</time>
      </trkpt>
      <trkpt lat="46.3174" lon="-0.66716">
        <ele>4</ele>
        <time>2012-05-11T11:28:27Z</time>
      </trkpt>
      <trkpt lat="46.31745" lon="-0.66715">
        <ele>4</ele>
        <time>2012-05-11T11:28:32Z</time>
      </trkpt>
      <trkpt lat="46.3175" lon="-0.66715">
        <ele>4</ele>
        <time>2012-05-11T11:28:37Z</time>
      </trkpt>
      <trkpt lat="46.31754" lon="-0.66716">
        <ele>4</ele>
        <time>2012-05-11T11:28:42Z</time>
      </trkpt>
      <trkpt lat="46.31758" lon="-0.66719">
        <ele>4</ele>
        <time>2012-05-11T11:28:47Z</time>
      </trkpt>
      <trkpt lat="46.31763" lon="-0.6672">
        <ele>4</ele>
        <time>2012-05-11T11:28:52Z</time>
      </trkpt>
      <trkpt lat="46.3177" lon="-0.6672">
        <ele>5</ele>
        <time>2012-05-11T11:28:57Z</time>
      </trkpt>
      <trkpt lat="46.31777" lon="-0.66719">
        <ele>5</ele>
        <time>2012-05-11T11:29:02Z</time>
      </trkpt>
      <trkpt lat="46.31783" lon="-0.6672">
        <ele>5</ele>
        <time>2012-05-11T11:29:07Z</time>
      </trkpt>
      <trkpt lat="46.31789" lon="-0.6672">
        <ele>5</ele>
        <time>2012-05-11T11:29:12Z</time>
      </trkpt>
      <trkpt lat="46.31794" lon="-0.66719">
        <ele>5</ele>
        <time>2012-05-11T11:29:17Z</time>
      </trkpt>
      <trkpt lat="46.31801" lon="-0.66721">
        <ele>5</ele>
        <time>2012-05-11T11:29:22Z</time>
      </trkpt>
      <trkpt lat="46.31805" lon="-0.66724">
        <ele>5</ele>
        <time>2012-05-11T11:29:27Z</time>
      </trkpt>
      <trkpt lat="46.31809" lon="-0.66725">
        <ele>5</ele>
        <time>2012-05-11T11:29:32Z</time>
      </trkpt>
      <trkpt lat="46.31815" lon="-0.66727">
        <ele>5</ele>
        <time>2012-05-11T11:29:37Z</time>
      </trkpt>
      <trkpt lat="46.3182" lon="-0.66731">
        <ele>6</ele>
        <time>2012-05-11T11:29:42Z</time>
      </trkpt>
      <trkpt lat="46.31826" lon="-0.66736">
        <ele>6</ele>
        <time>2012-05-11T11:29:47Z</time>
      </trkpt>
      <trkpt lat="46.31828" lon="-0.66741">
        <ele>5</ele>
        <time>2012-05-11T11:29:52Z</time>
      </trkpt>
      <trkpt lat="46.31834" lon="-0.66748">
        <ele>5</ele>
        <time>2012-05-11T11:29:57Z</time>
      </trkpt>
      <trkpt lat="46.31839" lon="-0.66752">
        <ele>5</ele>
        <time>2012-05-11T11:30:02Z</time>
      </trkpt>
      <trkpt lat="46.31839" lon="-0.66754">
        <ele>5</ele>
        <time>2012-05-11T11:30:07Z</time>
      </trkpt>
      <trkpt lat="46.3184" lon="-0.66753">
        <ele>5</ele>
        <time>2012-05-11T11:30:12Z</time>
      </trkpt>
      <trkpt lat="46.3184" lon="-0.66754">
        <ele>5</ele>
        <time>2012-05-11T11:30:17Z</time>
      </trkpt>
      <trkpt lat="46.3184" lon="-0.66754">
        <ele>5</ele>
        <time>2012-05-11T11:30:22Z</time>
      </trkpt>
      <trkpt lat="46.31842" lon="-0.66756">
        <ele>5</ele>
        <time>2012-05-11T11:30:37Z</time>
      </trkpt>
      <trkpt lat="46.31846" lon="-0.66757">
        <ele>5</ele>
        <time>2012-05-11T11:30:42Z</time>
      </trkpt>
      <trkpt lat="46.31851" lon="-0.6676">
        <ele>6</ele>
        <time>2012-05-11T11:30:47Z</time>
      </trkpt>
      <trkpt lat="46.31856" lon="-0.66763">
        <ele>6</ele>
        <time>2012-05-11T11:30:52Z</time>
      </trkpt>
      <trkpt lat="46.31858" lon="-0.66768">
        <ele>5</ele>
        <time>2012-05-11T11:30:57Z</time>
      </trkpt>
      <trkpt lat="46.31862" lon="-0.66773">
        <ele>5</ele>
        <time>2012-05-11T11:31:02Z</time>
      </trkpt>
      <trkpt lat="46.31867" lon="-0.66775">
        <ele>5</ele>
        <time>2012-05-11T11:31:07Z</time>
      </trkpt>
      <trkpt lat="46.31871" lon="-0.66777">
        <ele>5</ele>
        <time>2012-05-11T11:31:12Z</time>
      </trkpt>
      <trkpt lat="46.31876" lon="-0.66783">
        <ele>5</ele>
        <time>2012-05-11T11:31:17Z</time>
      </trkpt>
      <trkpt lat="46.31881" lon="-0.66786">
        <ele>5</ele>
        <time>2012-05-11T11:31:22Z</time>
      </trkpt>
      <trkpt lat="46.31885" lon="-0.6679">
        <ele>5</ele>
        <time>2012-05-11T11:31:27Z</time>
      </trkpt>
      <trkpt lat="46.31889" lon="-0.66795">
        <ele>5</ele>
        <time>2012-05-11T11:31:32Z</time>
      </trkpt>
      <trkpt lat="46.31893" lon="-0.66797">
        <ele>5</ele>
        <time>2012-05-11T11:31:37Z</time>
      </trkpt>
      <trkpt lat="46.31898" lon="-0.668">
        <ele>5</ele>
        <time>2012-05-11T11:31:42Z</time>
      </trkpt>
      <trkpt lat="46.31899" lon="-0.66804">
        <ele>5</ele>
        <time>2012-05-11T11:31:47Z</time>
      </trkpt>
      <trkpt lat="46.31904" lon="-0.66807">
        <ele>5</ele>
        <time>2012-05-11T11:31:52Z</time>
      </trkpt>
      <trkpt lat="46.31907" lon="-0.6681">
        <ele>5</ele>
        <time>2012-05-11T11:31:57Z</time>
      </trkpt>
      <trkpt lat="46.31912" lon="-0.66817">
        <ele>5</ele>
        <time>2012-05-11T11:32:02Z</time>
      </trkpt>
      <trkpt lat="46.31915" lon="-0.66821">
        <ele>4</ele>
        <time>2012-05-11T11:32:07Z</time>
      </trkpt>
      <trkpt lat="46.3192" lon="-0.66822">
        <ele>4</ele>
        <time>2012-05-11T11:32:12Z</time>
      </trkpt>
      <trkpt lat="46.31924" lon="-0.66828">
        <ele>4</ele>
        <time>2012-05-11T11:32:17Z</time>
      </trkpt>
      <trkpt lat="46.31929" lon="-0.66836">
        <ele>4</ele>
        <time>2012-05-11T11:32:22Z</time>
      </trkpt>
      <trkpt lat="46.3193" lon="-0.66843">
        <ele>4</ele>
        <time>2012-05-11T11:32:27Z</time>
      </trkpt>
      <trkpt lat="46.31934" lon="-0.66851">
        <ele>2</ele>
        <time>2012-05-11T11:32:32Z</time>
      </trkpt>
      <trkpt lat="46.31936" lon="-0.66857">
        <ele>2</ele>
        <time>2012-05-11T11:32:37Z</time>
      </trkpt>
      <trkpt lat="46.31937" lon="-0.66862">
        <ele>2</ele>
        <time>2012-05-11T11:32:42Z</time>
      </trkpt>
      <trkpt lat="46.31938" lon="-0.66868">
        <ele>2</ele>
        <time>2012-05-11T11:32:47Z</time>
      </trkpt>
      <trkpt lat="46.31939" lon="-0.66873">
        <ele>2</ele>
        <time>2012-05-11T11:32:52Z</time>
      </trkpt>
      <trkpt lat="46.31941" lon="-0.66881">
        <ele>2</ele>
        <time>2012-05-11T11:32:57Z</time>
      </trkpt>
      <trkpt lat="46.31942" lon="-0.66887">
        <ele>2</ele>
        <time>2012-05-11T11:33:02Z</time>
      </trkpt>
      <trkpt lat="46.31945" lon="-0.66892">
        <ele>2</ele>
        <time>2012-05-11T11:33:07Z</time>
      </trkpt>
      <trkpt lat="46.31948" lon="-0.66894">
        <ele>2</ele>
        <time>2012-05-11T11:33:12Z</time>
      </trkpt>
      <trkpt lat="46.31954" lon="-0.66898">
        <ele>2</ele>
        <time>2012-05-11T11:33:17Z</time>
      </trkpt>
      <trkpt lat="46.31959" lon="-0.66897">
        <ele>1</ele>
        <time>2012-05-11T11:33:22Z</time>
      </trkpt>
      <trkpt lat="46.31966" lon="-0.66898">
        <ele>1</ele>
        <time>2012-05-11T11:33:27Z</time>
      </trkpt>
      <trkpt lat="46.31972" lon="-0.669">
        <ele>1</ele>
        <time>2012-05-11T11:33:32Z</time>
      </trkpt>
      <trkpt lat="46.31979" lon="-0.66899">
        <ele>1</ele>
        <time>2012-05-11T11:33:37Z</time>
      </trkpt>
      <trkpt lat="46.31984" lon="-0.66901">
        <ele>1</ele>
        <time>2012-05-11T11:33:42Z</time>
      </trkpt>
      <trkpt lat="46.31988" lon="-0.66902">
        <ele>2</ele>
        <time>2012-05-11T11:33:47Z</time>
      </trkpt>
      <trkpt lat="46.31994" lon="-0.66902">
        <ele>2</ele>
        <time>2012-05-11T11:33:52Z</time>
      </trkpt>
      <trkpt lat="46.31998" lon="-0.66902">
        <ele>2</ele>
        <time>2012-05-11T11:33:57Z</time>
      </trkpt>
      <trkpt lat="46.32006" lon="-0.66904">
        <ele>2</ele>
        <time>2012-05-11T11:34:02Z</time>
      </trkpt>
      <trkpt lat="46.32012" lon="-0.66906">
        <ele>2</ele>
        <time>2012-05-11T11:34:07Z</time>
      </trkpt>
      <trkpt lat="46.32018" lon="-0.66905">
        <ele>4</ele>
        <time>2012-05-11T11:34:12Z</time>
      </trkpt>
      <trkpt lat="46.32025" lon="-0.66904">
        <ele>4</ele>
        <time>2012-05-11T11:34:17Z</time>
      </trkpt>
      <trkpt lat="46.32031" lon="-0.66905">
        <ele>4</ele>
        <time>2012-05-11T11:34:22Z</time>
      </trkpt>
      <trkpt lat="46.32038" lon="-0.66905">
        <ele>4</ele>
        <time>2012-05-11T11:34:27Z</time>
      </trkpt>
      <trkpt lat="46.32042" lon="-0.66906">
        <ele>5</ele>
        <time>2012-05-11T11:34:32Z</time>
      </trkpt>
      <trkpt lat="46.32048" lon="-0.66907">
        <ele>5</ele>
        <time>2012-05-11T11:34:37Z</time>
      </trkpt>
      <trkpt lat="46.32053" lon="-0.66909">
        <ele>5</ele>
        <time>2012-05-11T11:34:42Z</time>
      </trkpt>
      <trkpt lat="46.3206" lon="-0.66909">
        <ele>5</ele>
        <time>2012-05-11T11:34:47Z</time>
      </trkpt>
      <trkpt lat="46.32067" lon="-0.66908">
        <ele>5</ele>
        <time>2012-05-11T11:34:52Z</time>
      </trkpt>
      <trkpt lat="46.32073" lon="-0.66909">
        <ele>6</ele>
        <time>2012-05-11T11:34:57Z</time>
      </trkpt>
      <trkpt lat="46.32076" lon="-0.66914">
        <ele>6</ele>
        <time>2012-05-11T11:35:02Z</time>
      </trkpt>
      <trkpt lat="46.3208" lon="-0.66916">
        <ele>6</ele>
        <time>2012-05-11T11:35:07Z</time>
      </trkpt>
      <trkpt lat="46.32084" lon="-0.66925">
        <ele>6</ele>
        <time>2012-05-11T11:35:12Z</time>
      </trkpt>
      <trkpt lat="46.32089" lon="-0.66927">
        <ele>6</ele>
        <time>2012-05-11T11:35:17Z</time>
      </trkpt>
      <trkpt lat="46.32093" lon="-0.66929">
        <ele>6</ele>
        <time>2012-05-11T11:35:22Z</time>
      </trkpt>
      <trkpt lat="46.32097" lon="-0.66935">
        <ele>5</ele>
        <time>2012-05-11T11:35:27Z</time>
      </trkpt>
      <trkpt lat="46.32101" lon="-0.66936">
        <ele>6</ele>
        <time>2012-05-11T11:35:32Z</time>
      </trkpt>
      <trkpt lat="46.32102" lon="-0.66936">
        <ele>6</ele>
        <time>2012-05-11T11:35:37Z</time>
      </trkpt>
      <trkpt lat="46.32103" lon="-0.66935">
        <ele>6</ele>
        <time>2012-05-11T11:35:42Z</time>
      </trkpt>
      <trkpt lat="46.32103" lon="-0.66936">
        <ele>6</ele>
        <time>2012-05-11T11:35:47Z</time>
      </trkpt>
      <trkpt lat="46.32108" lon="-0.66942">
        <ele>6</ele>
        <time>2012-05-11T11:35:57Z</time>
      </trkpt>
      <trkpt lat="46.32114" lon="-0.66947">
        <ele>6</ele>
        <time>2012-05-11T11:36:02Z</time>
      </trkpt>
      <trkpt lat="46.32119" lon="-0.66953">
        <ele>6</ele>
        <time>2012-05-11T11:36:07Z</time>
      </trkpt>
      <trkpt lat="46.32123" lon="-0.66957">
        <ele>6</ele>
        <time>2012-05-11T11:36:12Z</time>
      </trkpt>
      <trkpt lat="46.32129" lon="-0.66961">
        <ele>4</ele>
        <time>2012-05-11T11:36:17Z</time>
      </trkpt>
      <trkpt lat="46.32132" lon="-0.66963">
        <ele>4</ele>
        <time>2012-05-11T11:36:22Z</time>
      </trkpt>
      <trkpt lat="46.32135" lon="-0.66961">
        <ele>4</ele>
        <time>2012-05-11T11:36:27Z</time>
      </trkpt>
      <trkpt lat="46.32142" lon="-0.66964">
        <ele>4</ele>
        <time>2012-05-11T11:36:32Z</time>
      </trkpt>
      <trkpt lat="46.32147" lon="-0.66973">
        <ele>4</ele>
        <time>2012-05-11T11:36:37Z</time>
      </trkpt>
      <trkpt lat="46.32149" lon="-0.6698">
        <ele>4</ele>
        <time>2012-05-11T11:36:42Z</time>
      </trkpt>
      <trkpt lat="46.32154" lon="-0.66982">
        <ele>5</ele>
        <time>2012-05-11T11:36:47Z</time>
      </trkpt>
      <trkpt lat="46.3216" lon="-0.66987">
        <ele>5</ele>
        <time>2012-05-11T11:36:52Z</time>
      </trkpt>
      <trkpt lat="46.32164" lon="-0.66991">
        <ele>5</ele>
        <time>2012-05-11T11:36:57Z</time>
      </trkpt>
      <trkpt lat="46.32169" lon="-0.66994">
        <ele>5</ele>
        <time>2012-05-11T11:37:02Z</time>
      </trkpt>
      <trkpt lat="46.32173" lon="-0.67">
        <ele>5</ele>
        <time>2012-05-11T11:37:07Z</time>
      </trkpt>
      <trkpt lat="46.32178" lon="-0.67003">
        <ele>5</ele>
        <time>2012-05-11T11:37:12Z</time>
      </trkpt>
      <trkpt lat="46.32184" lon="-0.67007">
        <ele>5</ele>
        <time>2012-05-11T11:37:17Z</time>
      </trkpt>
      <trkpt lat="46.32188" lon="-0.67011">
        <ele>5</ele>
        <time>2012-05-11T11:37:22Z</time>
      </trkpt>
      <trkpt lat="46.32194" lon="-0.67013">
        <ele>5</ele>
        <time>2012-05-11T11:37:27Z</time>
      </trkpt>
      <trkpt lat="46.322" lon="-0.67017">
        <ele>5</ele>
        <time>2012-05-11T11:37:32Z</time>
      </trkpt>
      <trkpt lat="46.32204" lon="-0.67021">
        <ele>5</ele>
        <time>2012-05-11T11:37:37Z</time>
      </trkpt>
      <trkpt lat="46.32209" lon="-0.67024">
        <ele>5</ele>
        <time>2012-05-11T11:37:42Z</time>
      </trkpt>
      <trkpt lat="46.32214" lon="-0.67025">
        <ele>5</ele>
        <time>2012-05-11T11:37:47Z</time>
      </trkpt>
      <trkpt lat="46.32217" lon="-0.67029">
        <ele>5</ele>
        <time>2012-05-11T11:37:52Z</time>
      </trkpt>
      <trkpt lat="46.32223" lon="-0.67033">
        <ele>5</ele>
        <time>2012-05-11T11:37:57Z</time>
      </trkpt>
      <trkpt lat="46.32227" lon="-0.67038">
        <ele>5</ele>
        <time>2012-05-11T11:38:02Z</time>
      </trkpt>
      <trkpt lat="46.32232" lon="-0.67042">
        <ele>5</ele>
        <time>2012-05-11T11:38:07Z</time>
      </trkpt>
      <trkpt lat="46.32238" lon="-0.67044">
        <ele>4</ele>
        <time>2012-05-11T11:38:12Z</time>
      </trkpt>
      <trkpt lat="46.32242" lon="-0.6705">
        <ele>4</ele>
        <time>2012-05-11T11:38:17Z</time>
      </trkpt>
      <trkpt lat="46.32248" lon="-0.67053">
        <ele>4</ele>
        <time>2012-05-11T11:38:22Z</time>
      </trkpt>
      <trkpt lat="46.32252" lon="-0.67057">
        <ele>4</ele>
        <time>2012-05-11T11:38:27Z</time>
      </trkpt>
      <trkpt lat="46.32259" lon="-0.67063">
        <ele>4</ele>
        <time>2012-05-11T11:38:32Z</time>
      </trkpt>
      <trkpt lat="46.32267" lon="-0.67064">
        <ele>4</ele>
        <time>2012-05-11T11:38:37Z</time>
      </trkpt>
      <trkpt lat="46.32269" lon="-0.6707">
        <ele>5</ele>
        <time>2012-05-11T11:38:42Z</time>
      </trkpt>
      <trkpt lat="46.32273" lon="-0.67073">
        <ele>5</ele>
        <time>2012-05-11T11:38:47Z</time>
      </trkpt>
      <trkpt lat="46.3228" lon="-0.67081">
        <ele>5</ele>
        <time>2012-05-11T11:38:52Z</time>
      </trkpt>
      <trkpt lat="46.32287" lon="-0.67085">
        <ele>5</ele>
        <time>2012-05-11T11:38:57Z</time>
      </trkpt>
      <trkpt lat="46.32292" lon="-0.67089">
        <ele>5</ele>
        <time>2012-05-11T11:39:02Z</time>
      </trkpt>
      <trkpt lat="46.32299" lon="-0.67093">
        <ele>5</ele>
        <time>2012-05-11T11:39:07Z</time>
      </trkpt>
      <trkpt lat="46.32304" lon="-0.67097">
        <ele>5</ele>
        <time>2012-05-11T11:39:12Z</time>
      </trkpt>
      <trkpt lat="46.3231" lon="-0.67104">
        <ele>5</ele>
        <time>2012-05-11T11:39:17Z</time>
      </trkpt>
      <trkpt lat="46.32317" lon="-0.67108">
        <ele>5</ele>
        <time>2012-05-11T11:39:22Z</time>
      </trkpt>
      <trkpt lat="46.32322" lon="-0.6711">
        <ele>5</ele>
        <time>2012-05-11T11:39:27Z</time>
      </trkpt>
      <trkpt lat="46.32326" lon="-0.67115">
        <ele>5</ele>
        <time>2012-05-11T11:39:32Z</time>
      </trkpt>
      <trkpt lat="46.32332" lon="-0.67119">
        <ele>5</ele>
        <time>2012-05-11T11:39:37Z</time>
      </trkpt>
      <trkpt lat="46.32338" lon="-0.67122">
        <ele>5</ele>
        <time>2012-05-11T11:39:42Z</time>
      </trkpt>
      <trkpt lat="46.32342" lon="-0.67125">
        <ele>5</ele>
        <time>2012-05-11T11:39:47Z</time>
      </trkpt>
      <trkpt lat="46.32349" lon="-0.67129">
        <ele>5</ele>
        <time>2012-05-11T11:39:52Z</time>
      </trkpt>
      <trkpt lat="46.32355" lon="-0.67132">
        <ele>5</ele>
        <time>2012-05-11T11:39:57Z</time>
      </trkpt>
      <trkpt lat="46.32361" lon="-0.67135">
        <ele>5</ele>
        <time>2012-05-11T11:40:02Z</time>
      </trkpt>
      <trkpt lat="46.32365" lon="-0.6714">
        <ele>5</ele>
        <time>2012-05-11T11:40:07Z</time>
      </trkpt>
      <trkpt lat="46.3237" lon="-0.67144">
        <ele>5</ele>
        <time>2012-05-11T11:40:12Z</time>
      </trkpt>
      <trkpt lat="46.32376" lon="-0.67148">
        <ele>7</ele>
        <time>2012-05-11T11:40:17Z</time>
      </trkpt>
      <trkpt lat="46.32379" lon="-0.67153">
        <ele>7</ele>
        <time>2012-05-11T11:40:22Z</time>
      </trkpt>
      <trkpt lat="46.32384" lon="-0.67156">
        <ele>7</ele>
        <time>2012-05-11T11:40:27Z</time>
      </trkpt>
      <trkpt lat="46.32388" lon="-0.67153">
        <ele>7</ele>
        <time>2012-05-11T11:40:32Z</time>
      </trkpt>
      <trkpt lat="46.32395" lon="-0.67158">
        <ele>7</ele>
        <time>2012-05-11T11:40:37Z</time>
      </trkpt>
      <trkpt lat="46.32399" lon="-0.67161">
        <ele>7</ele>
        <time>2012-05-11T11:40:42Z</time>
      </trkpt>
      <trkpt lat="46.32407" lon="-0.67165">
        <ele>6</ele>
        <time>2012-05-11T11:40:47Z</time>
      </trkpt>
      <trkpt lat="46.32412" lon="-0.67169">
        <ele>6</ele>
        <time>2012-05-11T11:40:52Z</time>
      </trkpt>
      <trkpt lat="46.32419" lon="-0.67175">
        <ele>6</ele>
        <time>2012-05-11T11:40:57Z</time>
      </trkpt>
      <trkpt lat="46.32424" lon="-0.67176">
        <ele>6</ele>
        <time>2012-05-11T11:41:02Z</time>
      </trkpt>
      <trkpt lat="46.32428" lon="-0.67181">
        <ele>5</ele>
        <time>2012-05-11T11:41:07Z</time>
      </trkpt>
      <trkpt lat="46.32435" lon="-0.67183">
        <ele>4</ele>
        <time>2012-05-11T11:41:12Z</time>
      </trkpt>
      <trkpt lat="46.3244" lon="-0.67185">
        <ele>4</ele>
        <time>2012-05-11T11:41:17Z</time>
      </trkpt>
      <trkpt lat="46.32446" lon="-0.67189">
        <ele>4</ele>
        <time>2012-05-11T11:41:22Z</time>
      </trkpt>
      <trkpt lat="46.32452" lon="-0.67191">
        <ele>4</ele>
        <time>2012-05-11T11:41:27Z</time>
      </trkpt>
      <trkpt lat="46.32454" lon="-0.67196">
        <ele>4</ele>
        <time>2012-05-11T11:41:32Z</time>
      </trkpt>
      <trkpt lat="46.3246" lon="-0.67201">
        <ele>4</ele>
        <time>2012-05-11T11:41:37Z</time>
      </trkpt>
      <trkpt lat="46.32465" lon="-0.67203">
        <ele>4</ele>
        <time>2012-05-11T11:41:42Z</time>
      </trkpt>
      <trkpt lat="46.32469" lon="-0.67207">
        <ele>4</ele>
        <time>2012-05-11T11:41:47Z</time>
      </trkpt>
      <trkpt lat="46.32475" lon="-0.6721">
        <ele>4</ele>
        <time>2012-05-11T11:41:52Z</time>
      </trkpt>
      <trkpt lat="46.3248" lon="-0.67214">
        <ele>4</ele>
        <time>2012-05-11T11:41:57Z</time>
      </trkpt>
      <trkpt lat="46.32484" lon="-0.67217">
        <ele>4</ele>
        <time>2012-05-11T11:42:02Z</time>
      </trkpt>
      <trkpt lat="46.3249" lon="-0.67223">
        <ele>4</ele>
        <time>2012-05-11T11:42:07Z</time>
      </trkpt>
      <trkpt lat="46.32497" lon="-0.67227">
        <ele>4</ele>
        <time>2012-05-11T11:42:12Z</time>
      </trkpt>
      <trkpt lat="46.32502" lon="-0.67231">
        <ele>4</ele>
        <time>2012-05-11T11:42:17Z</time>
      </trkpt>
      <trkpt lat="46.32506" lon="-0.67234">
        <ele>4</ele>
        <time>2012-05-11T11:42:22Z</time>
      </trkpt>
      <trkpt lat="46.32511" lon="-0.67239">
        <ele>5</ele>
        <time>2012-05-11T11:42:27Z</time>
      </trkpt>
      <trkpt lat="46.32518" lon="-0.67244">
        <ele>4</ele>
        <time>2012-05-11T11:42:32Z</time>
      </trkpt>
      <trkpt lat="46.32523" lon="-0.67249">
        <ele>4</ele>
        <time>2012-05-11T11:42:37Z</time>
      </trkpt>
      <trkpt lat="46.32528" lon="-0.67252">
        <ele>4</ele>
        <time>2012-05-11T11:42:42Z</time>
      </trkpt>
      <trkpt lat="46.32534" lon="-0.67253">
        <ele>4</ele>
        <time>2012-05-11T11:42:47Z</time>
      </trkpt>
      <trkpt lat="46.3254" lon="-0.67256">
        <ele>4</ele>
        <time>2012-05-11T11:42:52Z</time>
      </trkpt>
      <trkpt lat="46.32546" lon="-0.67258">
        <ele>4</ele>
        <time>2012-05-11T11:42:57Z</time>
      </trkpt>
      <trkpt lat="46.32552" lon="-0.6726">
        <ele>4</ele>
        <time>2012-05-11T11:43:02Z</time>
      </trkpt>
      <trkpt lat="46.32557" lon="-0.67264">
        <ele>5</ele>
        <time>2012-05-11T11:43:07Z</time>
      </trkpt>
      <trkpt lat="46.32562" lon="-0.67267">
        <ele>5</ele>
        <time>2012-05-11T11:43:12Z</time>
      </trkpt>
      <trkpt lat="46.32567" lon="-0.67272">
        <ele>5</ele>
        <time>2012-05-11T11:43:17Z</time>
      </trkpt>
      <trkpt lat="46.32571" lon="-0.67279">
        <ele>5</ele>
        <time>2012-05-11T11:43:22Z</time>
      </trkpt>
      <trkpt lat="46.32577" lon="-0.67285">
        <ele>5</ele>
        <time>2012-05-11T11:43:27Z</time>
      </trkpt>
      <trkpt lat="46.32582" lon="-0.67291">
        <ele>5</ele>
        <time>2012-05-11T11:43:32Z</time>
      </trkpt>
      <trkpt lat="46.32587" lon="-0.67296">
        <ele>4</ele>
        <time>2012-05-11T11:43:37Z</time>
      </trkpt>
      <trkpt lat="46.32592" lon="-0.67301">
        <ele>4</ele>
        <time>2012-05-11T11:43:42Z</time>
      </trkpt>
      <trkpt lat="46.32598" lon="-0.67305">
        <ele>5</ele>
        <time>2012-05-11T11:43:47Z</time>
      </trkpt>
      <trkpt lat="46.32601" lon="-0.67309">
        <ele>5</ele>
        <time>2012-05-11T11:43:52Z</time>
      </trkpt>
      <trkpt lat="46.32605" lon="-0.67315">
        <ele>5</ele>
        <time>2012-05-11T11:43:57Z</time>
      </trkpt>
      <trkpt lat="46.3261" lon="-0.67319">
        <ele>5</ele>
        <time>2012-05-11T11:44:02Z</time>
      </trkpt>
      <trkpt lat="46.32615" lon="-0.67322">
        <ele>6</ele>
        <time>2012-05-11T11:44:07Z</time>
      </trkpt>
      <trkpt lat="46.32621" lon="-0.67323">
        <ele>6</ele>
        <time>2012-05-11T11:44:12Z</time>
      </trkpt>
      <trkpt lat="46.32625" lon="-0.67327">
        <ele>6</ele>
        <time>2012-05-11T11:44:17Z</time>
      </trkpt>
      <trkpt lat="46.3263" lon="-0.67331">
        <ele>6</ele>
        <time>2012-05-11T11:44:22Z</time>
      </trkpt>
      <trkpt lat="46.32636" lon="-0.67334">
        <ele>6</ele>
        <time>2012-05-11T11:44:27Z</time>
      </trkpt>
      <trkpt lat="46.32642" lon="-0.67335">
        <ele>6</ele>
        <time>2012-05-11T11:44:32Z</time>
      </trkpt>
      <trkpt lat="46.32645" lon="-0.67339">
        <ele>6</ele>
        <time>2012-05-11T11:44:37Z</time>
      </trkpt>
      <trkpt lat="46.32651" lon="-0.67343">
        <ele>6</ele>
        <time>2012-05-11T11:44:42Z</time>
      </trkpt>
      <trkpt lat="46.32657" lon="-0.67344">
        <ele>5</ele>
        <time>2012-05-11T11:44:47Z</time>
      </trkpt>
      <trkpt lat="46.32664" lon="-0.67348">
        <ele>5</ele>
        <time>2012-05-11T11:44:52Z</time>
      </trkpt>
      <trkpt lat="46.32668" lon="-0.67352">
        <ele>5</ele>
        <time>2012-05-11T11:44:57Z</time>
      </trkpt>
      <trkpt lat="46.32675" lon="-0.67357">
        <ele>5</ele>
        <time>2012-05-11T11:45:02Z</time>
      </trkpt>
      <trkpt lat="46.32681" lon="-0.67358">
        <ele>5</ele>
        <time>2012-05-11T11:45:07Z</time>
      </trkpt>
      <trkpt lat="46.32686" lon="-0.6736">
        <ele>5</ele>
        <time>2012-05-11T11:45:12Z</time>
      </trkpt>
      <trkpt lat="46.32691" lon="-0.67365">
        <ele>5</ele>
        <time>2012-05-11T11:45:17Z</time>
      </trkpt>
      <trkpt lat="46.32695" lon="-0.67369">
        <ele>5</ele>
        <time>2012-05-11T11:45:22Z</time>
      </trkpt>
      <trkpt lat="46.32699" lon="-0.67372">
        <ele>5</ele>
        <time>2012-05-11T11:45:27Z</time>
      </trkpt>
      <trkpt lat="46.32704" lon="-0.67377">
        <ele>4</ele>
        <time>2012-05-11T11:45:32Z</time>
      </trkpt>
      <trkpt lat="46.32709" lon="-0.67382">
        <ele>5</ele>
        <time>2012-05-11T11:45:37Z</time>
      </trkpt>
      <trkpt lat="46.32713" lon="-0.67384">
        <ele>5</ele>
        <time>2012-05-11T11:45:42Z</time>
      </trkpt>
      <trkpt lat="46.32715" lon="-0.67385">
        <ele>5</ele>
        <time>2012-05-11T11:45:47Z</time>
      </trkpt>
      <trkpt lat="46.32719" lon="-0.67388">
        <ele>5</ele>
        <time>2012-05-11T11:45:52Z</time>
      </trkpt>
      <trkpt lat="46.32726" lon="-0.67393">
        <ele>5</ele>
        <time>2012-05-11T11:45:57Z</time>
      </trkpt>
      <trkpt lat="46.32732" lon="-0.67399">
        <ele>5</ele>
        <time>2012-05-11T11:46:02Z</time>
      </trkpt>
      <trkpt lat="46.32736" lon="-0.674">
        <ele>5</ele>
        <time>2012-05-11T11:46:07Z</time>
      </trkpt>
      <trkpt lat="46.3274" lon="-0.67403">
        <ele>4</ele>
        <time>2012-05-11T11:46:12Z</time>
      </trkpt>
      <trkpt lat="46.32743" lon="-0.67403">
        <ele>4</ele>
        <time>2012-05-11T11:46:17Z</time>
      </trkpt>
      <trkpt lat="46.32749" lon="-0.67407">
        <ele>4</ele>
        <time>2012-05-11T11:46:27Z</time>
      </trkpt>
      <trkpt lat="46.32756" lon="-0.67411">
        <ele>4</ele>
        <time>2012-05-11T11:46:32Z</time>
      </trkpt>
      <trkpt lat="46.32761" lon="-0.67417">
        <ele>4</ele>
        <time>2012-05-11T11:46:37Z</time>
      </trkpt>
      <trkpt lat="46.32768" lon="-0.67421">
        <ele>5</ele>
        <time>2012-05-11T11:46:42Z</time>
      </trkpt>
      <trkpt lat="46.3277" lon="-0.67422">
        <ele>5</ele>
        <time>2012-05-11T11:46:47Z</time>
      </trkpt>
      <trkpt lat="46.32776" lon="-0.67428">
        <ele>5</ele>
        <time>2012-05-11T11:46:52Z</time>
      </trkpt>
      <trkpt lat="46.3278" lon="-0.67431">
        <ele>5</ele>
        <time>2012-05-11T11:46:57Z</time>
      </trkpt>
      <trkpt lat="46.32782" lon="-0.67434">
        <ele>5</ele>
        <time>2012-05-11T11:47:02Z</time>
      </trkpt>
      <trkpt lat="46.32788" lon="-0.67438">
        <ele>5</ele>
        <time>2012-05-11T11:47:07Z</time>
      </trkpt>
      <trkpt lat="46.32792" lon="-0.67442">
        <ele>6</ele>
        <time>2012-05-11T11:47:12Z</time>
      </trkpt>
      <trkpt lat="46.32797" lon="-0.67446">
        <ele>6</ele>
        <time>2012-05-11T11:47:17Z</time>
      </trkpt>
      <trkpt lat="46.32803" lon="-0.6745">
        <ele>6</ele>
        <time>2012-05-11T11:47:22Z</time>
      </trkpt>
      <trkpt lat="46.32807" lon="-0.67454">
        <ele>6</ele>
        <time>2012-05-11T11:47:27Z</time>
      </trkpt>
      <trkpt lat="46.32812" lon="-0.6746">
        <ele>3</ele>
        <time>2012-05-11T11:47:32Z</time>
      </trkpt>
      <trkpt lat="46.32817" lon="-0.67465">
        <ele>3</ele>
        <time>2012-05-11T11:47:37Z</time>
      </trkpt>
      <trkpt lat="46.32821" lon="-0.67469">
        <ele>4</ele>
        <time>2012-05-11T11:47:42Z</time>
      </trkpt>
      <trkpt lat="46.32826" lon="-0.67473">
        <ele>4</ele>
        <time>2012-05-11T11:47:47Z</time>
      </trkpt>
      <trkpt lat="46.32831" lon="-0.67478">
        <ele>4</ele>
        <time>2012-05-11T11:47:52Z</time>
      </trkpt>
      <trkpt lat="46.32836" lon="-0.67483">
        <ele>4</ele>
        <time>2012-05-11T11:47:57Z</time>
      </trkpt>
      <trkpt lat="46.32841" lon="-0.67485">
        <ele>4</ele>
        <time>2012-05-11T11:48:02Z</time>
      </trkpt>
      <trkpt lat="46.32846" lon="-0.67489">
        <ele>2</ele>
        <time>2012-05-11T11:48:07Z</time>
      </trkpt>
      <trkpt lat="46.32849" lon="-0.67497">
        <ele>3</ele>
        <time>2012-05-11T11:48:12Z</time>
      </trkpt>
      <trkpt lat="46.32852" lon="-0.675">
        <ele>3</ele>
        <time>2012-05-11T11:48:17Z</time>
      </trkpt>
      <trkpt lat="46.32859" lon="-0.67503">
        <ele>3</ele>
        <time>2012-05-11T11:48:22Z</time>
      </trkpt>
      <trkpt lat="46.32864" lon="-0.67506">
        <ele>3</ele>
        <time>2012-05-11T11:48:27Z</time>
      </trkpt>
      <trkpt lat="46.32869" lon="-0.6751">
        <ele>3</ele>
        <time>2012-05-11T11:48:32Z</time>
      </trkpt>
      <trkpt lat="46.32872" lon="-0.67514">
        <ele>3</ele>
        <time>2012-05-11T11:48:37Z</time>
      </trkpt>
      <trkpt lat="46.32879" lon="-0.67519">
        <ele>4</ele>
        <time>2012-05-11T11:48:42Z</time>
      </trkpt>
      <trkpt lat="46.32883" lon="-0.67522">
        <ele>4</ele>
        <time>2012-05-11T11:48:47Z</time>
      </trkpt>
      <trkpt lat="46.32886" lon="-0.67526">
        <ele>4</ele>
        <time>2012-05-11T11:48:52Z</time>
      </trkpt>
      <trkpt lat="46.32891" lon="-0.67529">
        <ele>4</ele>
        <time>2012-05-11T11:48:57Z</time>
      </trkpt>
      <trkpt lat="46.32898" lon="-0.67532">
        <ele>4</ele>
        <time>2012-05-11T11:49:02Z</time>
      </trkpt>
      <trkpt lat="46.32904" lon="-0.67532">
        <ele>4</ele>
        <time>2012-05-11T11:49:07Z</time>
      </trkpt>
      <trkpt lat="46.32906" lon="-0.67533">
        <ele>4</ele>
        <time>2012-05-11T11:49:12Z</time>
      </trkpt>
      <trkpt lat="46.32911" lon="-0.67533">
        <ele>4</ele>
        <time>2012-05-11T11:49:17Z</time>
      </trkpt>
      <trkpt lat="46.32917" lon="-0.67533">
        <ele>4</ele>
        <time>2012-05-11T11:49:22Z</time>
      </trkpt>
      <trkpt lat="46.32922" lon="-0.67535">
        <ele>4</ele>
        <time>2012-05-11T11:49:27Z</time>
      </trkpt>
      <trkpt lat="46.32928" lon="-0.67535">
        <ele>4</ele>
        <time>2012-05-11T11:49:32Z</time>
      </trkpt>
      <trkpt lat="46.32934" lon="-0.67538">
        <ele>3</ele>
        <time>2012-05-11T11:49:37Z</time>
      </trkpt>
      <trkpt lat="46.32936" lon="-0.67539">
        <ele>3</ele>
        <time>2012-05-11T11:49:42Z</time>
      </trkpt>
      <trkpt lat="46.32944" lon="-0.67537">
        <ele>3</ele>
        <time>2012-05-11T11:49:47Z</time>
      </trkpt>
      <trkpt lat="46.32949" lon="-0.67536">
        <ele>3</ele>
        <time>2012-05-11T11:49:52Z</time>
      </trkpt>
      <trkpt lat="46.32954" lon="-0.67535">
        <ele>3</ele>
        <time>2012-05-11T11:49:57Z</time>
      </trkpt>
      <trkpt lat="46.32959" lon="-0.67534">
        <ele>2</ele>
        <time>2012-05-11T11:50:02Z</time>
      </trkpt>
      <trkpt lat="46.32966" lon="-0.67533">
        <ele>2</ele>
        <time>2012-05-11T11:50:07Z</time>
      </trkpt>
      <trkpt lat="46.32973" lon="-0.67535">
        <ele>2</ele>
        <time>2012-05-11T11:50:12Z</time>
      </trkpt>
      <trkpt lat="46.32978" lon="-0.67537">
        <ele>2</ele>
        <time>2012-05-11T11:50:17Z</time>
      </trkpt>
      <trkpt lat="46.32984" lon="-0.67538">
        <ele>2</ele>
        <time>2012-05-11T11:50:22Z</time>
      </trkpt>
      <trkpt lat="46.3299" lon="-0.67537">
        <ele>2</ele>
        <time>2012-05-11T11:50:27Z</time>
      </trkpt>
      <trkpt lat="46.32994" lon="-0.67538">
        <ele>2</ele>
        <time>2012-05-11T11:50:32Z</time>
      </trkpt>
      <trkpt lat="46.32998" lon="-0.67538">
        <ele>2</ele>
        <time>2012-05-11T11:50:37Z</time>
      </trkpt>
      <trkpt lat="46.33002" lon="-0.67537">
        <ele>2</ele>
        <time>2012-05-11T11:50:42Z</time>
      </trkpt>
      <trkpt lat="46.33006" lon="-0.67537">
        <ele>2</ele>
        <time>2012-05-11T11:50:47Z</time>
      </trkpt>
      <trkpt lat="46.33013" lon="-0.67533">
        <ele>2</ele>
        <time>2012-05-11T11:50:52Z</time>
      </trkpt>
      <trkpt lat="46.33019" lon="-0.67531">
        <ele>3</ele>
        <time>2012-05-11T11:50:57Z</time>
      </trkpt>
      <trkpt lat="46.33025" lon="-0.67526">
        <ele>3</ele>
        <time>2012-05-11T11:51:02Z</time>
      </trkpt>
      <trkpt lat="46.33032" lon="-0.67532">
        <ele>3</ele>
        <time>2012-05-11T11:51:07Z</time>
      </trkpt>
      <trkpt lat="46.33035" lon="-0.67532">
        <ele>3</ele>
        <time>2012-05-11T11:51:12Z</time>
      </trkpt>
      <trkpt lat="46.33041" lon="-0.67529">
        <ele>3</ele>
        <time>2012-05-11T11:51:17Z</time>
      </trkpt>
      <trkpt lat="46.33047" lon="-0.67523">
        <ele>3</ele>
        <time>2012-05-11T11:51:22Z</time>
      </trkpt>
      <trkpt lat="46.33053" lon="-0.67522">
        <ele>3</ele>
        <time>2012-05-11T11:51:27Z</time>
      </trkpt>
      <trkpt lat="46.33059" lon="-0.67522">
        <ele>3</ele>
        <time>2012-05-11T11:51:32Z</time>
      </trkpt>
      <trkpt lat="46.33062" lon="-0.67519">
        <ele>3</ele>
        <time>2012-05-11T11:51:37Z</time>
      </trkpt>
      <trkpt lat="46.33069" lon="-0.67518">
        <ele>3</ele>
        <time>2012-05-11T11:51:42Z</time>
      </trkpt>
      <trkpt lat="46.33075" lon="-0.67518">
        <ele>4</ele>
        <time>2012-05-11T11:51:47Z</time>
      </trkpt>
      <trkpt lat="46.3308" lon="-0.67517">
        <ele>4</ele>
        <time>2012-05-11T11:51:52Z</time>
      </trkpt>
      <trkpt lat="46.33085" lon="-0.67516">
        <ele>4</ele>
        <time>2012-05-11T11:51:57Z</time>
      </trkpt>
      <trkpt lat="46.33091" lon="-0.67515">
        <ele>4</ele>
        <time>2012-05-11T11:52:02Z</time>
      </trkpt>
      <trkpt lat="46.33096" lon="-0.67515">
        <ele>4</ele>
        <time>2012-05-11T11:52:07Z</time>
      </trkpt>
      <trkpt lat="46.33101" lon="-0.67516">
        <ele>6</ele>
        <time>2012-05-11T11:52:12Z</time>
      </trkpt>
      <trkpt lat="46.33105" lon="-0.67515">
        <ele>6</ele>
        <time>2012-05-11T11:52:17Z</time>
      </trkpt>
      <trkpt lat="46.33105" lon="-0.67515">
        <ele>6</ele>
        <time>2012-05-11T11:52:27Z</time>
      </trkpt>
      <trkpt lat="46.33107" lon="-0.67516">
        <ele>6</ele>
        <time>2012-05-11T11:53:07Z</time>
      </trkpt>
      <trkpt lat="46.33109" lon="-0.67515">
        <ele>6</ele>
        <time>2012-05-11T11:53:12Z</time>
      </trkpt>
      <trkpt lat="46.33109" lon="-0.67515">
        <ele>6</ele>
        <time>2012-05-11T11:53:17Z</time>
      </trkpt>
    </trkseg>
  </trk>
</gpx>